<?xml version="1.0" encoding="UTF-8" standalone="no" ?>
<gpx xmlns="http://www.topografix.com/GPX/1/1" xmlns:xsi="http://www.w3.org/2001/XMLSchema-instance" xsi:schemaLocation="http://www.topografix.com/GPX/1/1 http://www.topografix.com/GPX/1/1/gpx.xsd" version="1.1" creator="VisuGPX - https://www.visugpx.com">
  <metadata>
    <name>BAUDOUR AN ATH</name>
    <desc><![CDATA[Randonnée des amis de la nature de ATH.
Guide: Eric Lacman
Belle rando]]></desc>
  </metadata>
  <trk>
    <name><![CDATA[2016-09-25 15:21:06]]></name>
    <trkseg>
      <trkpt lat="50.4843" lon="3.83438">
        <ele>53.01</ele>
        <time>2016-09-25T06:43:32Z</time>
      </trkpt>
      <trkpt lat="50.4843" lon="3.83438">
        <ele>53.01</ele>
        <time>2016-09-25T06:43:33Z</time>
      </trkpt>
      <trkpt lat="50.48433" lon="3.83437">
        <ele>53.97</ele>
        <time>2016-09-25T06:43:53Z</time>
      </trkpt>
      <trkpt lat="50.48434" lon="3.83432">
        <ele>53.97</ele>
        <time>2016-09-25T06:44:11Z</time>
      </trkpt>
      <trkpt lat="50.48433" lon="3.83432">
        <ele>53.49</ele>
        <time>2016-09-25T06:44:41Z</time>
      </trkpt>
      <trkpt lat="50.48432" lon="3.83434">
        <ele>53.01</ele>
        <time>2016-09-25T06:45:04Z</time>
      </trkpt>
      <trkpt lat="50.48433" lon="3.8344">
        <ele>53.01</ele>
        <time>2016-09-25T06:45:27Z</time>
      </trkpt>
      <trkpt lat="50.48431" lon="3.83442">
        <ele>53.01</ele>
        <time>2016-09-25T06:45:50Z</time>
      </trkpt>
      <trkpt lat="50.48431" lon="3.83443">
        <ele>53.97</ele>
        <time>2016-09-25T06:46:08Z</time>
      </trkpt>
      <trkpt lat="50.48428" lon="3.83442">
        <ele>53.97</ele>
        <time>2016-09-25T06:46:34Z</time>
      </trkpt>
      <trkpt lat="50.48429" lon="3.83443">
        <ele>53.97</ele>
        <time>2016-09-25T06:46:56Z</time>
      </trkpt>
      <trkpt lat="50.4843" lon="3.83441">
        <ele>52.53</ele>
        <time>2016-09-25T06:47:05Z</time>
      </trkpt>
      <trkpt lat="50.48432" lon="3.83438">
        <ele>53.49</ele>
        <time>2016-09-25T06:47:26Z</time>
      </trkpt>
      <trkpt lat="50.48434" lon="3.83433">
        <ele>53.49</ele>
        <time>2016-09-25T06:47:53Z</time>
      </trkpt>
      <trkpt lat="50.48434" lon="3.83436">
        <ele>53.49</ele>
        <time>2016-09-25T06:48:23Z</time>
      </trkpt>
      <trkpt lat="50.48424" lon="3.83447">
        <ele>53.49</ele>
        <time>2016-09-25T06:48:36Z</time>
      </trkpt>
      <trkpt lat="50.48426" lon="3.83444">
        <ele>53.49</ele>
        <time>2016-09-25T06:48:57Z</time>
      </trkpt>
      <trkpt lat="50.4843" lon="3.83439">
        <ele>53.49</ele>
        <time>2016-09-25T06:49:02Z</time>
      </trkpt>
      <trkpt lat="50.48433" lon="3.83434">
        <ele>53.49</ele>
        <time>2016-09-25T06:49:18Z</time>
      </trkpt>
      <trkpt lat="50.48431" lon="3.83432">
        <ele>53.49</ele>
        <time>2016-09-25T06:49:40Z</time>
      </trkpt>
      <trkpt lat="50.48436" lon="3.83433">
        <ele>53.97</ele>
        <time>2016-09-25T06:50:09Z</time>
      </trkpt>
      <trkpt lat="50.48432" lon="3.83438">
        <ele>53.97</ele>
        <time>2016-09-25T06:50:34Z</time>
      </trkpt>
      <trkpt lat="50.48434" lon="3.8344">
        <ele>53.97</ele>
        <time>2016-09-25T06:51:00Z</time>
      </trkpt>
      <trkpt lat="50.48435" lon="3.83434">
        <ele>53.97</ele>
        <time>2016-09-25T06:51:23Z</time>
      </trkpt>
      <trkpt lat="50.48434" lon="3.83433">
        <ele>53.97</ele>
        <time>2016-09-25T06:51:48Z</time>
      </trkpt>
      <trkpt lat="50.48436" lon="3.83432">
        <ele>53.97</ele>
        <time>2016-09-25T06:52:10Z</time>
      </trkpt>
      <trkpt lat="50.48436" lon="3.83434">
        <ele>53.97</ele>
        <time>2016-09-25T06:52:34Z</time>
      </trkpt>
      <trkpt lat="50.48431" lon="3.83434">
        <ele>53.97</ele>
        <time>2016-09-25T06:53:03Z</time>
      </trkpt>
      <trkpt lat="50.48431" lon="3.83434">
        <ele>53.97</ele>
        <time>2016-09-25T06:53:25Z</time>
      </trkpt>
      <trkpt lat="50.48433" lon="3.83436">
        <ele>53.97</ele>
        <time>2016-09-25T06:53:44Z</time>
      </trkpt>
      <trkpt lat="50.48429" lon="3.83433">
        <ele>53.97</ele>
        <time>2016-09-25T06:54:17Z</time>
      </trkpt>
      <trkpt lat="50.4843" lon="3.8343">
        <ele>53.97</ele>
        <time>2016-09-25T06:54:50Z</time>
      </trkpt>
      <trkpt lat="50.48432" lon="3.83432">
        <ele>54.45</ele>
        <time>2016-09-25T06:55:18Z</time>
      </trkpt>
      <trkpt lat="50.48436" lon="3.83435">
        <ele>53.01</ele>
        <time>2016-09-25T06:55:48Z</time>
      </trkpt>
      <trkpt lat="50.48434" lon="3.83433">
        <ele>52.53</ele>
        <time>2016-09-25T06:56:23Z</time>
      </trkpt>
      <trkpt lat="50.48433" lon="3.83434">
        <ele>53.01</ele>
        <time>2016-09-25T06:56:47Z</time>
      </trkpt>
      <trkpt lat="50.48431" lon="3.8343">
        <ele>53.01</ele>
        <time>2016-09-25T06:57:08Z</time>
      </trkpt>
      <trkpt lat="50.48429" lon="3.83433">
        <ele>53.97</ele>
        <time>2016-09-25T06:57:35Z</time>
      </trkpt>
      <trkpt lat="50.48433" lon="3.83433">
        <ele>54.45</ele>
        <time>2016-09-25T06:58:04Z</time>
      </trkpt>
      <trkpt lat="50.48432" lon="3.83437">
        <ele>54.45</ele>
        <time>2016-09-25T06:58:27Z</time>
      </trkpt>
      <trkpt lat="50.4843" lon="3.83432">
        <ele>54.45</ele>
        <time>2016-09-25T06:58:52Z</time>
      </trkpt>
      <trkpt lat="50.4843" lon="3.83433">
        <ele>54.45</ele>
        <time>2016-09-25T06:59:24Z</time>
      </trkpt>
      <trkpt lat="50.48432" lon="3.83436">
        <ele>54.45</ele>
        <time>2016-09-25T07:00:01Z</time>
      </trkpt>
      <trkpt lat="50.48431" lon="3.83434">
        <ele>54.45</ele>
        <time>2016-09-25T07:00:25Z</time>
      </trkpt>
      <trkpt lat="50.48431" lon="3.83438">
        <ele>54.45</ele>
        <time>2016-09-25T07:00:57Z</time>
      </trkpt>
      <trkpt lat="50.48428" lon="3.83449">
        <ele>54.93</ele>
        <time>2016-09-25T07:01:27Z</time>
      </trkpt>
      <trkpt lat="50.48432" lon="3.83441">
        <ele>54.93</ele>
        <time>2016-09-25T07:01:53Z</time>
      </trkpt>
      <trkpt lat="50.48432" lon="3.83438">
        <ele>54.93</ele>
        <time>2016-09-25T07:02:22Z</time>
      </trkpt>
      <trkpt lat="50.48436" lon="3.83436">
        <ele>55.41</ele>
        <time>2016-09-25T07:02:52Z</time>
      </trkpt>
      <trkpt lat="50.48435" lon="3.83432">
        <ele>41.95</ele>
        <time>2016-09-25T07:03:09Z</time>
      </trkpt>
      <trkpt lat="50.48435" lon="3.83435">
        <ele>64.55</ele>
        <time>2016-09-25T07:03:11Z</time>
      </trkpt>
      <trkpt lat="50.48435" lon="3.83436">
        <ele>64.55</ele>
        <time>2016-09-25T07:03:12Z</time>
      </trkpt>
      <trkpt lat="50.48435" lon="3.83437">
        <ele>59.26</ele>
        <time>2016-09-25T07:03:13Z</time>
      </trkpt>
      <trkpt lat="50.48435" lon="3.83437">
        <ele>55.41</ele>
        <time>2016-09-25T07:03:14Z</time>
      </trkpt>
      <trkpt lat="50.48433" lon="3.83438">
        <ele>54.45</ele>
        <time>2016-09-25T07:03:39Z</time>
      </trkpt>
      <trkpt lat="50.48433" lon="3.83441">
        <ele>54.45</ele>
        <time>2016-09-25T07:04:02Z</time>
      </trkpt>
      <trkpt lat="50.48434" lon="3.83457">
        <ele>55.89</ele>
        <time>2016-09-25T07:04:13Z</time>
      </trkpt>
      <trkpt lat="50.48438" lon="3.83478">
        <ele>55.89</ele>
        <time>2016-09-25T07:04:31Z</time>
      </trkpt>
      <trkpt lat="50.4844" lon="3.83507">
        <ele>53.97</ele>
        <time>2016-09-25T07:04:49Z</time>
      </trkpt>
      <trkpt lat="50.4844" lon="3.83531">
        <ele>53.49</ele>
        <time>2016-09-25T07:05:04Z</time>
      </trkpt>
      <trkpt lat="50.48443" lon="3.83547">
        <ele>52.53</ele>
        <time>2016-09-25T07:05:17Z</time>
      </trkpt>
      <trkpt lat="50.48446" lon="3.83552">
        <ele>52.53</ele>
        <time>2016-09-25T07:05:22Z</time>
      </trkpt>
      <trkpt lat="50.4846" lon="3.83574">
        <ele>51.57</ele>
        <time>2016-09-25T07:05:39Z</time>
      </trkpt>
      <trkpt lat="50.48461" lon="3.83576">
        <ele>51.57</ele>
        <time>2016-09-25T07:05:41Z</time>
      </trkpt>
      <trkpt lat="50.48483" lon="3.83588">
        <ele>51.57</ele>
        <time>2016-09-25T07:06:00Z</time>
      </trkpt>
      <trkpt lat="50.48501" lon="3.83595">
        <ele>51.09</ele>
        <time>2016-09-25T07:06:15Z</time>
      </trkpt>
      <trkpt lat="50.48521" lon="3.836">
        <ele>51.09</ele>
        <time>2016-09-25T07:06:30Z</time>
      </trkpt>
      <trkpt lat="50.48543" lon="3.83602">
        <ele>51.09</ele>
        <time>2016-09-25T07:06:48Z</time>
      </trkpt>
      <trkpt lat="50.48567" lon="3.83607">
        <ele>53.01</ele>
        <time>2016-09-25T07:07:06Z</time>
      </trkpt>
      <trkpt lat="50.4858" lon="3.83608">
        <ele>53.49</ele>
        <time>2016-09-25T07:07:20Z</time>
      </trkpt>
      <trkpt lat="50.486" lon="3.83608">
        <ele>54.45</ele>
        <time>2016-09-25T07:07:37Z</time>
      </trkpt>
      <trkpt lat="50.48625" lon="3.83612">
        <ele>54.93</ele>
        <time>2016-09-25T07:07:53Z</time>
      </trkpt>
      <trkpt lat="50.48627" lon="3.8361">
        <ele>54.93</ele>
        <time>2016-09-25T07:08:06Z</time>
      </trkpt>
      <trkpt lat="50.4864" lon="3.83616">
        <ele>54.93</ele>
        <time>2016-09-25T07:08:25Z</time>
      </trkpt>
      <trkpt lat="50.48668" lon="3.8362">
        <ele>55.41</ele>
        <time>2016-09-25T07:08:44Z</time>
      </trkpt>
      <trkpt lat="50.48689" lon="3.83624">
        <ele>55.89</ele>
        <time>2016-09-25T07:08:59Z</time>
      </trkpt>
      <trkpt lat="50.4871" lon="3.83629">
        <ele>55.89</ele>
        <time>2016-09-25T07:09:14Z</time>
      </trkpt>
      <trkpt lat="50.48727" lon="3.83658">
        <ele>56.37</ele>
        <time>2016-09-25T07:09:33Z</time>
      </trkpt>
      <trkpt lat="50.48733" lon="3.83674">
        <ele>56.86</ele>
        <time>2016-09-25T07:09:50Z</time>
      </trkpt>
      <trkpt lat="50.48739" lon="3.83697">
        <ele>60.22</ele>
        <time>2016-09-25T07:10:12Z</time>
      </trkpt>
      <trkpt lat="50.4875" lon="3.83716">
        <ele>61.66</ele>
        <time>2016-09-25T07:10:32Z</time>
      </trkpt>
      <trkpt lat="50.48752" lon="3.83733">
        <ele>63.1</ele>
        <time>2016-09-25T07:10:48Z</time>
      </trkpt>
      <trkpt lat="50.48751" lon="3.83737">
        <ele>63.1</ele>
        <time>2016-09-25T07:10:50Z</time>
      </trkpt>
      <trkpt lat="50.48746" lon="3.83747">
        <ele>63.58</ele>
        <time>2016-09-25T07:10:56Z</time>
      </trkpt>
      <trkpt lat="50.48743" lon="3.83761">
        <ele>65.03</ele>
        <time>2016-09-25T07:11:06Z</time>
      </trkpt>
      <trkpt lat="50.48738" lon="3.83779">
        <ele>65.99</ele>
        <time>2016-09-25T07:11:22Z</time>
      </trkpt>
      <trkpt lat="50.48742" lon="3.83792">
        <ele>65.99</ele>
        <time>2016-09-25T07:11:36Z</time>
      </trkpt>
      <trkpt lat="50.48755" lon="3.83813">
        <ele>65.99</ele>
        <time>2016-09-25T07:11:55Z</time>
      </trkpt>
      <trkpt lat="50.48774" lon="3.83832">
        <ele>66.47</ele>
        <time>2016-09-25T07:12:13Z</time>
      </trkpt>
      <trkpt lat="50.48779" lon="3.83838">
        <ele>66.47</ele>
        <time>2016-09-25T07:12:18Z</time>
      </trkpt>
      <trkpt lat="50.48785" lon="3.83846">
        <ele>66.47</ele>
        <time>2016-09-25T07:12:24Z</time>
      </trkpt>
      <trkpt lat="50.48804" lon="3.8386">
        <ele>67.43</ele>
        <time>2016-09-25T07:12:40Z</time>
      </trkpt>
      <trkpt lat="50.48823" lon="3.83877">
        <ele>67.91</ele>
        <time>2016-09-25T07:12:57Z</time>
      </trkpt>
      <trkpt lat="50.48839" lon="3.83896">
        <ele>68.87</ele>
        <time>2016-09-25T07:13:14Z</time>
      </trkpt>
      <trkpt lat="50.48855" lon="3.83912">
        <ele>69.35</ele>
        <time>2016-09-25T07:13:30Z</time>
      </trkpt>
      <trkpt lat="50.48867" lon="3.83923">
        <ele>69.83</ele>
        <time>2016-09-25T07:13:41Z</time>
      </trkpt>
      <trkpt lat="50.48873" lon="3.83925">
        <ele>69.83</ele>
        <time>2016-09-25T07:13:46Z</time>
      </trkpt>
      <trkpt lat="50.48888" lon="3.83945">
        <ele>70.31</ele>
        <time>2016-09-25T07:14:02Z</time>
      </trkpt>
      <trkpt lat="50.48886" lon="3.83968">
        <ele>70.79</ele>
        <time>2016-09-25T07:14:17Z</time>
      </trkpt>
      <trkpt lat="50.48884" lon="3.83972">
        <ele>70.79</ele>
        <time>2016-09-25T07:14:19Z</time>
      </trkpt>
      <trkpt lat="50.48875" lon="3.84003">
        <ele>70.79</ele>
        <time>2016-09-25T07:14:37Z</time>
      </trkpt>
      <trkpt lat="50.48875" lon="3.84005">
        <ele>70.79</ele>
        <time>2016-09-25T07:14:38Z</time>
      </trkpt>
      <trkpt lat="50.4889" lon="3.84025">
        <ele>71.27</ele>
        <time>2016-09-25T07:14:55Z</time>
      </trkpt>
      <trkpt lat="50.48908" lon="3.84042">
        <ele>70.79</ele>
        <time>2016-09-25T07:15:14Z</time>
      </trkpt>
      <trkpt lat="50.48927" lon="3.84052">
        <ele>71.76</ele>
        <time>2016-09-25T07:15:31Z</time>
      </trkpt>
      <trkpt lat="50.4895" lon="3.84049">
        <ele>72.24</ele>
        <time>2016-09-25T07:15:49Z</time>
      </trkpt>
      <trkpt lat="50.48967" lon="3.84048">
        <ele>72.24</ele>
        <time>2016-09-25T07:16:06Z</time>
      </trkpt>
      <trkpt lat="50.48994" lon="3.84047">
        <ele>73.2</ele>
        <time>2016-09-25T07:16:24Z</time>
      </trkpt>
      <trkpt lat="50.49011" lon="3.84048">
        <ele>73.2</ele>
        <time>2016-09-25T07:16:40Z</time>
      </trkpt>
      <trkpt lat="50.49038" lon="3.84038">
        <ele>73.68</ele>
        <time>2016-09-25T07:16:58Z</time>
      </trkpt>
      <trkpt lat="50.49059" lon="3.84032">
        <ele>74.64</ele>
        <time>2016-09-25T07:17:15Z</time>
      </trkpt>
      <trkpt lat="50.4908" lon="3.84033">
        <ele>75.6</ele>
        <time>2016-09-25T07:17:34Z</time>
      </trkpt>
      <trkpt lat="50.49103" lon="3.84035">
        <ele>76.08</ele>
        <time>2016-09-25T07:17:53Z</time>
      </trkpt>
      <trkpt lat="50.49127" lon="3.8403">
        <ele>76.56</ele>
        <time>2016-09-25T07:18:10Z</time>
      </trkpt>
      <trkpt lat="50.49143" lon="3.84016">
        <ele>77.04</ele>
        <time>2016-09-25T07:18:25Z</time>
      </trkpt>
      <trkpt lat="50.4916" lon="3.84">
        <ele>77.04</ele>
        <time>2016-09-25T07:18:42Z</time>
      </trkpt>
      <trkpt lat="50.49173" lon="3.83986">
        <ele>77.52</ele>
        <time>2016-09-25T07:18:57Z</time>
      </trkpt>
      <trkpt lat="50.4919" lon="3.8397">
        <ele>77.52</ele>
        <time>2016-09-25T07:19:12Z</time>
      </trkpt>
      <trkpt lat="50.49209" lon="3.83961">
        <ele>77.52</ele>
        <time>2016-09-25T07:19:28Z</time>
      </trkpt>
      <trkpt lat="50.49224" lon="3.83951">
        <ele>78</ele>
        <time>2016-09-25T07:19:44Z</time>
      </trkpt>
      <trkpt lat="50.49247" lon="3.83937">
        <ele>78</ele>
        <time>2016-09-25T07:20:02Z</time>
      </trkpt>
      <trkpt lat="50.49266" lon="3.83926">
        <ele>78</ele>
        <time>2016-09-25T07:20:18Z</time>
      </trkpt>
      <trkpt lat="50.49283" lon="3.83914">
        <ele>78</ele>
        <time>2016-09-25T07:20:34Z</time>
      </trkpt>
      <trkpt lat="50.49312" lon="3.83899">
        <ele>78</ele>
        <time>2016-09-25T07:20:52Z</time>
      </trkpt>
      <trkpt lat="50.49334" lon="3.8389">
        <ele>78</ele>
        <time>2016-09-25T07:21:12Z</time>
      </trkpt>
      <trkpt lat="50.49352" lon="3.83884">
        <ele>78</ele>
        <time>2016-09-25T07:21:28Z</time>
      </trkpt>
      <trkpt lat="50.4937" lon="3.83877">
        <ele>76.56</ele>
        <time>2016-09-25T07:21:44Z</time>
      </trkpt>
      <trkpt lat="50.49391" lon="3.83868">
        <ele>76.56</ele>
        <time>2016-09-25T07:22:00Z</time>
      </trkpt>
      <trkpt lat="50.49414" lon="3.83859">
        <ele>76.56</ele>
        <time>2016-09-25T07:22:19Z</time>
      </trkpt>
      <trkpt lat="50.49433" lon="3.83852">
        <ele>76.08</ele>
        <time>2016-09-25T07:22:37Z</time>
      </trkpt>
      <trkpt lat="50.49449" lon="3.83846">
        <ele>76.08</ele>
        <time>2016-09-25T07:22:52Z</time>
      </trkpt>
      <trkpt lat="50.49471" lon="3.83837">
        <ele>75.6</ele>
        <time>2016-09-25T07:23:10Z</time>
      </trkpt>
      <trkpt lat="50.49482" lon="3.83843">
        <ele>75.12</ele>
        <time>2016-09-25T07:23:29Z</time>
      </trkpt>
      <trkpt lat="50.49483" lon="3.83871">
        <ele>75.12</ele>
        <time>2016-09-25T07:23:47Z</time>
      </trkpt>
      <trkpt lat="50.49481" lon="3.83908">
        <ele>76.08</ele>
        <time>2016-09-25T07:24:04Z</time>
      </trkpt>
      <trkpt lat="50.49485" lon="3.83937">
        <ele>76.08</ele>
        <time>2016-09-25T07:24:22Z</time>
      </trkpt>
      <trkpt lat="50.4949" lon="3.83965">
        <ele>77.04</ele>
        <time>2016-09-25T07:24:36Z</time>
      </trkpt>
      <trkpt lat="50.49508" lon="3.83987">
        <ele>78</ele>
        <time>2016-09-25T07:24:55Z</time>
      </trkpt>
      <trkpt lat="50.49527" lon="3.84002">
        <ele>78.48</ele>
        <time>2016-09-25T07:25:13Z</time>
      </trkpt>
      <trkpt lat="50.49545" lon="3.8402">
        <ele>79.45</ele>
        <time>2016-09-25T07:25:32Z</time>
      </trkpt>
      <trkpt lat="50.4956" lon="3.84035">
        <ele>79.93</ele>
        <time>2016-09-25T07:25:51Z</time>
      </trkpt>
      <trkpt lat="50.49582" lon="3.84057">
        <ele>79.45</ele>
        <time>2016-09-25T07:26:10Z</time>
      </trkpt>
      <trkpt lat="50.49602" lon="3.84076">
        <ele>79.93</ele>
        <time>2016-09-25T07:26:29Z</time>
      </trkpt>
      <trkpt lat="50.4962" lon="3.84101">
        <ele>80.41</ele>
        <time>2016-09-25T07:26:49Z</time>
      </trkpt>
      <trkpt lat="50.49641" lon="3.84119">
        <ele>80.41</ele>
        <time>2016-09-25T07:27:07Z</time>
      </trkpt>
      <trkpt lat="50.49666" lon="3.84136">
        <ele>80.41</ele>
        <time>2016-09-25T07:27:27Z</time>
      </trkpt>
      <trkpt lat="50.49684" lon="3.84152">
        <ele>80.41</ele>
        <time>2016-09-25T07:27:43Z</time>
      </trkpt>
      <trkpt lat="50.49702" lon="3.84168">
        <ele>80.41</ele>
        <time>2016-09-25T07:27:59Z</time>
      </trkpt>
      <trkpt lat="50.49719" lon="3.84186">
        <ele>80.41</ele>
        <time>2016-09-25T07:28:16Z</time>
      </trkpt>
      <trkpt lat="50.49739" lon="3.84206">
        <ele>80.41</ele>
        <time>2016-09-25T07:28:34Z</time>
      </trkpt>
      <trkpt lat="50.49759" lon="3.84223">
        <ele>80.41</ele>
        <time>2016-09-25T07:28:52Z</time>
      </trkpt>
      <trkpt lat="50.49783" lon="3.84247">
        <ele>80.41</ele>
        <time>2016-09-25T07:29:12Z</time>
      </trkpt>
      <trkpt lat="50.49785" lon="3.8425">
        <ele>80.41</ele>
        <time>2016-09-25T07:29:14Z</time>
      </trkpt>
      <trkpt lat="50.49807" lon="3.8427">
        <ele>80.41</ele>
        <time>2016-09-25T07:29:33Z</time>
      </trkpt>
      <trkpt lat="50.49826" lon="3.84287">
        <ele>80.41</ele>
        <time>2016-09-25T07:29:51Z</time>
      </trkpt>
      <trkpt lat="50.49829" lon="3.84291">
        <ele>80.41</ele>
        <time>2016-09-25T07:29:55Z</time>
      </trkpt>
      <trkpt lat="50.4985" lon="3.84309">
        <ele>80.89</ele>
        <time>2016-09-25T07:30:12Z</time>
      </trkpt>
      <trkpt lat="50.49871" lon="3.8433">
        <ele>80.89</ele>
        <time>2016-09-25T07:30:31Z</time>
      </trkpt>
      <trkpt lat="50.49878" lon="3.84337">
        <ele>81.37</ele>
        <time>2016-09-25T07:30:40Z</time>
      </trkpt>
      <trkpt lat="50.49899" lon="3.84358">
        <ele>81.37</ele>
        <time>2016-09-25T07:30:58Z</time>
      </trkpt>
      <trkpt lat="50.49915" lon="3.84375">
        <ele>81.37</ele>
        <time>2016-09-25T07:31:15Z</time>
      </trkpt>
      <trkpt lat="50.49917" lon="3.84379">
        <ele>81.37</ele>
        <time>2016-09-25T07:31:19Z</time>
      </trkpt>
      <trkpt lat="50.49924" lon="3.84388">
        <ele>81.37</ele>
        <time>2016-09-25T07:31:25Z</time>
      </trkpt>
      <trkpt lat="50.49947" lon="3.84403">
        <ele>81.37</ele>
        <time>2016-09-25T07:31:42Z</time>
      </trkpt>
      <trkpt lat="50.49954" lon="3.84405">
        <ele>81.85</ele>
        <time>2016-09-25T07:31:56Z</time>
      </trkpt>
      <trkpt lat="50.49973" lon="3.84407">
        <ele>81.85</ele>
        <time>2016-09-25T07:32:15Z</time>
      </trkpt>
      <trkpt lat="50.49992" lon="3.84408">
        <ele>81.85</ele>
        <time>2016-09-25T07:32:32Z</time>
      </trkpt>
      <trkpt lat="50.50011" lon="3.84412">
        <ele>81.85</ele>
        <time>2016-09-25T07:32:51Z</time>
      </trkpt>
      <trkpt lat="50.50033" lon="3.84419">
        <ele>81.85</ele>
        <time>2016-09-25T07:33:11Z</time>
      </trkpt>
      <trkpt lat="50.50048" lon="3.84419">
        <ele>80.89</ele>
        <time>2016-09-25T07:33:29Z</time>
      </trkpt>
      <trkpt lat="50.50065" lon="3.84421">
        <ele>81.85</ele>
        <time>2016-09-25T07:33:48Z</time>
      </trkpt>
      <trkpt lat="50.50079" lon="3.84427">
        <ele>82.33</ele>
        <time>2016-09-25T07:34:05Z</time>
      </trkpt>
      <trkpt lat="50.50097" lon="3.84434">
        <ele>83.29</ele>
        <time>2016-09-25T07:34:22Z</time>
      </trkpt>
      <trkpt lat="50.50113" lon="3.8444">
        <ele>83.77</ele>
        <time>2016-09-25T07:34:40Z</time>
      </trkpt>
      <trkpt lat="50.50136" lon="3.84442">
        <ele>83.77</ele>
        <time>2016-09-25T07:35:00Z</time>
      </trkpt>
      <trkpt lat="50.50155" lon="3.84451">
        <ele>84.25</ele>
        <time>2016-09-25T07:35:20Z</time>
      </trkpt>
      <trkpt lat="50.50159" lon="3.84454">
        <ele>84.25</ele>
        <time>2016-09-25T07:35:26Z</time>
      </trkpt>
      <trkpt lat="50.5017" lon="3.84457">
        <ele>84.73</ele>
        <time>2016-09-25T07:35:42Z</time>
      </trkpt>
      <trkpt lat="50.50191" lon="3.84466">
        <ele>84.73</ele>
        <time>2016-09-25T07:35:59Z</time>
      </trkpt>
      <trkpt lat="50.50202" lon="3.84476">
        <ele>84.73</ele>
        <time>2016-09-25T07:36:15Z</time>
      </trkpt>
      <trkpt lat="50.50216" lon="3.84493">
        <ele>85.21</ele>
        <time>2016-09-25T07:36:34Z</time>
      </trkpt>
      <trkpt lat="50.50229" lon="3.84509">
        <ele>85.21</ele>
        <time>2016-09-25T07:36:52Z</time>
      </trkpt>
      <trkpt lat="50.50246" lon="3.8453">
        <ele>85.21</ele>
        <time>2016-09-25T07:37:13Z</time>
      </trkpt>
      <trkpt lat="50.50257" lon="3.84543">
        <ele>85.21</ele>
        <time>2016-09-25T07:37:29Z</time>
      </trkpt>
      <trkpt lat="50.50272" lon="3.8456">
        <ele>85.21</ele>
        <time>2016-09-25T07:37:48Z</time>
      </trkpt>
      <trkpt lat="50.50291" lon="3.84578">
        <ele>85.21</ele>
        <time>2016-09-25T07:38:07Z</time>
      </trkpt>
      <trkpt lat="50.50309" lon="3.84592">
        <ele>85.21</ele>
        <time>2016-09-25T07:38:26Z</time>
      </trkpt>
      <trkpt lat="50.50328" lon="3.84611">
        <ele>85.69</ele>
        <time>2016-09-25T07:38:46Z</time>
      </trkpt>
      <trkpt lat="50.5035" lon="3.84634">
        <ele>85.69</ele>
        <time>2016-09-25T07:39:07Z</time>
      </trkpt>
      <trkpt lat="50.50364" lon="3.84648">
        <ele>85.69</ele>
        <time>2016-09-25T07:39:23Z</time>
      </trkpt>
      <trkpt lat="50.50366" lon="3.8465">
        <ele>85.69</ele>
        <time>2016-09-25T07:39:25Z</time>
      </trkpt>
      <trkpt lat="50.50384" lon="3.84669">
        <ele>85.69</ele>
        <time>2016-09-25T07:39:42Z</time>
      </trkpt>
      <trkpt lat="50.50387" lon="3.8467">
        <ele>85.69</ele>
        <time>2016-09-25T07:39:58Z</time>
      </trkpt>
      <trkpt lat="50.50399" lon="3.8469">
        <ele>85.69</ele>
        <time>2016-09-25T07:40:17Z</time>
      </trkpt>
      <trkpt lat="50.50416" lon="3.84708">
        <ele>85.21</ele>
        <time>2016-09-25T07:40:35Z</time>
      </trkpt>
      <trkpt lat="50.50434" lon="3.84729">
        <ele>85.21</ele>
        <time>2016-09-25T07:40:53Z</time>
      </trkpt>
      <trkpt lat="50.50445" lon="3.8475">
        <ele>84.25</ele>
        <time>2016-09-25T07:41:10Z</time>
      </trkpt>
      <trkpt lat="50.50456" lon="3.84762">
        <ele>84.25</ele>
        <time>2016-09-25T07:41:20Z</time>
      </trkpt>
      <trkpt lat="50.50473" lon="3.84786">
        <ele>83.29</ele>
        <time>2016-09-25T07:41:38Z</time>
      </trkpt>
      <trkpt lat="50.50485" lon="3.84815">
        <ele>82.81</ele>
        <time>2016-09-25T07:41:54Z</time>
      </trkpt>
      <trkpt lat="50.50499" lon="3.84836">
        <ele>82.81</ele>
        <time>2016-09-25T07:42:10Z</time>
      </trkpt>
      <trkpt lat="50.50511" lon="3.84855">
        <ele>82.81</ele>
        <time>2016-09-25T07:42:24Z</time>
      </trkpt>
      <trkpt lat="50.50521" lon="3.84877">
        <ele>82.33</ele>
        <time>2016-09-25T07:42:41Z</time>
      </trkpt>
      <trkpt lat="50.50535" lon="3.84901">
        <ele>81.85</ele>
        <time>2016-09-25T07:42:58Z</time>
      </trkpt>
      <trkpt lat="50.50552" lon="3.84921">
        <ele>81.37</ele>
        <time>2016-09-25T07:43:17Z</time>
      </trkpt>
      <trkpt lat="50.50569" lon="3.84949">
        <ele>80.41</ele>
        <time>2016-09-25T07:43:36Z</time>
      </trkpt>
      <trkpt lat="50.50585" lon="3.84973">
        <ele>79.45</ele>
        <time>2016-09-25T07:43:57Z</time>
      </trkpt>
      <trkpt lat="50.50598" lon="3.84992">
        <ele>78.97</ele>
        <time>2016-09-25T07:44:17Z</time>
      </trkpt>
      <trkpt lat="50.50616" lon="3.85011">
        <ele>78</ele>
        <time>2016-09-25T07:44:38Z</time>
      </trkpt>
      <trkpt lat="50.50621" lon="3.85023">
        <ele>78</ele>
        <time>2016-09-25T07:44:54Z</time>
      </trkpt>
      <trkpt lat="50.50631" lon="3.85046">
        <ele>78</ele>
        <time>2016-09-25T07:45:13Z</time>
      </trkpt>
      <trkpt lat="50.50638" lon="3.85053">
        <ele>73.2</ele>
        <time>2016-09-25T07:45:23Z</time>
      </trkpt>
      <trkpt lat="50.50639" lon="3.85054">
        <ele>84.25</ele>
        <time>2016-09-25T07:45:24Z</time>
      </trkpt>
      <trkpt lat="50.50639" lon="3.85055">
        <ele>77.52</ele>
        <time>2016-09-25T07:45:25Z</time>
      </trkpt>
      <trkpt lat="50.50647" lon="3.85049">
        <ele>78</ele>
        <time>2016-09-25T07:45:44Z</time>
      </trkpt>
      <trkpt lat="50.50649" lon="3.85047">
        <ele>78.97</ele>
        <time>2016-09-25T07:46:02Z</time>
      </trkpt>
      <trkpt lat="50.50651" lon="3.85048">
        <ele>77.52</ele>
        <time>2016-09-25T07:46:09Z</time>
      </trkpt>
      <trkpt lat="50.50652" lon="3.85051">
        <ele>78.48</ele>
        <time>2016-09-25T07:46:27Z</time>
      </trkpt>
      <trkpt lat="50.50649" lon="3.85051">
        <ele>78</ele>
        <time>2016-09-25T07:46:44Z</time>
      </trkpt>
      <trkpt lat="50.50649" lon="3.8505">
        <ele>78</ele>
        <time>2016-09-25T07:47:04Z</time>
      </trkpt>
      <trkpt lat="50.50651" lon="3.8505">
        <ele>78</ele>
        <time>2016-09-25T07:47:23Z</time>
      </trkpt>
      <trkpt lat="50.5065" lon="3.85052">
        <ele>78</ele>
        <time>2016-09-25T07:47:39Z</time>
      </trkpt>
      <trkpt lat="50.50649" lon="3.85052">
        <ele>74.16</ele>
        <time>2016-09-25T07:47:40Z</time>
      </trkpt>
      <trkpt lat="50.50649" lon="3.85052">
        <ele>74.16</ele>
        <time>2016-09-25T07:47:41Z</time>
      </trkpt>
      <trkpt lat="50.50649" lon="3.85051">
        <ele>85.21</ele>
        <time>2016-09-25T07:47:42Z</time>
      </trkpt>
      <trkpt lat="50.50649" lon="3.8505">
        <ele>78.97</ele>
        <time>2016-09-25T07:47:43Z</time>
      </trkpt>
      <trkpt lat="50.5065" lon="3.85047">
        <ele>78</ele>
        <time>2016-09-25T07:47:47Z</time>
      </trkpt>
      <trkpt lat="50.50653" lon="3.85038">
        <ele>78</ele>
        <time>2016-09-25T07:47:53Z</time>
      </trkpt>
      <trkpt lat="50.50657" lon="3.85025">
        <ele>77.52</ele>
        <time>2016-09-25T07:48:01Z</time>
      </trkpt>
      <trkpt lat="50.5066" lon="3.85014">
        <ele>77.04</ele>
        <time>2016-09-25T07:48:07Z</time>
      </trkpt>
      <trkpt lat="50.50667" lon="3.84986">
        <ele>76.08</ele>
        <time>2016-09-25T07:48:23Z</time>
      </trkpt>
      <trkpt lat="50.50671" lon="3.84975">
        <ele>76.08</ele>
        <time>2016-09-25T07:48:29Z</time>
      </trkpt>
      <trkpt lat="50.50673" lon="3.84964">
        <ele>75.6</ele>
        <time>2016-09-25T07:48:35Z</time>
      </trkpt>
      <trkpt lat="50.50678" lon="3.84951">
        <ele>75.6</ele>
        <time>2016-09-25T07:48:42Z</time>
      </trkpt>
      <trkpt lat="50.50684" lon="3.84932">
        <ele>75.6</ele>
        <time>2016-09-25T07:48:53Z</time>
      </trkpt>
      <trkpt lat="50.50688" lon="3.84916">
        <ele>76.08</ele>
        <time>2016-09-25T07:49:02Z</time>
      </trkpt>
      <trkpt lat="50.5069" lon="3.84911">
        <ele>76.08</ele>
        <time>2016-09-25T07:49:05Z</time>
      </trkpt>
      <trkpt lat="50.50696" lon="3.84896">
        <ele>74.64</ele>
        <time>2016-09-25T07:49:15Z</time>
      </trkpt>
      <trkpt lat="50.50704" lon="3.84889">
        <ele>78</ele>
        <time>2016-09-25T07:49:25Z</time>
      </trkpt>
      <trkpt lat="50.50706" lon="3.84887">
        <ele>75.6</ele>
        <time>2016-09-25T07:49:27Z</time>
      </trkpt>
      <trkpt lat="50.5071" lon="3.84877">
        <ele>75.6</ele>
        <time>2016-09-25T07:49:33Z</time>
      </trkpt>
      <trkpt lat="50.50723" lon="3.84856">
        <ele>75.6</ele>
        <time>2016-09-25T07:49:46Z</time>
      </trkpt>
      <trkpt lat="50.50728" lon="3.84842">
        <ele>75.6</ele>
        <time>2016-09-25T07:49:54Z</time>
      </trkpt>
      <trkpt lat="50.50732" lon="3.84833">
        <ele>75.6</ele>
        <time>2016-09-25T07:49:59Z</time>
      </trkpt>
      <trkpt lat="50.5074" lon="3.84817">
        <ele>75.12</ele>
        <time>2016-09-25T07:50:09Z</time>
      </trkpt>
      <trkpt lat="50.50748" lon="3.84789">
        <ele>75.12</ele>
        <time>2016-09-25T07:50:24Z</time>
      </trkpt>
      <trkpt lat="50.50753" lon="3.84774">
        <ele>76.08</ele>
        <time>2016-09-25T07:50:37Z</time>
      </trkpt>
      <trkpt lat="50.50764" lon="3.84741">
        <ele>76.08</ele>
        <time>2016-09-25T07:50:57Z</time>
      </trkpt>
      <trkpt lat="50.5077" lon="3.8471">
        <ele>76.08</ele>
        <time>2016-09-25T07:51:15Z</time>
      </trkpt>
      <trkpt lat="50.50775" lon="3.84692">
        <ele>76.08</ele>
        <time>2016-09-25T07:51:27Z</time>
      </trkpt>
      <trkpt lat="50.50775" lon="3.84687">
        <ele>76.08</ele>
        <time>2016-09-25T07:51:30Z</time>
      </trkpt>
      <trkpt lat="50.50786" lon="3.84656">
        <ele>76.56</ele>
        <time>2016-09-25T07:51:49Z</time>
      </trkpt>
      <trkpt lat="50.50791" lon="3.84627">
        <ele>76.56</ele>
        <time>2016-09-25T07:52:05Z</time>
      </trkpt>
      <trkpt lat="50.50795" lon="3.846">
        <ele>76.56</ele>
        <time>2016-09-25T07:52:19Z</time>
      </trkpt>
      <trkpt lat="50.50798" lon="3.84567">
        <ele>76.56</ele>
        <time>2016-09-25T07:52:35Z</time>
      </trkpt>
      <trkpt lat="50.50803" lon="3.84531">
        <ele>76.56</ele>
        <time>2016-09-25T07:52:53Z</time>
      </trkpt>
      <trkpt lat="50.50806" lon="3.84523">
        <ele>76.56</ele>
        <time>2016-09-25T07:52:57Z</time>
      </trkpt>
      <trkpt lat="50.50809" lon="3.84519">
        <ele>76.56</ele>
        <time>2016-09-25T07:53:01Z</time>
      </trkpt>
      <trkpt lat="50.50812" lon="3.84519">
        <ele>76.56</ele>
        <time>2016-09-25T07:53:04Z</time>
      </trkpt>
      <trkpt lat="50.50833" lon="3.84536">
        <ele>76.56</ele>
        <time>2016-09-25T07:53:21Z</time>
      </trkpt>
      <trkpt lat="50.50854" lon="3.84568">
        <ele>76.56</ele>
        <time>2016-09-25T07:53:42Z</time>
      </trkpt>
      <trkpt lat="50.50874" lon="3.84593">
        <ele>75.12</ele>
        <time>2016-09-25T07:54:01Z</time>
      </trkpt>
      <trkpt lat="50.50893" lon="3.84607">
        <ele>75.12</ele>
        <time>2016-09-25T07:54:19Z</time>
      </trkpt>
      <trkpt lat="50.50918" lon="3.84621">
        <ele>74.64</ele>
        <time>2016-09-25T07:54:39Z</time>
      </trkpt>
      <trkpt lat="50.50942" lon="3.84636">
        <ele>74.16</ele>
        <time>2016-09-25T07:54:59Z</time>
      </trkpt>
      <trkpt lat="50.50964" lon="3.84652">
        <ele>73.2</ele>
        <time>2016-09-25T07:55:19Z</time>
      </trkpt>
      <trkpt lat="50.50983" lon="3.84664">
        <ele>73.2</ele>
        <time>2016-09-25T07:55:36Z</time>
      </trkpt>
      <trkpt lat="50.51003" lon="3.84675">
        <ele>72.72</ele>
        <time>2016-09-25T07:55:53Z</time>
      </trkpt>
      <trkpt lat="50.51026" lon="3.84684">
        <ele>71.76</ele>
        <time>2016-09-25T07:56:11Z</time>
      </trkpt>
      <trkpt lat="50.51053" lon="3.84698">
        <ele>71.76</ele>
        <time>2016-09-25T07:56:32Z</time>
      </trkpt>
      <trkpt lat="50.51078" lon="3.84713">
        <ele>71.76</ele>
        <time>2016-09-25T07:56:52Z</time>
      </trkpt>
      <trkpt lat="50.51101" lon="3.84728">
        <ele>71.27</ele>
        <time>2016-09-25T07:57:11Z</time>
      </trkpt>
      <trkpt lat="50.51122" lon="3.84746">
        <ele>70.79</ele>
        <time>2016-09-25T07:57:30Z</time>
      </trkpt>
      <trkpt lat="50.51143" lon="3.84765">
        <ele>70.31</ele>
        <time>2016-09-25T07:57:49Z</time>
      </trkpt>
      <trkpt lat="50.51164" lon="3.84785">
        <ele>69.83</ele>
        <time>2016-09-25T07:58:07Z</time>
      </trkpt>
      <trkpt lat="50.51186" lon="3.8481">
        <ele>69.35</ele>
        <time>2016-09-25T07:58:28Z</time>
      </trkpt>
      <trkpt lat="50.51206" lon="3.84831">
        <ele>68.87</ele>
        <time>2016-09-25T07:58:48Z</time>
      </trkpt>
      <trkpt lat="50.51227" lon="3.84852">
        <ele>68.87</ele>
        <time>2016-09-25T07:59:07Z</time>
      </trkpt>
      <trkpt lat="50.51248" lon="3.8487">
        <ele>68.39</ele>
        <time>2016-09-25T07:59:25Z</time>
      </trkpt>
      <trkpt lat="50.51268" lon="3.8489">
        <ele>68.39</ele>
        <time>2016-09-25T07:59:43Z</time>
      </trkpt>
      <trkpt lat="50.51287" lon="3.84912">
        <ele>68.39</ele>
        <time>2016-09-25T08:00:02Z</time>
      </trkpt>
      <trkpt lat="50.51307" lon="3.84936">
        <ele>68.39</ele>
        <time>2016-09-25T08:00:22Z</time>
      </trkpt>
      <trkpt lat="50.51325" lon="3.84962">
        <ele>68.87</ele>
        <time>2016-09-25T08:00:41Z</time>
      </trkpt>
      <trkpt lat="50.51341" lon="3.84985">
        <ele>68.87</ele>
        <time>2016-09-25T08:00:59Z</time>
      </trkpt>
      <trkpt lat="50.51363" lon="3.85014">
        <ele>67.91</ele>
        <time>2016-09-25T08:01:21Z</time>
      </trkpt>
      <trkpt lat="50.51386" lon="3.85035">
        <ele>67.43</ele>
        <time>2016-09-25T08:01:43Z</time>
      </trkpt>
      <trkpt lat="50.51406" lon="3.85054">
        <ele>67.43</ele>
        <time>2016-09-25T08:02:01Z</time>
      </trkpt>
      <trkpt lat="50.51425" lon="3.85069">
        <ele>66.95</ele>
        <time>2016-09-25T08:02:19Z</time>
      </trkpt>
      <trkpt lat="50.51445" lon="3.85086">
        <ele>67.43</ele>
        <time>2016-09-25T08:02:38Z</time>
      </trkpt>
      <trkpt lat="50.51455" lon="3.85105">
        <ele>67.43</ele>
        <time>2016-09-25T08:02:53Z</time>
      </trkpt>
      <trkpt lat="50.51456" lon="3.85123">
        <ele>66.95</ele>
        <time>2016-09-25T08:03:03Z</time>
      </trkpt>
      <trkpt lat="50.51454" lon="3.85129">
        <ele>67.43</ele>
        <time>2016-09-25T08:03:07Z</time>
      </trkpt>
      <trkpt lat="50.51438" lon="3.85159">
        <ele>67.43</ele>
        <time>2016-09-25T08:03:27Z</time>
      </trkpt>
      <trkpt lat="50.51429" lon="3.85173">
        <ele>68.87</ele>
        <time>2016-09-25T08:03:37Z</time>
      </trkpt>
      <trkpt lat="50.51415" lon="3.85199">
        <ele>68.87</ele>
        <time>2016-09-25T08:03:54Z</time>
      </trkpt>
      <trkpt lat="50.51402" lon="3.85219">
        <ele>68.87</ele>
        <time>2016-09-25T08:04:10Z</time>
      </trkpt>
      <trkpt lat="50.51399" lon="3.85224">
        <ele>68.87</ele>
        <time>2016-09-25T08:04:14Z</time>
      </trkpt>
      <trkpt lat="50.51379" lon="3.85247">
        <ele>68.87</ele>
        <time>2016-09-25T08:04:33Z</time>
      </trkpt>
      <trkpt lat="50.51362" lon="3.85264">
        <ele>68.87</ele>
        <time>2016-09-25T08:04:49Z</time>
      </trkpt>
      <trkpt lat="50.51345" lon="3.85287">
        <ele>68.87</ele>
        <time>2016-09-25T08:05:06Z</time>
      </trkpt>
      <trkpt lat="50.5133" lon="3.85309">
        <ele>69.35</ele>
        <time>2016-09-25T08:05:22Z</time>
      </trkpt>
      <trkpt lat="50.5132" lon="3.85322">
        <ele>69.35</ele>
        <time>2016-09-25T08:05:34Z</time>
      </trkpt>
      <trkpt lat="50.51315" lon="3.85328">
        <ele>69.35</ele>
        <time>2016-09-25T08:05:39Z</time>
      </trkpt>
      <trkpt lat="50.51309" lon="3.85337">
        <ele>69.35</ele>
        <time>2016-09-25T08:05:46Z</time>
      </trkpt>
      <trkpt lat="50.51294" lon="3.85359">
        <ele>69.35</ele>
        <time>2016-09-25T08:06:03Z</time>
      </trkpt>
      <trkpt lat="50.51289" lon="3.85368">
        <ele>69.35</ele>
        <time>2016-09-25T08:06:10Z</time>
      </trkpt>
      <trkpt lat="50.5127" lon="3.8539">
        <ele>70.31</ele>
        <time>2016-09-25T08:06:30Z</time>
      </trkpt>
      <trkpt lat="50.51256" lon="3.85411">
        <ele>70.31</ele>
        <time>2016-09-25T08:06:46Z</time>
      </trkpt>
      <trkpt lat="50.51242" lon="3.85428">
        <ele>70.31</ele>
        <time>2016-09-25T08:07:01Z</time>
      </trkpt>
      <trkpt lat="50.51225" lon="3.8545">
        <ele>70.79</ele>
        <time>2016-09-25T08:07:20Z</time>
      </trkpt>
      <trkpt lat="50.51211" lon="3.85472">
        <ele>70.79</ele>
        <time>2016-09-25T08:07:35Z</time>
      </trkpt>
      <trkpt lat="50.51196" lon="3.85502">
        <ele>71.76</ele>
        <time>2016-09-25T08:07:54Z</time>
      </trkpt>
      <trkpt lat="50.51193" lon="3.85508">
        <ele>70.31</ele>
        <time>2016-09-25T08:07:58Z</time>
      </trkpt>
      <trkpt lat="50.51191" lon="3.85515">
        <ele>71.76</ele>
        <time>2016-09-25T08:08:02Z</time>
      </trkpt>
      <trkpt lat="50.51179" lon="3.85542">
        <ele>70.79</ele>
        <time>2016-09-25T08:08:18Z</time>
      </trkpt>
      <trkpt lat="50.51165" lon="3.85572">
        <ele>70.79</ele>
        <time>2016-09-25T08:08:36Z</time>
      </trkpt>
      <trkpt lat="50.51159" lon="3.85578">
        <ele>72.24</ele>
        <time>2016-09-25T08:08:42Z</time>
      </trkpt>
      <trkpt lat="50.51155" lon="3.8558">
        <ele>72.24</ele>
        <time>2016-09-25T08:08:45Z</time>
      </trkpt>
      <trkpt lat="50.51136" lon="3.85569">
        <ele>72.24</ele>
        <time>2016-09-25T08:09:02Z</time>
      </trkpt>
      <trkpt lat="50.51117" lon="3.85552">
        <ele>70.79</ele>
        <time>2016-09-25T08:09:20Z</time>
      </trkpt>
      <trkpt lat="50.51116" lon="3.85551">
        <ele>70.79</ele>
        <time>2016-09-25T08:09:21Z</time>
      </trkpt>
      <trkpt lat="50.51095" lon="3.85533">
        <ele>70.79</ele>
        <time>2016-09-25T08:09:39Z</time>
      </trkpt>
      <trkpt lat="50.51077" lon="3.85519">
        <ele>70.79</ele>
        <time>2016-09-25T08:09:55Z</time>
      </trkpt>
      <trkpt lat="50.51063" lon="3.85507">
        <ele>70.79</ele>
        <time>2016-09-25T08:10:07Z</time>
      </trkpt>
      <trkpt lat="50.51057" lon="3.855">
        <ele>70.79</ele>
        <time>2016-09-25T08:10:13Z</time>
      </trkpt>
      <trkpt lat="50.51036" lon="3.85477">
        <ele>72.24</ele>
        <time>2016-09-25T08:10:34Z</time>
      </trkpt>
      <trkpt lat="50.51018" lon="3.8545">
        <ele>72.24</ele>
        <time>2016-09-25T08:10:54Z</time>
      </trkpt>
      <trkpt lat="50.51" lon="3.85426">
        <ele>72.24</ele>
        <time>2016-09-25T08:11:13Z</time>
      </trkpt>
      <trkpt lat="50.50978" lon="3.854">
        <ele>72.24</ele>
        <time>2016-09-25T08:11:35Z</time>
      </trkpt>
      <trkpt lat="50.50956" lon="3.85373">
        <ele>72.24</ele>
        <time>2016-09-25T08:11:56Z</time>
      </trkpt>
      <trkpt lat="50.50933" lon="3.85347">
        <ele>72.72</ele>
        <time>2016-09-25T08:12:19Z</time>
      </trkpt>
      <trkpt lat="50.50913" lon="3.85326">
        <ele>72.72</ele>
        <time>2016-09-25T08:12:38Z</time>
      </trkpt>
      <trkpt lat="50.50891" lon="3.85303">
        <ele>72.72</ele>
        <time>2016-09-25T08:12:59Z</time>
      </trkpt>
      <trkpt lat="50.50872" lon="3.85283">
        <ele>73.2</ele>
        <time>2016-09-25T08:13:18Z</time>
      </trkpt>
      <trkpt lat="50.50854" lon="3.85263">
        <ele>73.68</ele>
        <time>2016-09-25T08:13:36Z</time>
      </trkpt>
      <trkpt lat="50.50833" lon="3.8524">
        <ele>74.16</ele>
        <time>2016-09-25T08:13:57Z</time>
      </trkpt>
      <trkpt lat="50.50829" lon="3.85236">
        <ele>74.16</ele>
        <time>2016-09-25T08:14:01Z</time>
      </trkpt>
      <trkpt lat="50.50818" lon="3.85228">
        <ele>75.12</ele>
        <time>2016-09-25T08:14:17Z</time>
      </trkpt>
      <trkpt lat="50.50818" lon="3.85229">
        <ele>73.68</ele>
        <time>2016-09-25T08:14:26Z</time>
      </trkpt>
      <trkpt lat="50.50818" lon="3.85229">
        <ele>75.12</ele>
        <time>2016-09-25T08:14:28Z</time>
      </trkpt>
      <trkpt lat="50.50817" lon="3.85229">
        <ele>75.12</ele>
        <time>2016-09-25T08:14:30Z</time>
      </trkpt>
      <trkpt lat="50.50814" lon="3.85225">
        <ele>75.12</ele>
        <time>2016-09-25T08:14:34Z</time>
      </trkpt>
      <trkpt lat="50.50794" lon="3.85201">
        <ele>74.16</ele>
        <time>2016-09-25T08:14:55Z</time>
      </trkpt>
      <trkpt lat="50.50772" lon="3.85177">
        <ele>76.08</ele>
        <time>2016-09-25T08:15:17Z</time>
      </trkpt>
      <trkpt lat="50.5075" lon="3.85154">
        <ele>76.08</ele>
        <time>2016-09-25T08:15:38Z</time>
      </trkpt>
      <trkpt lat="50.5073" lon="3.85133">
        <ele>77.04</ele>
        <time>2016-09-25T08:15:57Z</time>
      </trkpt>
      <trkpt lat="50.50709" lon="3.85113">
        <ele>77.52</ele>
        <time>2016-09-25T08:16:17Z</time>
      </trkpt>
      <trkpt lat="50.50694" lon="3.85095">
        <ele>78</ele>
        <time>2016-09-25T08:16:33Z</time>
      </trkpt>
      <trkpt lat="50.50678" lon="3.85075">
        <ele>78.48</ele>
        <time>2016-09-25T08:16:51Z</time>
      </trkpt>
      <trkpt lat="50.50666" lon="3.85064">
        <ele>78.97</ele>
        <time>2016-09-25T08:17:03Z</time>
      </trkpt>
      <trkpt lat="50.50664" lon="3.85062">
        <ele>78.97</ele>
        <time>2016-09-25T08:17:05Z</time>
      </trkpt>
      <trkpt lat="50.50656" lon="3.85064">
        <ele>78.97</ele>
        <time>2016-09-25T08:17:14Z</time>
      </trkpt>
      <trkpt lat="50.50654" lon="3.85068">
        <ele>79.45</ele>
        <time>2016-09-25T08:17:17Z</time>
      </trkpt>
      <trkpt lat="50.50646" lon="3.85096">
        <ele>79.45</ele>
        <time>2016-09-25T08:17:34Z</time>
      </trkpt>
      <trkpt lat="50.50643" lon="3.85112">
        <ele>78.97</ele>
        <time>2016-09-25T08:17:47Z</time>
      </trkpt>
      <trkpt lat="50.50642" lon="3.85121">
        <ele>79.45</ele>
        <time>2016-09-25T08:18:02Z</time>
      </trkpt>
      <trkpt lat="50.5064" lon="3.85134">
        <ele>79.45</ele>
        <time>2016-09-25T08:18:19Z</time>
      </trkpt>
      <trkpt lat="50.50639" lon="3.8515">
        <ele>79.45</ele>
        <time>2016-09-25T08:18:34Z</time>
      </trkpt>
      <trkpt lat="50.50639" lon="3.85152">
        <ele>79.45</ele>
        <time>2016-09-25T08:18:36Z</time>
      </trkpt>
      <trkpt lat="50.50635" lon="3.85156">
        <ele>79.45</ele>
        <time>2016-09-25T08:18:40Z</time>
      </trkpt>
      <trkpt lat="50.50624" lon="3.85177">
        <ele>79.45</ele>
        <time>2016-09-25T08:18:57Z</time>
      </trkpt>
      <trkpt lat="50.50623" lon="3.85181">
        <ele>79.45</ele>
        <time>2016-09-25T08:19:00Z</time>
      </trkpt>
      <trkpt lat="50.50619" lon="3.85194">
        <ele>79.45</ele>
        <time>2016-09-25T08:19:14Z</time>
      </trkpt>
      <trkpt lat="50.50612" lon="3.85211">
        <ele>79.45</ele>
        <time>2016-09-25T08:19:26Z</time>
      </trkpt>
      <trkpt lat="50.50608" lon="3.85222">
        <ele>79.45</ele>
        <time>2016-09-25T08:19:34Z</time>
      </trkpt>
      <trkpt lat="50.50604" lon="3.85232">
        <ele>79.45</ele>
        <time>2016-09-25T08:19:41Z</time>
      </trkpt>
      <trkpt lat="50.50597" lon="3.85251">
        <ele>79.45</ele>
        <time>2016-09-25T08:19:54Z</time>
      </trkpt>
      <trkpt lat="50.50592" lon="3.85279">
        <ele>79.93</ele>
        <time>2016-09-25T08:20:10Z</time>
      </trkpt>
      <trkpt lat="50.5059" lon="3.85301">
        <ele>80.41</ele>
        <time>2016-09-25T08:20:23Z</time>
      </trkpt>
      <trkpt lat="50.5059" lon="3.85318">
        <ele>80.41</ele>
        <time>2016-09-25T08:20:36Z</time>
      </trkpt>
      <trkpt lat="50.50591" lon="3.85347">
        <ele>80.41</ele>
        <time>2016-09-25T08:20:53Z</time>
      </trkpt>
      <trkpt lat="50.5059" lon="3.85367">
        <ele>80.41</ele>
        <time>2016-09-25T08:21:04Z</time>
      </trkpt>
      <trkpt lat="50.5059" lon="3.85392">
        <ele>80.41</ele>
        <time>2016-09-25T08:21:19Z</time>
      </trkpt>
      <trkpt lat="50.50589" lon="3.85405">
        <ele>80.41</ele>
        <time>2016-09-25T08:21:26Z</time>
      </trkpt>
      <trkpt lat="50.50588" lon="3.85413">
        <ele>80.41</ele>
        <time>2016-09-25T08:21:31Z</time>
      </trkpt>
      <trkpt lat="50.50588" lon="3.85417">
        <ele>80.41</ele>
        <time>2016-09-25T08:21:33Z</time>
      </trkpt>
      <trkpt lat="50.50584" lon="3.85441">
        <ele>80.41</ele>
        <time>2016-09-25T08:21:47Z</time>
      </trkpt>
      <trkpt lat="50.50584" lon="3.85442">
        <ele>80.41</ele>
        <time>2016-09-25T08:21:48Z</time>
      </trkpt>
      <trkpt lat="50.50578" lon="3.85466">
        <ele>80.89</ele>
        <time>2016-09-25T08:22:04Z</time>
      </trkpt>
      <trkpt lat="50.50578" lon="3.85478">
        <ele>81.37</ele>
        <time>2016-09-25T08:22:21Z</time>
      </trkpt>
      <trkpt lat="50.50578" lon="3.85482">
        <ele>81.37</ele>
        <time>2016-09-25T08:22:47Z</time>
      </trkpt>
      <trkpt lat="50.50576" lon="3.85503">
        <ele>81.85</ele>
        <time>2016-09-25T08:23:07Z</time>
      </trkpt>
      <trkpt lat="50.5057" lon="3.85523">
        <ele>81.85</ele>
        <time>2016-09-25T08:23:22Z</time>
      </trkpt>
      <trkpt lat="50.50568" lon="3.85542">
        <ele>81.85</ele>
        <time>2016-09-25T08:23:34Z</time>
      </trkpt>
      <trkpt lat="50.50562" lon="3.85563">
        <ele>82.33</ele>
        <time>2016-09-25T08:23:48Z</time>
      </trkpt>
      <trkpt lat="50.50553" lon="3.85592">
        <ele>82.33</ele>
        <time>2016-09-25T08:24:04Z</time>
      </trkpt>
      <trkpt lat="50.5055" lon="3.85607">
        <ele>82.33</ele>
        <time>2016-09-25T08:24:25Z</time>
      </trkpt>
      <trkpt lat="50.50552" lon="3.85635">
        <ele>82.33</ele>
        <time>2016-09-25T08:24:39Z</time>
      </trkpt>
      <trkpt lat="50.50557" lon="3.85652">
        <ele>82.33</ele>
        <time>2016-09-25T08:24:54Z</time>
      </trkpt>
      <trkpt lat="50.50563" lon="3.8567">
        <ele>81.37</ele>
        <time>2016-09-25T08:25:07Z</time>
      </trkpt>
      <trkpt lat="50.50565" lon="3.85691">
        <ele>80.89</ele>
        <time>2016-09-25T08:25:20Z</time>
      </trkpt>
      <trkpt lat="50.5057" lon="3.85702">
        <ele>80.89</ele>
        <time>2016-09-25T08:25:26Z</time>
      </trkpt>
      <trkpt lat="50.50581" lon="3.85725">
        <ele>80.89</ele>
        <time>2016-09-25T08:25:39Z</time>
      </trkpt>
      <trkpt lat="50.50596" lon="3.85754">
        <ele>80.41</ele>
        <time>2016-09-25T08:25:54Z</time>
      </trkpt>
      <trkpt lat="50.50603" lon="3.85766">
        <ele>80.41</ele>
        <time>2016-09-25T08:26:00Z</time>
      </trkpt>
      <trkpt lat="50.50605" lon="3.85771">
        <ele>80.41</ele>
        <time>2016-09-25T08:26:02Z</time>
      </trkpt>
      <trkpt lat="50.50612" lon="3.8578">
        <ele>80.41</ele>
        <time>2016-09-25T08:26:06Z</time>
      </trkpt>
      <trkpt lat="50.5062" lon="3.85809">
        <ele>79.93</ele>
        <time>2016-09-25T08:26:22Z</time>
      </trkpt>
      <trkpt lat="50.50621" lon="3.85825">
        <ele>79.93</ele>
        <time>2016-09-25T08:26:29Z</time>
      </trkpt>
      <trkpt lat="50.50623" lon="3.85847">
        <ele>79.93</ele>
        <time>2016-09-25T08:26:39Z</time>
      </trkpt>
      <trkpt lat="50.50623" lon="3.85857">
        <ele>79.93</ele>
        <time>2016-09-25T08:26:43Z</time>
      </trkpt>
      <trkpt lat="50.50625" lon="3.85887">
        <ele>79.93</ele>
        <time>2016-09-25T08:26:56Z</time>
      </trkpt>
      <trkpt lat="50.5063" lon="3.85917">
        <ele>79.93</ele>
        <time>2016-09-25T08:27:09Z</time>
      </trkpt>
      <trkpt lat="50.50631" lon="3.85944">
        <ele>79.93</ele>
        <time>2016-09-25T08:27:24Z</time>
      </trkpt>
      <trkpt lat="50.50634" lon="3.85967">
        <ele>79.93</ele>
        <time>2016-09-25T08:27:37Z</time>
      </trkpt>
      <trkpt lat="50.50636" lon="3.86004">
        <ele>80.41</ele>
        <time>2016-09-25T08:27:53Z</time>
      </trkpt>
      <trkpt lat="50.50636" lon="3.86024">
        <ele>80.41</ele>
        <time>2016-09-25T08:28:08Z</time>
      </trkpt>
      <trkpt lat="50.50634" lon="3.86045">
        <ele>79.93</ele>
        <time>2016-09-25T08:28:25Z</time>
      </trkpt>
      <trkpt lat="50.50633" lon="3.86048">
        <ele>79.93</ele>
        <time>2016-09-25T08:28:27Z</time>
      </trkpt>
      <trkpt lat="50.50629" lon="3.8607">
        <ele>79.93</ele>
        <time>2016-09-25T08:28:41Z</time>
      </trkpt>
      <trkpt lat="50.50626" lon="3.86095">
        <ele>79.93</ele>
        <time>2016-09-25T08:28:55Z</time>
      </trkpt>
      <trkpt lat="50.50626" lon="3.86119">
        <ele>79.45</ele>
        <time>2016-09-25T08:29:09Z</time>
      </trkpt>
      <trkpt lat="50.50632" lon="3.86153">
        <ele>79.45</ele>
        <time>2016-09-25T08:29:24Z</time>
      </trkpt>
      <trkpt lat="50.50635" lon="3.86173">
        <ele>79.45</ele>
        <time>2016-09-25T08:29:37Z</time>
      </trkpt>
      <trkpt lat="50.5064" lon="3.86191">
        <ele>79.45</ele>
        <time>2016-09-25T08:29:50Z</time>
      </trkpt>
      <trkpt lat="50.50642" lon="3.86202">
        <ele>78.97</ele>
        <time>2016-09-25T08:30:04Z</time>
      </trkpt>
      <trkpt lat="50.50647" lon="3.86207">
        <ele>78.97</ele>
        <time>2016-09-25T08:30:16Z</time>
      </trkpt>
      <trkpt lat="50.50652" lon="3.86212">
        <ele>78.48</ele>
        <time>2016-09-25T08:30:26Z</time>
      </trkpt>
      <trkpt lat="50.50661" lon="3.86221">
        <ele>78</ele>
        <time>2016-09-25T08:30:39Z</time>
      </trkpt>
      <trkpt lat="50.50673" lon="3.86231">
        <ele>78</ele>
        <time>2016-09-25T08:30:52Z</time>
      </trkpt>
      <trkpt lat="50.50695" lon="3.86248">
        <ele>77.52</ele>
        <time>2016-09-25T08:31:07Z</time>
      </trkpt>
      <trkpt lat="50.50709" lon="3.86258">
        <ele>77.52</ele>
        <time>2016-09-25T08:31:19Z</time>
      </trkpt>
      <trkpt lat="50.5072" lon="3.86272">
        <ele>77.04</ele>
        <time>2016-09-25T08:31:28Z</time>
      </trkpt>
      <trkpt lat="50.50724" lon="3.86283">
        <ele>77.04</ele>
        <time>2016-09-25T08:31:34Z</time>
      </trkpt>
      <trkpt lat="50.50722" lon="3.8632">
        <ele>77.04</ele>
        <time>2016-09-25T08:31:50Z</time>
      </trkpt>
      <trkpt lat="50.50719" lon="3.86349">
        <ele>77.04</ele>
        <time>2016-09-25T08:32:04Z</time>
      </trkpt>
      <trkpt lat="50.50717" lon="3.86376">
        <ele>76.56</ele>
        <time>2016-09-25T08:32:18Z</time>
      </trkpt>
      <trkpt lat="50.50712" lon="3.86413">
        <ele>77.04</ele>
        <time>2016-09-25T08:32:36Z</time>
      </trkpt>
      <trkpt lat="50.50711" lon="3.86441">
        <ele>76.56</ele>
        <time>2016-09-25T08:32:52Z</time>
      </trkpt>
      <trkpt lat="50.50705" lon="3.86469">
        <ele>76.56</ele>
        <time>2016-09-25T08:33:07Z</time>
      </trkpt>
      <trkpt lat="50.50698" lon="3.86494">
        <ele>76.56</ele>
        <time>2016-09-25T08:33:22Z</time>
      </trkpt>
      <trkpt lat="50.50695" lon="3.86521">
        <ele>76.08</ele>
        <time>2016-09-25T08:33:34Z</time>
      </trkpt>
      <trkpt lat="50.50689" lon="3.86544">
        <ele>76.08</ele>
        <time>2016-09-25T08:33:48Z</time>
      </trkpt>
      <trkpt lat="50.50672" lon="3.8658">
        <ele>76.08</ele>
        <time>2016-09-25T08:34:07Z</time>
      </trkpt>
      <trkpt lat="50.50659" lon="3.86596">
        <ele>76.08</ele>
        <time>2016-09-25T08:34:22Z</time>
      </trkpt>
      <trkpt lat="50.50646" lon="3.86618">
        <ele>75.6</ele>
        <time>2016-09-25T08:34:40Z</time>
      </trkpt>
      <trkpt lat="50.50641" lon="3.86626">
        <ele>75.6</ele>
        <time>2016-09-25T08:34:53Z</time>
      </trkpt>
      <trkpt lat="50.50638" lon="3.8663">
        <ele>75.6</ele>
        <time>2016-09-25T08:34:58Z</time>
      </trkpt>
      <trkpt lat="50.50637" lon="3.86632">
        <ele>75.6</ele>
        <time>2016-09-25T08:34:59Z</time>
      </trkpt>
      <trkpt lat="50.50627" lon="3.86648">
        <ele>75.6</ele>
        <time>2016-09-25T08:35:11Z</time>
      </trkpt>
      <trkpt lat="50.50616" lon="3.86675">
        <ele>75.6</ele>
        <time>2016-09-25T08:35:26Z</time>
      </trkpt>
      <trkpt lat="50.5061" lon="3.86698">
        <ele>75.6</ele>
        <time>2016-09-25T08:35:40Z</time>
      </trkpt>
      <trkpt lat="50.50602" lon="3.86724">
        <ele>75.6</ele>
        <time>2016-09-25T08:35:54Z</time>
      </trkpt>
      <trkpt lat="50.50595" lon="3.86744">
        <ele>75.6</ele>
        <time>2016-09-25T08:36:10Z</time>
      </trkpt>
      <trkpt lat="50.5059" lon="3.86757">
        <ele>75.6</ele>
        <time>2016-09-25T08:36:24Z</time>
      </trkpt>
      <trkpt lat="50.50586" lon="3.86774">
        <ele>77.04</ele>
        <time>2016-09-25T08:36:40Z</time>
      </trkpt>
      <trkpt lat="50.50583" lon="3.86787">
        <ele>77.04</ele>
        <time>2016-09-25T08:36:53Z</time>
      </trkpt>
      <trkpt lat="50.50578" lon="3.86807">
        <ele>77.04</ele>
        <time>2016-09-25T08:37:08Z</time>
      </trkpt>
      <trkpt lat="50.50573" lon="3.86825">
        <ele>77.52</ele>
        <time>2016-09-25T08:37:21Z</time>
      </trkpt>
      <trkpt lat="50.50568" lon="3.86842">
        <ele>78</ele>
        <time>2016-09-25T08:37:34Z</time>
      </trkpt>
      <trkpt lat="50.50565" lon="3.86851">
        <ele>78</ele>
        <time>2016-09-25T08:37:49Z</time>
      </trkpt>
      <trkpt lat="50.50563" lon="3.86862">
        <ele>78</ele>
        <time>2016-09-25T08:38:03Z</time>
      </trkpt>
      <trkpt lat="50.50562" lon="3.86873">
        <ele>78</ele>
        <time>2016-09-25T08:38:19Z</time>
      </trkpt>
      <trkpt lat="50.50559" lon="3.86889">
        <ele>78</ele>
        <time>2016-09-25T08:38:36Z</time>
      </trkpt>
      <trkpt lat="50.50562" lon="3.86891">
        <ele>78.48</ele>
        <time>2016-09-25T08:38:49Z</time>
      </trkpt>
      <trkpt lat="50.50563" lon="3.86891">
        <ele>78</ele>
        <time>2016-09-25T08:39:05Z</time>
      </trkpt>
      <trkpt lat="50.5056" lon="3.8689">
        <ele>77.52</ele>
        <time>2016-09-25T08:39:28Z</time>
      </trkpt>
      <trkpt lat="50.50559" lon="3.86893">
        <ele>78.48</ele>
        <time>2016-09-25T08:39:45Z</time>
      </trkpt>
      <trkpt lat="50.50559" lon="3.86892">
        <ele>78.48</ele>
        <time>2016-09-25T08:39:59Z</time>
      </trkpt>
      <trkpt lat="50.50561" lon="3.86893">
        <ele>78.48</ele>
        <time>2016-09-25T08:40:18Z</time>
      </trkpt>
      <trkpt lat="50.50559" lon="3.86894">
        <ele>78.48</ele>
        <time>2016-09-25T08:40:44Z</time>
      </trkpt>
      <trkpt lat="50.50559" lon="3.86895">
        <ele>78.48</ele>
        <time>2016-09-25T08:41:03Z</time>
      </trkpt>
      <trkpt lat="50.5056" lon="3.86896">
        <ele>78.48</ele>
        <time>2016-09-25T08:41:21Z</time>
      </trkpt>
      <trkpt lat="50.50558" lon="3.86894">
        <ele>78.48</ele>
        <time>2016-09-25T08:41:39Z</time>
      </trkpt>
      <trkpt lat="50.50557" lon="3.86889">
        <ele>78.48</ele>
        <time>2016-09-25T08:42:00Z</time>
      </trkpt>
      <trkpt lat="50.50558" lon="3.8689">
        <ele>78.48</ele>
        <time>2016-09-25T08:42:20Z</time>
      </trkpt>
      <trkpt lat="50.50556" lon="3.86888">
        <ele>78.97</ele>
        <time>2016-09-25T08:42:35Z</time>
      </trkpt>
      <trkpt lat="50.50557" lon="3.8689">
        <ele>78.97</ele>
        <time>2016-09-25T08:42:58Z</time>
      </trkpt>
      <trkpt lat="50.50558" lon="3.86889">
        <ele>78.97</ele>
        <time>2016-09-25T08:43:21Z</time>
      </trkpt>
      <trkpt lat="50.50558" lon="3.86889">
        <ele>78.97</ele>
        <time>2016-09-25T08:43:41Z</time>
      </trkpt>
      <trkpt lat="50.50558" lon="3.86892">
        <ele>79.45</ele>
        <time>2016-09-25T08:44:07Z</time>
      </trkpt>
      <trkpt lat="50.50558" lon="3.86893">
        <ele>79.45</ele>
        <time>2016-09-25T08:44:29Z</time>
      </trkpt>
      <trkpt lat="50.5056" lon="3.86902">
        <ele>79.93</ele>
        <time>2016-09-25T08:44:48Z</time>
      </trkpt>
      <trkpt lat="50.5056" lon="3.86908">
        <ele>79.93</ele>
        <time>2016-09-25T08:44:52Z</time>
      </trkpt>
      <trkpt lat="50.5056" lon="3.8691">
        <ele>79.93</ele>
        <time>2016-09-25T08:44:53Z</time>
      </trkpt>
      <trkpt lat="50.50554" lon="3.86931">
        <ele>79.93</ele>
        <time>2016-09-25T08:45:07Z</time>
      </trkpt>
      <trkpt lat="50.50548" lon="3.86955">
        <ele>79.93</ele>
        <time>2016-09-25T08:45:21Z</time>
      </trkpt>
      <trkpt lat="50.50538" lon="3.86988">
        <ele>78</ele>
        <time>2016-09-25T08:45:40Z</time>
      </trkpt>
      <trkpt lat="50.50537" lon="3.8699">
        <ele>78</ele>
        <time>2016-09-25T08:45:42Z</time>
      </trkpt>
      <trkpt lat="50.50532" lon="3.87004">
        <ele>78</ele>
        <time>2016-09-25T08:45:50Z</time>
      </trkpt>
      <trkpt lat="50.50532" lon="3.87007">
        <ele>78</ele>
        <time>2016-09-25T08:45:51Z</time>
      </trkpt>
      <trkpt lat="50.50531" lon="3.87009">
        <ele>78</ele>
        <time>2016-09-25T08:45:52Z</time>
      </trkpt>
      <trkpt lat="50.50531" lon="3.87011">
        <ele>78</ele>
        <time>2016-09-25T08:45:53Z</time>
      </trkpt>
      <trkpt lat="50.5053" lon="3.87013">
        <ele>78</ele>
        <time>2016-09-25T08:45:54Z</time>
      </trkpt>
      <trkpt lat="50.5052" lon="3.87033">
        <ele>78</ele>
        <time>2016-09-25T08:46:07Z</time>
      </trkpt>
      <trkpt lat="50.50505" lon="3.87063">
        <ele>78</ele>
        <time>2016-09-25T08:46:26Z</time>
      </trkpt>
      <trkpt lat="50.50503" lon="3.87067">
        <ele>78</ele>
        <time>2016-09-25T08:46:28Z</time>
      </trkpt>
      <trkpt lat="50.50502" lon="3.87069">
        <ele>78</ele>
        <time>2016-09-25T08:46:29Z</time>
      </trkpt>
      <trkpt lat="50.50502" lon="3.8707">
        <ele>78</ele>
        <time>2016-09-25T08:46:30Z</time>
      </trkpt>
      <trkpt lat="50.5049" lon="3.87092">
        <ele>79.45</ele>
        <time>2016-09-25T08:46:46Z</time>
      </trkpt>
      <trkpt lat="50.50487" lon="3.87098">
        <ele>79.93</ele>
        <time>2016-09-25T08:47:01Z</time>
      </trkpt>
      <trkpt lat="50.50474" lon="3.87118">
        <ele>79.93</ele>
        <time>2016-09-25T08:47:17Z</time>
      </trkpt>
      <trkpt lat="50.50462" lon="3.87135">
        <ele>79.93</ele>
        <time>2016-09-25T08:47:31Z</time>
      </trkpt>
      <trkpt lat="50.50454" lon="3.87143">
        <ele>79.93</ele>
        <time>2016-09-25T08:47:44Z</time>
      </trkpt>
      <trkpt lat="50.50436" lon="3.87157">
        <ele>79.93</ele>
        <time>2016-09-25T08:48:00Z</time>
      </trkpt>
      <trkpt lat="50.50434" lon="3.87162">
        <ele>79.93</ele>
        <time>2016-09-25T08:48:17Z</time>
      </trkpt>
      <trkpt lat="50.50432" lon="3.87163">
        <ele>78.48</ele>
        <time>2016-09-25T08:48:36Z</time>
      </trkpt>
      <trkpt lat="50.50432" lon="3.87163">
        <ele>78.48</ele>
        <time>2016-09-25T08:48:54Z</time>
      </trkpt>
      <trkpt lat="50.50421" lon="3.87171">
        <ele>78.48</ele>
        <time>2016-09-25T08:49:19Z</time>
      </trkpt>
      <trkpt lat="50.50407" lon="3.87178">
        <ele>78.48</ele>
        <time>2016-09-25T08:49:34Z</time>
      </trkpt>
      <trkpt lat="50.50401" lon="3.8718">
        <ele>78</ele>
        <time>2016-09-25T08:49:48Z</time>
      </trkpt>
      <trkpt lat="50.50397" lon="3.87181">
        <ele>78</ele>
        <time>2016-09-25T08:50:09Z</time>
      </trkpt>
      <trkpt lat="50.50377" lon="3.87196">
        <ele>78</ele>
        <time>2016-09-25T08:50:24Z</time>
      </trkpt>
      <trkpt lat="50.50364" lon="3.87206">
        <ele>77.52</ele>
        <time>2016-09-25T08:50:39Z</time>
      </trkpt>
      <trkpt lat="50.50351" lon="3.87215">
        <ele>77.52</ele>
        <time>2016-09-25T08:50:53Z</time>
      </trkpt>
      <trkpt lat="50.50334" lon="3.87229">
        <ele>77.04</ele>
        <time>2016-09-25T08:51:08Z</time>
      </trkpt>
      <trkpt lat="50.50315" lon="3.87247">
        <ele>76.56</ele>
        <time>2016-09-25T08:51:22Z</time>
      </trkpt>
      <trkpt lat="50.50299" lon="3.87257">
        <ele>76.56</ele>
        <time>2016-09-25T08:51:38Z</time>
      </trkpt>
      <trkpt lat="50.50298" lon="3.87271">
        <ele>76.56</ele>
        <time>2016-09-25T08:51:48Z</time>
      </trkpt>
      <trkpt lat="50.50298" lon="3.87273">
        <ele>76.56</ele>
        <time>2016-09-25T08:51:49Z</time>
      </trkpt>
      <trkpt lat="50.50302" lon="3.87284">
        <ele>76.56</ele>
        <time>2016-09-25T08:51:54Z</time>
      </trkpt>
      <trkpt lat="50.50303" lon="3.87285">
        <ele>76.56</ele>
        <time>2016-09-25T08:51:55Z</time>
      </trkpt>
      <trkpt lat="50.50308" lon="3.87299">
        <ele>76.56</ele>
        <time>2016-09-25T08:52:04Z</time>
      </trkpt>
      <trkpt lat="50.50312" lon="3.87323">
        <ele>76.08</ele>
        <time>2016-09-25T08:52:17Z</time>
      </trkpt>
      <trkpt lat="50.50322" lon="3.87347">
        <ele>76.08</ele>
        <time>2016-09-25T08:52:33Z</time>
      </trkpt>
      <trkpt lat="50.50332" lon="3.87375">
        <ele>76.08</ele>
        <time>2016-09-25T08:52:49Z</time>
      </trkpt>
      <trkpt lat="50.50339" lon="3.87391">
        <ele>76.08</ele>
        <time>2016-09-25T08:52:58Z</time>
      </trkpt>
      <trkpt lat="50.50341" lon="3.87395">
        <ele>76.08</ele>
        <time>2016-09-25T08:52:59Z</time>
      </trkpt>
      <trkpt lat="50.50342" lon="3.87397">
        <ele>76.08</ele>
        <time>2016-09-25T08:53:00Z</time>
      </trkpt>
      <trkpt lat="50.50343" lon="3.874">
        <ele>76.08</ele>
        <time>2016-09-25T08:53:01Z</time>
      </trkpt>
      <trkpt lat="50.50353" lon="3.87427">
        <ele>76.08</ele>
        <time>2016-09-25T08:53:16Z</time>
      </trkpt>
      <trkpt lat="50.5036" lon="3.87453">
        <ele>75.6</ele>
        <time>2016-09-25T08:53:31Z</time>
      </trkpt>
      <trkpt lat="50.5037" lon="3.87474">
        <ele>75.6</ele>
        <time>2016-09-25T08:53:44Z</time>
      </trkpt>
      <trkpt lat="50.50372" lon="3.87481">
        <ele>75.6</ele>
        <time>2016-09-25T08:53:48Z</time>
      </trkpt>
      <trkpt lat="50.50386" lon="3.87516">
        <ele>75.6</ele>
        <time>2016-09-25T08:54:07Z</time>
      </trkpt>
      <trkpt lat="50.50399" lon="3.87546">
        <ele>75.6</ele>
        <time>2016-09-25T08:54:24Z</time>
      </trkpt>
      <trkpt lat="50.50406" lon="3.87571">
        <ele>75.6</ele>
        <time>2016-09-25T08:54:38Z</time>
      </trkpt>
      <trkpt lat="50.50412" lon="3.87595">
        <ele>75.6</ele>
        <time>2016-09-25T08:54:53Z</time>
      </trkpt>
      <trkpt lat="50.50419" lon="3.87619">
        <ele>75.6</ele>
        <time>2016-09-25T08:55:08Z</time>
      </trkpt>
      <trkpt lat="50.50431" lon="3.87645">
        <ele>75.6</ele>
        <time>2016-09-25T08:55:24Z</time>
      </trkpt>
      <trkpt lat="50.50437" lon="3.87667">
        <ele>75.6</ele>
        <time>2016-09-25T08:55:36Z</time>
      </trkpt>
      <trkpt lat="50.5044" lon="3.87675">
        <ele>75.6</ele>
        <time>2016-09-25T08:55:40Z</time>
      </trkpt>
      <trkpt lat="50.5044" lon="3.87677">
        <ele>75.6</ele>
        <time>2016-09-25T08:55:41Z</time>
      </trkpt>
      <trkpt lat="50.50449" lon="3.87694">
        <ele>75.6</ele>
        <time>2016-09-25T08:55:54Z</time>
      </trkpt>
      <trkpt lat="50.50452" lon="3.87701">
        <ele>75.6</ele>
        <time>2016-09-25T08:55:58Z</time>
      </trkpt>
      <trkpt lat="50.50461" lon="3.87721">
        <ele>75.12</ele>
        <time>2016-09-25T08:56:10Z</time>
      </trkpt>
      <trkpt lat="50.50467" lon="3.87742">
        <ele>74.64</ele>
        <time>2016-09-25T08:56:22Z</time>
      </trkpt>
      <trkpt lat="50.50477" lon="3.87768">
        <ele>74.64</ele>
        <time>2016-09-25T08:56:39Z</time>
      </trkpt>
      <trkpt lat="50.50485" lon="3.87769">
        <ele>74.64</ele>
        <time>2016-09-25T08:57:01Z</time>
      </trkpt>
      <trkpt lat="50.5049" lon="3.87771">
        <ele>74.64</ele>
        <time>2016-09-25T08:57:28Z</time>
      </trkpt>
      <trkpt lat="50.50498" lon="3.87788">
        <ele>74.64</ele>
        <time>2016-09-25T08:57:43Z</time>
      </trkpt>
      <trkpt lat="50.50504" lon="3.87809">
        <ele>74.64</ele>
        <time>2016-09-25T08:57:56Z</time>
      </trkpt>
      <trkpt lat="50.5051" lon="3.87833">
        <ele>74.64</ele>
        <time>2016-09-25T08:58:13Z</time>
      </trkpt>
      <trkpt lat="50.50512" lon="3.87836">
        <ele>74.64</ele>
        <time>2016-09-25T08:58:16Z</time>
      </trkpt>
      <trkpt lat="50.50512" lon="3.87838">
        <ele>74.64</ele>
        <time>2016-09-25T08:58:17Z</time>
      </trkpt>
      <trkpt lat="50.50519" lon="3.87864">
        <ele>74.16</ele>
        <time>2016-09-25T08:58:31Z</time>
      </trkpt>
      <trkpt lat="50.50529" lon="3.87889">
        <ele>74.16</ele>
        <time>2016-09-25T08:58:44Z</time>
      </trkpt>
      <trkpt lat="50.50539" lon="3.87917">
        <ele>74.16</ele>
        <time>2016-09-25T08:59:00Z</time>
      </trkpt>
      <trkpt lat="50.50542" lon="3.87943">
        <ele>74.16</ele>
        <time>2016-09-25T08:59:14Z</time>
      </trkpt>
      <trkpt lat="50.50551" lon="3.87967">
        <ele>74.16</ele>
        <time>2016-09-25T08:59:27Z</time>
      </trkpt>
      <trkpt lat="50.50555" lon="3.87986">
        <ele>74.16</ele>
        <time>2016-09-25T08:59:38Z</time>
      </trkpt>
      <trkpt lat="50.50564" lon="3.88009">
        <ele>74.16</ele>
        <time>2016-09-25T08:59:53Z</time>
      </trkpt>
      <trkpt lat="50.50574" lon="3.88036">
        <ele>73.2</ele>
        <time>2016-09-25T09:00:09Z</time>
      </trkpt>
      <trkpt lat="50.50583" lon="3.8806">
        <ele>73.2</ele>
        <time>2016-09-25T09:00:24Z</time>
      </trkpt>
      <trkpt lat="50.50598" lon="3.88084">
        <ele>72.72</ele>
        <time>2016-09-25T09:00:39Z</time>
      </trkpt>
      <trkpt lat="50.50608" lon="3.88105">
        <ele>72.24</ele>
        <time>2016-09-25T09:00:52Z</time>
      </trkpt>
      <trkpt lat="50.50617" lon="3.88131">
        <ele>72.24</ele>
        <time>2016-09-25T09:01:08Z</time>
      </trkpt>
      <trkpt lat="50.5062" lon="3.88139">
        <ele>72.24</ele>
        <time>2016-09-25T09:01:13Z</time>
      </trkpt>
      <trkpt lat="50.5062" lon="3.88141">
        <ele>72.24</ele>
        <time>2016-09-25T09:01:14Z</time>
      </trkpt>
      <trkpt lat="50.50629" lon="3.88178">
        <ele>71.76</ele>
        <time>2016-09-25T09:01:34Z</time>
      </trkpt>
      <trkpt lat="50.50639" lon="3.88212">
        <ele>70.79</ele>
        <time>2016-09-25T09:01:54Z</time>
      </trkpt>
      <trkpt lat="50.50652" lon="3.88247">
        <ele>70.79</ele>
        <time>2016-09-25T09:02:14Z</time>
      </trkpt>
      <trkpt lat="50.50663" lon="3.88272">
        <ele>70.31</ele>
        <time>2016-09-25T09:02:31Z</time>
      </trkpt>
      <trkpt lat="50.50674" lon="3.88286">
        <ele>69.83</ele>
        <time>2016-09-25T09:02:44Z</time>
      </trkpt>
      <trkpt lat="50.50675" lon="3.88288">
        <ele>69.35</ele>
        <time>2016-09-25T09:02:45Z</time>
      </trkpt>
      <trkpt lat="50.50675" lon="3.88289">
        <ele>69.35</ele>
        <time>2016-09-25T09:02:46Z</time>
      </trkpt>
      <trkpt lat="50.50676" lon="3.88291">
        <ele>69.83</ele>
        <time>2016-09-25T09:02:47Z</time>
      </trkpt>
      <trkpt lat="50.50677" lon="3.88293">
        <ele>69.35</ele>
        <time>2016-09-25T09:02:48Z</time>
      </trkpt>
      <trkpt lat="50.50677" lon="3.88294">
        <ele>69.35</ele>
        <time>2016-09-25T09:02:49Z</time>
      </trkpt>
      <trkpt lat="50.50676" lon="3.88306">
        <ele>69.35</ele>
        <time>2016-09-25T09:02:56Z</time>
      </trkpt>
      <trkpt lat="50.50665" lon="3.88333">
        <ele>68.87</ele>
        <time>2016-09-25T09:03:13Z</time>
      </trkpt>
      <trkpt lat="50.50664" lon="3.88343">
        <ele>68.87</ele>
        <time>2016-09-25T09:03:19Z</time>
      </trkpt>
      <trkpt lat="50.50662" lon="3.88367">
        <ele>68.87</ele>
        <time>2016-09-25T09:03:32Z</time>
      </trkpt>
      <trkpt lat="50.50661" lon="3.88369">
        <ele>68.87</ele>
        <time>2016-09-25T09:03:33Z</time>
      </trkpt>
      <trkpt lat="50.50661" lon="3.88371">
        <ele>68.87</ele>
        <time>2016-09-25T09:03:34Z</time>
      </trkpt>
      <trkpt lat="50.50661" lon="3.88399">
        <ele>68.87</ele>
        <time>2016-09-25T09:03:49Z</time>
      </trkpt>
      <trkpt lat="50.50659" lon="3.88427">
        <ele>68.87</ele>
        <time>2016-09-25T09:04:04Z</time>
      </trkpt>
      <trkpt lat="50.5066" lon="3.8846">
        <ele>68.87</ele>
        <time>2016-09-25T09:04:21Z</time>
      </trkpt>
      <trkpt lat="50.50659" lon="3.88488">
        <ele>68.39</ele>
        <time>2016-09-25T09:04:36Z</time>
      </trkpt>
      <trkpt lat="50.50659" lon="3.88506">
        <ele>68.39</ele>
        <time>2016-09-25T09:04:45Z</time>
      </trkpt>
      <trkpt lat="50.50658" lon="3.88508">
        <ele>68.39</ele>
        <time>2016-09-25T09:04:46Z</time>
      </trkpt>
      <trkpt lat="50.50659" lon="3.88532">
        <ele>68.39</ele>
        <time>2016-09-25T09:05:00Z</time>
      </trkpt>
      <trkpt lat="50.50659" lon="3.88534">
        <ele>68.39</ele>
        <time>2016-09-25T09:05:01Z</time>
      </trkpt>
      <trkpt lat="50.50658" lon="3.88536">
        <ele>68.39</ele>
        <time>2016-09-25T09:05:02Z</time>
      </trkpt>
      <trkpt lat="50.50659" lon="3.88538">
        <ele>68.39</ele>
        <time>2016-09-25T09:05:03Z</time>
      </trkpt>
      <trkpt lat="50.50659" lon="3.8854">
        <ele>68.39</ele>
        <time>2016-09-25T09:05:04Z</time>
      </trkpt>
      <trkpt lat="50.50659" lon="3.88576">
        <ele>67.91</ele>
        <time>2016-09-25T09:05:22Z</time>
      </trkpt>
      <trkpt lat="50.50661" lon="3.88604">
        <ele>67.91</ele>
        <time>2016-09-25T09:05:37Z</time>
      </trkpt>
      <trkpt lat="50.50663" lon="3.88635">
        <ele>66.95</ele>
        <time>2016-09-25T09:05:54Z</time>
      </trkpt>
      <trkpt lat="50.50665" lon="3.88664">
        <ele>66.95</ele>
        <time>2016-09-25T09:06:10Z</time>
      </trkpt>
      <trkpt lat="50.50665" lon="3.88672">
        <ele>66.95</ele>
        <time>2016-09-25T09:06:14Z</time>
      </trkpt>
      <trkpt lat="50.50665" lon="3.88674">
        <ele>66.95</ele>
        <time>2016-09-25T09:06:15Z</time>
      </trkpt>
      <trkpt lat="50.50665" lon="3.88676">
        <ele>66.95</ele>
        <time>2016-09-25T09:06:16Z</time>
      </trkpt>
      <trkpt lat="50.50667" lon="3.88704">
        <ele>66.95</ele>
        <time>2016-09-25T09:06:32Z</time>
      </trkpt>
      <trkpt lat="50.50667" lon="3.88741">
        <ele>66.95</ele>
        <time>2016-09-25T09:06:51Z</time>
      </trkpt>
      <trkpt lat="50.50666" lon="3.8877">
        <ele>69.35</ele>
        <time>2016-09-25T09:07:06Z</time>
      </trkpt>
      <trkpt lat="50.50664" lon="3.88796">
        <ele>67.91</ele>
        <time>2016-09-25T09:07:20Z</time>
      </trkpt>
      <trkpt lat="50.50665" lon="3.88807">
        <ele>66.95</ele>
        <time>2016-09-25T09:07:27Z</time>
      </trkpt>
      <trkpt lat="50.50665" lon="3.88808">
        <ele>66.95</ele>
        <time>2016-09-25T09:07:28Z</time>
      </trkpt>
      <trkpt lat="50.50666" lon="3.8881">
        <ele>66.95</ele>
        <time>2016-09-25T09:07:29Z</time>
      </trkpt>
      <trkpt lat="50.50668" lon="3.88837">
        <ele>66.47</ele>
        <time>2016-09-25T09:07:45Z</time>
      </trkpt>
      <trkpt lat="50.50667" lon="3.88867">
        <ele>65.51</ele>
        <time>2016-09-25T09:08:01Z</time>
      </trkpt>
      <trkpt lat="50.50668" lon="3.88885">
        <ele>65.03</ele>
        <time>2016-09-25T09:08:17Z</time>
      </trkpt>
      <trkpt lat="50.50673" lon="3.8888">
        <ele>64.07</ele>
        <time>2016-09-25T09:08:34Z</time>
      </trkpt>
      <trkpt lat="50.50678" lon="3.88887">
        <ele>64.07</ele>
        <time>2016-09-25T09:08:54Z</time>
      </trkpt>
      <trkpt lat="50.50672" lon="3.88888">
        <ele>64.07</ele>
        <time>2016-09-25T09:09:24Z</time>
      </trkpt>
      <trkpt lat="50.50673" lon="3.88887">
        <ele>64.07</ele>
        <time>2016-09-25T09:09:41Z</time>
      </trkpt>
      <trkpt lat="50.50676" lon="3.88889">
        <ele>64.07</ele>
        <time>2016-09-25T09:10:06Z</time>
      </trkpt>
      <trkpt lat="50.50678" lon="3.88888">
        <ele>64.07</ele>
        <time>2016-09-25T09:10:28Z</time>
      </trkpt>
      <trkpt lat="50.50672" lon="3.88891">
        <ele>64.07</ele>
        <time>2016-09-25T09:10:47Z</time>
      </trkpt>
      <trkpt lat="50.5067" lon="3.88887">
        <ele>63.58</ele>
        <time>2016-09-25T09:11:08Z</time>
      </trkpt>
      <trkpt lat="50.50671" lon="3.8889">
        <ele>65.51</ele>
        <time>2016-09-25T09:11:24Z</time>
      </trkpt>
      <trkpt lat="50.50676" lon="3.88892">
        <ele>64.07</ele>
        <time>2016-09-25T09:11:50Z</time>
      </trkpt>
      <trkpt lat="50.50676" lon="3.88893">
        <ele>64.07</ele>
        <time>2016-09-25T09:11:52Z</time>
      </trkpt>
      <trkpt lat="50.50675" lon="3.88897">
        <ele>64.07</ele>
        <time>2016-09-25T09:12:08Z</time>
      </trkpt>
      <trkpt lat="50.50671" lon="3.88883">
        <ele>64.07</ele>
        <time>2016-09-25T09:12:32Z</time>
      </trkpt>
      <trkpt lat="50.5067" lon="3.88887">
        <ele>63.58</ele>
        <time>2016-09-25T09:12:55Z</time>
      </trkpt>
      <trkpt lat="50.50671" lon="3.88888">
        <ele>63.58</ele>
        <time>2016-09-25T09:13:13Z</time>
      </trkpt>
      <trkpt lat="50.5067" lon="3.88886">
        <ele>63.58</ele>
        <time>2016-09-25T09:13:37Z</time>
      </trkpt>
      <trkpt lat="50.50669" lon="3.88887">
        <ele>64.07</ele>
        <time>2016-09-25T09:14:01Z</time>
      </trkpt>
      <trkpt lat="50.50672" lon="3.88889">
        <ele>64.07</ele>
        <time>2016-09-25T09:14:28Z</time>
      </trkpt>
      <trkpt lat="50.50669" lon="3.88889">
        <ele>64.07</ele>
        <time>2016-09-25T09:14:55Z</time>
      </trkpt>
      <trkpt lat="50.50668" lon="3.8889">
        <ele>64.07</ele>
        <time>2016-09-25T09:15:14Z</time>
      </trkpt>
      <trkpt lat="50.5067" lon="3.88888">
        <ele>64.07</ele>
        <time>2016-09-25T09:15:34Z</time>
      </trkpt>
      <trkpt lat="50.50666" lon="3.88882">
        <ele>64.07</ele>
        <time>2016-09-25T09:15:54Z</time>
      </trkpt>
      <trkpt lat="50.5067" lon="3.88888">
        <ele>64.07</ele>
        <time>2016-09-25T09:16:08Z</time>
      </trkpt>
      <trkpt lat="50.50671" lon="3.88889">
        <ele>64.55</ele>
        <time>2016-09-25T09:16:28Z</time>
      </trkpt>
      <trkpt lat="50.5067" lon="3.88884">
        <ele>64.07</ele>
        <time>2016-09-25T09:16:48Z</time>
      </trkpt>
      <trkpt lat="50.50668" lon="3.88886">
        <ele>63.58</ele>
        <time>2016-09-25T09:17:03Z</time>
      </trkpt>
      <trkpt lat="50.50668" lon="3.88888">
        <ele>63.58</ele>
        <time>2016-09-25T09:17:22Z</time>
      </trkpt>
      <trkpt lat="50.50669" lon="3.88889">
        <ele>63.58</ele>
        <time>2016-09-25T09:17:41Z</time>
      </trkpt>
      <trkpt lat="50.50673" lon="3.88888">
        <ele>63.58</ele>
        <time>2016-09-25T09:18:02Z</time>
      </trkpt>
      <trkpt lat="50.5067" lon="3.88886">
        <ele>64.07</ele>
        <time>2016-09-25T09:18:18Z</time>
      </trkpt>
      <trkpt lat="50.50668" lon="3.88882">
        <ele>64.07</ele>
        <time>2016-09-25T09:18:40Z</time>
      </trkpt>
      <trkpt lat="50.50672" lon="3.88879">
        <ele>64.07</ele>
        <time>2016-09-25T09:18:58Z</time>
      </trkpt>
      <trkpt lat="50.50681" lon="3.88875">
        <ele>64.07</ele>
        <time>2016-09-25T09:19:13Z</time>
      </trkpt>
      <trkpt lat="50.50682" lon="3.88876">
        <ele>64.07</ele>
        <time>2016-09-25T09:19:46Z</time>
      </trkpt>
      <trkpt lat="50.50676" lon="3.88883">
        <ele>64.07</ele>
        <time>2016-09-25T09:20:06Z</time>
      </trkpt>
      <trkpt lat="50.5067" lon="3.88886">
        <ele>63.1</ele>
        <time>2016-09-25T09:20:24Z</time>
      </trkpt>
      <trkpt lat="50.50668" lon="3.88886">
        <ele>63.1</ele>
        <time>2016-09-25T09:20:39Z</time>
      </trkpt>
      <trkpt lat="50.50671" lon="3.88888">
        <ele>64.07</ele>
        <time>2016-09-25T09:20:59Z</time>
      </trkpt>
      <trkpt lat="50.50672" lon="3.88887">
        <ele>64.07</ele>
        <time>2016-09-25T09:21:24Z</time>
      </trkpt>
      <trkpt lat="50.50666" lon="3.88887">
        <ele>64.07</ele>
        <time>2016-09-25T09:21:42Z</time>
      </trkpt>
      <trkpt lat="50.50665" lon="3.88886">
        <ele>64.55</ele>
        <time>2016-09-25T09:21:54Z</time>
      </trkpt>
      <trkpt lat="50.50668" lon="3.88882">
        <ele>65.03</ele>
        <time>2016-09-25T09:22:11Z</time>
      </trkpt>
      <trkpt lat="50.5067" lon="3.88882">
        <ele>64.07</ele>
        <time>2016-09-25T09:22:24Z</time>
      </trkpt>
      <trkpt lat="50.50668" lon="3.88884">
        <ele>63.58</ele>
        <time>2016-09-25T09:22:39Z</time>
      </trkpt>
      <trkpt lat="50.50672" lon="3.88885">
        <ele>63.58</ele>
        <time>2016-09-25T09:22:56Z</time>
      </trkpt>
      <trkpt lat="50.5067" lon="3.88885">
        <ele>62.62</ele>
        <time>2016-09-25T09:23:17Z</time>
      </trkpt>
      <trkpt lat="50.50672" lon="3.88885">
        <ele>62.62</ele>
        <time>2016-09-25T09:23:35Z</time>
      </trkpt>
      <trkpt lat="50.50668" lon="3.88884">
        <ele>64.07</ele>
        <time>2016-09-25T09:23:50Z</time>
      </trkpt>
      <trkpt lat="50.50667" lon="3.88886">
        <ele>64.55</ele>
        <time>2016-09-25T09:24:13Z</time>
      </trkpt>
      <trkpt lat="50.50666" lon="3.88885">
        <ele>61.66</ele>
        <time>2016-09-25T09:24:33Z</time>
      </trkpt>
      <trkpt lat="50.50667" lon="3.88886">
        <ele>65.51</ele>
        <time>2016-09-25T09:24:45Z</time>
      </trkpt>
      <trkpt lat="50.50669" lon="3.88887">
        <ele>62.62</ele>
        <time>2016-09-25T09:25:00Z</time>
      </trkpt>
      <trkpt lat="50.5067" lon="3.88883">
        <ele>62.62</ele>
        <time>2016-09-25T09:25:25Z</time>
      </trkpt>
      <trkpt lat="50.50673" lon="3.88888">
        <ele>62.62</ele>
        <time>2016-09-25T09:25:43Z</time>
      </trkpt>
      <trkpt lat="50.50668" lon="3.88887">
        <ele>62.62</ele>
        <time>2016-09-25T09:25:59Z</time>
      </trkpt>
      <trkpt lat="50.50669" lon="3.88883">
        <ele>62.62</ele>
        <time>2016-09-25T09:26:21Z</time>
      </trkpt>
      <trkpt lat="50.50672" lon="3.88887">
        <ele>62.62</ele>
        <time>2016-09-25T09:26:42Z</time>
      </trkpt>
      <trkpt lat="50.5067" lon="3.88887">
        <ele>62.62</ele>
        <time>2016-09-25T09:26:57Z</time>
      </trkpt>
      <trkpt lat="50.5067" lon="3.88886">
        <ele>62.62</ele>
        <time>2016-09-25T09:27:12Z</time>
      </trkpt>
      <trkpt lat="50.50673" lon="3.88882">
        <ele>63.1</ele>
        <time>2016-09-25T09:27:38Z</time>
      </trkpt>
      <trkpt lat="50.5067" lon="3.88883">
        <ele>63.1</ele>
        <time>2016-09-25T09:28:03Z</time>
      </trkpt>
      <trkpt lat="50.5067" lon="3.88884">
        <ele>63.1</ele>
        <time>2016-09-25T09:28:24Z</time>
      </trkpt>
      <trkpt lat="50.50673" lon="3.8889">
        <ele>62.62</ele>
        <time>2016-09-25T09:28:48Z</time>
      </trkpt>
      <trkpt lat="50.50673" lon="3.88888">
        <ele>62.62</ele>
        <time>2016-09-25T09:29:17Z</time>
      </trkpt>
      <trkpt lat="50.50673" lon="3.88885">
        <ele>62.62</ele>
        <time>2016-09-25T09:29:45Z</time>
      </trkpt>
      <trkpt lat="50.50671" lon="3.88888">
        <ele>62.62</ele>
        <time>2016-09-25T09:30:05Z</time>
      </trkpt>
      <trkpt lat="50.50674" lon="3.88891">
        <ele>62.62</ele>
        <time>2016-09-25T09:30:26Z</time>
      </trkpt>
      <trkpt lat="50.50675" lon="3.88891">
        <ele>64.07</ele>
        <time>2016-09-25T09:30:29Z</time>
      </trkpt>
      <trkpt lat="50.50672" lon="3.88892">
        <ele>62.62</ele>
        <time>2016-09-25T09:30:40Z</time>
      </trkpt>
      <trkpt lat="50.50672" lon="3.88893">
        <ele>62.62</ele>
        <time>2016-09-25T09:31:03Z</time>
      </trkpt>
      <trkpt lat="50.50673" lon="3.88888">
        <ele>62.62</ele>
        <time>2016-09-25T09:31:30Z</time>
      </trkpt>
      <trkpt lat="50.50673" lon="3.88884">
        <ele>62.62</ele>
        <time>2016-09-25T09:31:57Z</time>
      </trkpt>
      <trkpt lat="50.50674" lon="3.88891">
        <ele>62.62</ele>
        <time>2016-09-25T09:32:23Z</time>
      </trkpt>
      <trkpt lat="50.50668" lon="3.88889">
        <ele>62.62</ele>
        <time>2016-09-25T09:32:48Z</time>
      </trkpt>
      <trkpt lat="50.50667" lon="3.88889">
        <ele>64.07</ele>
        <time>2016-09-25T09:32:51Z</time>
      </trkpt>
      <trkpt lat="50.50664" lon="3.88882">
        <ele>64.07</ele>
        <time>2016-09-25T09:33:14Z</time>
      </trkpt>
      <trkpt lat="50.50671" lon="3.88884">
        <ele>64.55</ele>
        <time>2016-09-25T09:33:45Z</time>
      </trkpt>
      <trkpt lat="50.50673" lon="3.8888">
        <ele>64.55</ele>
        <time>2016-09-25T09:34:09Z</time>
      </trkpt>
      <trkpt lat="50.50669" lon="3.88879">
        <ele>64.55</ele>
        <time>2016-09-25T09:34:35Z</time>
      </trkpt>
      <trkpt lat="50.5067" lon="3.88878">
        <ele>64.55</ele>
        <time>2016-09-25T09:35:01Z</time>
      </trkpt>
      <trkpt lat="50.5067" lon="3.88878">
        <ele>64.55</ele>
        <time>2016-09-25T09:35:18Z</time>
      </trkpt>
      <trkpt lat="50.50672" lon="3.88883">
        <ele>58.78</ele>
        <time>2016-09-25T09:35:42Z</time>
      </trkpt>
      <trkpt lat="50.50672" lon="3.88883">
        <ele>66.95</ele>
        <time>2016-09-25T09:35:43Z</time>
      </trkpt>
      <trkpt lat="50.50672" lon="3.88885">
        <ele>62.62</ele>
        <time>2016-09-25T09:35:45Z</time>
      </trkpt>
      <trkpt lat="50.50674" lon="3.88889">
        <ele>63.1</ele>
        <time>2016-09-25T09:35:58Z</time>
      </trkpt>
      <trkpt lat="50.50669" lon="3.88879">
        <ele>64.07</ele>
        <time>2016-09-25T09:36:17Z</time>
      </trkpt>
      <trkpt lat="50.50674" lon="3.88884">
        <ele>63.1</ele>
        <time>2016-09-25T09:36:42Z</time>
      </trkpt>
      <trkpt lat="50.50664" lon="3.88901">
        <ele>64.55</ele>
        <time>2016-09-25T09:37:01Z</time>
      </trkpt>
      <trkpt lat="50.5066" lon="3.88906">
        <ele>63.58</ele>
        <time>2016-09-25T09:37:24Z</time>
      </trkpt>
      <trkpt lat="50.50661" lon="3.88908">
        <ele>63.58</ele>
        <time>2016-09-25T09:37:52Z</time>
      </trkpt>
      <trkpt lat="50.50665" lon="3.88911">
        <ele>63.58</ele>
        <time>2016-09-25T09:38:18Z</time>
      </trkpt>
      <trkpt lat="50.50665" lon="3.88911">
        <ele>64.07</ele>
        <time>2016-09-25T09:38:25Z</time>
      </trkpt>
      <trkpt lat="50.50663" lon="3.88929">
        <ele>63.58</ele>
        <time>2016-09-25T09:38:39Z</time>
      </trkpt>
      <trkpt lat="50.50661" lon="3.88956">
        <ele>63.58</ele>
        <time>2016-09-25T09:38:55Z</time>
      </trkpt>
      <trkpt lat="50.50659" lon="3.8899">
        <ele>63.58</ele>
        <time>2016-09-25T09:39:14Z</time>
      </trkpt>
      <trkpt lat="50.50658" lon="3.89021">
        <ele>63.58</ele>
        <time>2016-09-25T09:39:30Z</time>
      </trkpt>
      <trkpt lat="50.50658" lon="3.89053">
        <ele>63.58</ele>
        <time>2016-09-25T09:39:46Z</time>
      </trkpt>
      <trkpt lat="50.50655" lon="3.89083">
        <ele>63.58</ele>
        <time>2016-09-25T09:40:02Z</time>
      </trkpt>
      <trkpt lat="50.50654" lon="3.89113">
        <ele>63.58</ele>
        <time>2016-09-25T09:40:17Z</time>
      </trkpt>
      <trkpt lat="50.50654" lon="3.89147">
        <ele>63.58</ele>
        <time>2016-09-25T09:40:34Z</time>
      </trkpt>
      <trkpt lat="50.50652" lon="3.8918">
        <ele>63.58</ele>
        <time>2016-09-25T09:40:52Z</time>
      </trkpt>
      <trkpt lat="50.50651" lon="3.89209">
        <ele>63.58</ele>
        <time>2016-09-25T09:41:08Z</time>
      </trkpt>
      <trkpt lat="50.5065" lon="3.89232">
        <ele>63.58</ele>
        <time>2016-09-25T09:41:20Z</time>
      </trkpt>
      <trkpt lat="50.5065" lon="3.89259">
        <ele>64.55</ele>
        <time>2016-09-25T09:41:35Z</time>
      </trkpt>
      <trkpt lat="50.50649" lon="3.89294">
        <ele>64.55</ele>
        <time>2016-09-25T09:41:53Z</time>
      </trkpt>
      <trkpt lat="50.50649" lon="3.89333">
        <ele>65.03</ele>
        <time>2016-09-25T09:42:13Z</time>
      </trkpt>
      <trkpt lat="50.50649" lon="3.89363">
        <ele>65.51</ele>
        <time>2016-09-25T09:42:31Z</time>
      </trkpt>
      <trkpt lat="50.5065" lon="3.89397">
        <ele>65.99</ele>
        <time>2016-09-25T09:42:50Z</time>
      </trkpt>
      <trkpt lat="50.5065" lon="3.89418">
        <ele>66.47</ele>
        <time>2016-09-25T09:43:02Z</time>
      </trkpt>
      <trkpt lat="50.50649" lon="3.8942">
        <ele>66.47</ele>
        <time>2016-09-25T09:43:03Z</time>
      </trkpt>
      <trkpt lat="50.50648" lon="3.89422">
        <ele>66.47</ele>
        <time>2016-09-25T09:43:04Z</time>
      </trkpt>
      <trkpt lat="50.5064" lon="3.89436">
        <ele>66.47</ele>
        <time>2016-09-25T09:43:17Z</time>
      </trkpt>
      <trkpt lat="50.5064" lon="3.89437">
        <ele>66.47</ele>
        <time>2016-09-25T09:43:18Z</time>
      </trkpt>
      <trkpt lat="50.50639" lon="3.89439">
        <ele>66.47</ele>
        <time>2016-09-25T09:43:19Z</time>
      </trkpt>
      <trkpt lat="50.50626" lon="3.89457">
        <ele>66.95</ele>
        <time>2016-09-25T09:43:33Z</time>
      </trkpt>
      <trkpt lat="50.50612" lon="3.89475">
        <ele>67.91</ele>
        <time>2016-09-25T09:43:49Z</time>
      </trkpt>
      <trkpt lat="50.50599" lon="3.89498">
        <ele>67.91</ele>
        <time>2016-09-25T09:44:06Z</time>
      </trkpt>
      <trkpt lat="50.50591" lon="3.89527">
        <ele>68.39</ele>
        <time>2016-09-25T09:44:23Z</time>
      </trkpt>
      <trkpt lat="50.50585" lon="3.89552">
        <ele>68.87</ele>
        <time>2016-09-25T09:44:39Z</time>
      </trkpt>
      <trkpt lat="50.5058" lon="3.89573">
        <ele>69.35</ele>
        <time>2016-09-25T09:44:53Z</time>
      </trkpt>
      <trkpt lat="50.50575" lon="3.89593">
        <ele>69.83</ele>
        <time>2016-09-25T09:45:08Z</time>
      </trkpt>
      <trkpt lat="50.50568" lon="3.89618">
        <ele>69.83</ele>
        <time>2016-09-25T09:45:24Z</time>
      </trkpt>
      <trkpt lat="50.50564" lon="3.8964">
        <ele>70.31</ele>
        <time>2016-09-25T09:45:41Z</time>
      </trkpt>
      <trkpt lat="50.50558" lon="3.89668">
        <ele>70.79</ele>
        <time>2016-09-25T09:45:55Z</time>
      </trkpt>
      <trkpt lat="50.5055" lon="3.89698">
        <ele>71.27</ele>
        <time>2016-09-25T09:46:12Z</time>
      </trkpt>
      <trkpt lat="50.50541" lon="3.89723">
        <ele>72.24</ele>
        <time>2016-09-25T09:46:28Z</time>
      </trkpt>
      <trkpt lat="50.50534" lon="3.89744">
        <ele>72.72</ele>
        <time>2016-09-25T09:46:42Z</time>
      </trkpt>
      <trkpt lat="50.50525" lon="3.89772">
        <ele>73.2</ele>
        <time>2016-09-25T09:47:00Z</time>
      </trkpt>
      <trkpt lat="50.50518" lon="3.89798">
        <ele>73.2</ele>
        <time>2016-09-25T09:47:18Z</time>
      </trkpt>
      <trkpt lat="50.50511" lon="3.89818">
        <ele>73.68</ele>
        <time>2016-09-25T09:47:33Z</time>
      </trkpt>
      <trkpt lat="50.50499" lon="3.89835">
        <ele>73.68</ele>
        <time>2016-09-25T09:47:50Z</time>
      </trkpt>
      <trkpt lat="50.50486" lon="3.89842">
        <ele>74.16</ele>
        <time>2016-09-25T09:48:04Z</time>
      </trkpt>
      <trkpt lat="50.50474" lon="3.89849">
        <ele>73.68</ele>
        <time>2016-09-25T09:48:17Z</time>
      </trkpt>
      <trkpt lat="50.50467" lon="3.89853">
        <ele>74.16</ele>
        <time>2016-09-25T09:48:23Z</time>
      </trkpt>
      <trkpt lat="50.50454" lon="3.89864">
        <ele>74.16</ele>
        <time>2016-09-25T09:48:36Z</time>
      </trkpt>
      <trkpt lat="50.50438" lon="3.89875">
        <ele>74.16</ele>
        <time>2016-09-25T09:48:50Z</time>
      </trkpt>
      <trkpt lat="50.50424" lon="3.89881">
        <ele>74.64</ele>
        <time>2016-09-25T09:49:05Z</time>
      </trkpt>
      <trkpt lat="50.50408" lon="3.89883">
        <ele>74.64</ele>
        <time>2016-09-25T09:49:20Z</time>
      </trkpt>
      <trkpt lat="50.50394" lon="3.89884">
        <ele>75.12</ele>
        <time>2016-09-25T09:49:34Z</time>
      </trkpt>
      <trkpt lat="50.50384" lon="3.89884">
        <ele>75.12</ele>
        <time>2016-09-25T09:49:46Z</time>
      </trkpt>
      <trkpt lat="50.50371" lon="3.89883">
        <ele>75.12</ele>
        <time>2016-09-25T09:49:59Z</time>
      </trkpt>
      <trkpt lat="50.5035" lon="3.89889">
        <ele>75.6</ele>
        <time>2016-09-25T09:50:15Z</time>
      </trkpt>
      <trkpt lat="50.50328" lon="3.899">
        <ele>75.6</ele>
        <time>2016-09-25T09:50:32Z</time>
      </trkpt>
      <trkpt lat="50.50314" lon="3.89899">
        <ele>75.6</ele>
        <time>2016-09-25T09:50:44Z</time>
      </trkpt>
      <trkpt lat="50.50295" lon="3.89899">
        <ele>75.6</ele>
        <time>2016-09-25T09:50:58Z</time>
      </trkpt>
      <trkpt lat="50.50282" lon="3.89901">
        <ele>75.6</ele>
        <time>2016-09-25T09:51:12Z</time>
      </trkpt>
      <trkpt lat="50.50272" lon="3.89902">
        <ele>75.6</ele>
        <time>2016-09-25T09:51:27Z</time>
      </trkpt>
      <trkpt lat="50.5026" lon="3.89904">
        <ele>75.6</ele>
        <time>2016-09-25T09:51:37Z</time>
      </trkpt>
      <trkpt lat="50.50243" lon="3.89907">
        <ele>75.6</ele>
        <time>2016-09-25T09:51:51Z</time>
      </trkpt>
      <trkpt lat="50.50222" lon="3.89911">
        <ele>76.08</ele>
        <time>2016-09-25T09:52:08Z</time>
      </trkpt>
      <trkpt lat="50.50208" lon="3.89913">
        <ele>74.64</ele>
        <time>2016-09-25T09:52:20Z</time>
      </trkpt>
      <trkpt lat="50.50193" lon="3.89912">
        <ele>74.64</ele>
        <time>2016-09-25T09:52:34Z</time>
      </trkpt>
      <trkpt lat="50.50173" lon="3.89915">
        <ele>74.64</ele>
        <time>2016-09-25T09:52:50Z</time>
      </trkpt>
      <trkpt lat="50.50158" lon="3.89915">
        <ele>74.64</ele>
        <time>2016-09-25T09:53:03Z</time>
      </trkpt>
      <trkpt lat="50.50138" lon="3.89923">
        <ele>74.16</ele>
        <time>2016-09-25T09:53:18Z</time>
      </trkpt>
      <trkpt lat="50.50121" lon="3.89925">
        <ele>73.68</ele>
        <time>2016-09-25T09:53:34Z</time>
      </trkpt>
      <trkpt lat="50.50109" lon="3.89929">
        <ele>73.68</ele>
        <time>2016-09-25T09:53:43Z</time>
      </trkpt>
      <trkpt lat="50.50107" lon="3.8993">
        <ele>73.68</ele>
        <time>2016-09-25T09:53:44Z</time>
      </trkpt>
      <trkpt lat="50.50088" lon="3.89934">
        <ele>73.68</ele>
        <time>2016-09-25T09:54:00Z</time>
      </trkpt>
      <trkpt lat="50.50068" lon="3.89936">
        <ele>73.68</ele>
        <time>2016-09-25T09:54:18Z</time>
      </trkpt>
      <trkpt lat="50.50051" lon="3.89937">
        <ele>73.68</ele>
        <time>2016-09-25T09:54:33Z</time>
      </trkpt>
      <trkpt lat="50.50033" lon="3.89939">
        <ele>73.2</ele>
        <time>2016-09-25T09:54:48Z</time>
      </trkpt>
      <trkpt lat="50.50014" lon="3.89942">
        <ele>73.2</ele>
        <time>2016-09-25T09:55:04Z</time>
      </trkpt>
      <trkpt lat="50.49997" lon="3.89943">
        <ele>72.72</ele>
        <time>2016-09-25T09:55:19Z</time>
      </trkpt>
      <trkpt lat="50.49978" lon="3.89945">
        <ele>72.72</ele>
        <time>2016-09-25T09:55:34Z</time>
      </trkpt>
      <trkpt lat="50.49971" lon="3.89946">
        <ele>72.24</ele>
        <time>2016-09-25T09:55:39Z</time>
      </trkpt>
      <trkpt lat="50.49963" lon="3.8995">
        <ele>72.24</ele>
        <time>2016-09-25T09:55:45Z</time>
      </trkpt>
      <trkpt lat="50.49957" lon="3.89953">
        <ele>72.24</ele>
        <time>2016-09-25T09:55:49Z</time>
      </trkpt>
      <trkpt lat="50.49944" lon="3.89959">
        <ele>72.24</ele>
        <time>2016-09-25T09:56:03Z</time>
      </trkpt>
      <trkpt lat="50.49938" lon="3.89963">
        <ele>72.24</ele>
        <time>2016-09-25T09:56:15Z</time>
      </trkpt>
      <trkpt lat="50.49923" lon="3.8996">
        <ele>70.79</ele>
        <time>2016-09-25T09:56:31Z</time>
      </trkpt>
      <trkpt lat="50.49917" lon="3.89962">
        <ele>70.79</ele>
        <time>2016-09-25T09:56:38Z</time>
      </trkpt>
      <trkpt lat="50.49905" lon="3.89978">
        <ele>70.79</ele>
        <time>2016-09-25T09:56:53Z</time>
      </trkpt>
      <trkpt lat="50.49904" lon="3.89981">
        <ele>70.79</ele>
        <time>2016-09-25T09:56:55Z</time>
      </trkpt>
      <trkpt lat="50.499" lon="3.90008">
        <ele>70.79</ele>
        <time>2016-09-25T09:57:10Z</time>
      </trkpt>
      <trkpt lat="50.49901" lon="3.90038">
        <ele>71.76</ele>
        <time>2016-09-25T09:57:25Z</time>
      </trkpt>
      <trkpt lat="50.49897" lon="3.90063">
        <ele>71.76</ele>
        <time>2016-09-25T09:57:38Z</time>
      </trkpt>
      <trkpt lat="50.49891" lon="3.90073">
        <ele>71.76</ele>
        <time>2016-09-25T09:57:50Z</time>
      </trkpt>
      <trkpt lat="50.4989" lon="3.90074">
        <ele>70.31</ele>
        <time>2016-09-25T09:57:52Z</time>
      </trkpt>
      <trkpt lat="50.49879" lon="3.9009">
        <ele>69.83</ele>
        <time>2016-09-25T09:58:07Z</time>
      </trkpt>
      <trkpt lat="50.49863" lon="3.90112">
        <ele>68.87</ele>
        <time>2016-09-25T09:58:23Z</time>
      </trkpt>
      <trkpt lat="50.49848" lon="3.90127">
        <ele>68.87</ele>
        <time>2016-09-25T09:58:37Z</time>
      </trkpt>
      <trkpt lat="50.49832" lon="3.90139">
        <ele>68.87</ele>
        <time>2016-09-25T09:58:52Z</time>
      </trkpt>
      <trkpt lat="50.49823" lon="3.90143">
        <ele>68.87</ele>
        <time>2016-09-25T09:58:58Z</time>
      </trkpt>
      <trkpt lat="50.49805" lon="3.90147">
        <ele>68.87</ele>
        <time>2016-09-25T09:59:13Z</time>
      </trkpt>
      <trkpt lat="50.49788" lon="3.90148">
        <ele>68.87</ele>
        <time>2016-09-25T09:59:27Z</time>
      </trkpt>
      <trkpt lat="50.49771" lon="3.90153">
        <ele>68.39</ele>
        <time>2016-09-25T09:59:41Z</time>
      </trkpt>
      <trkpt lat="50.49757" lon="3.90157">
        <ele>68.39</ele>
        <time>2016-09-25T09:59:57Z</time>
      </trkpt>
      <trkpt lat="50.49751" lon="3.90161">
        <ele>69.35</ele>
        <time>2016-09-25T10:00:03Z</time>
      </trkpt>
      <trkpt lat="50.49735" lon="3.90163">
        <ele>69.35</ele>
        <time>2016-09-25T10:00:18Z</time>
      </trkpt>
      <trkpt lat="50.49719" lon="3.9016">
        <ele>68.87</ele>
        <time>2016-09-25T10:00:30Z</time>
      </trkpt>
      <trkpt lat="50.49718" lon="3.90161">
        <ele>68.87</ele>
        <time>2016-09-25T10:00:31Z</time>
      </trkpt>
      <trkpt lat="50.49716" lon="3.90161">
        <ele>68.87</ele>
        <time>2016-09-25T10:00:32Z</time>
      </trkpt>
      <trkpt lat="50.49715" lon="3.90162">
        <ele>68.87</ele>
        <time>2016-09-25T10:00:33Z</time>
      </trkpt>
      <trkpt lat="50.49713" lon="3.90162">
        <ele>68.87</ele>
        <time>2016-09-25T10:00:34Z</time>
      </trkpt>
      <trkpt lat="50.4971" lon="3.90161">
        <ele>68.87</ele>
        <time>2016-09-25T10:00:36Z</time>
      </trkpt>
      <trkpt lat="50.49687" lon="3.90165">
        <ele>68.39</ele>
        <time>2016-09-25T10:00:52Z</time>
      </trkpt>
      <trkpt lat="50.49679" lon="3.90167">
        <ele>68.39</ele>
        <time>2016-09-25T10:00:58Z</time>
      </trkpt>
      <trkpt lat="50.49658" lon="3.90169">
        <ele>66.47</ele>
        <time>2016-09-25T10:01:15Z</time>
      </trkpt>
      <trkpt lat="50.49646" lon="3.90168">
        <ele>65.99</ele>
        <time>2016-09-25T10:01:27Z</time>
      </trkpt>
      <trkpt lat="50.49631" lon="3.90169">
        <ele>65.51</ele>
        <time>2016-09-25T10:01:40Z</time>
      </trkpt>
      <trkpt lat="50.49613" lon="3.90174">
        <ele>64.55</ele>
        <time>2016-09-25T10:01:54Z</time>
      </trkpt>
      <trkpt lat="50.49592" lon="3.90181">
        <ele>63.58</ele>
        <time>2016-09-25T10:02:08Z</time>
      </trkpt>
      <trkpt lat="50.49572" lon="3.90187">
        <ele>62.62</ele>
        <time>2016-09-25T10:02:24Z</time>
      </trkpt>
      <trkpt lat="50.49561" lon="3.90193">
        <ele>62.14</ele>
        <time>2016-09-25T10:02:39Z</time>
      </trkpt>
      <trkpt lat="50.49551" lon="3.90191">
        <ele>61.18</ele>
        <time>2016-09-25T10:02:55Z</time>
      </trkpt>
      <trkpt lat="50.49538" lon="3.90196">
        <ele>60.22</ele>
        <time>2016-09-25T10:03:07Z</time>
      </trkpt>
      <trkpt lat="50.4952" lon="3.90203">
        <ele>59.26</ele>
        <time>2016-09-25T10:03:22Z</time>
      </trkpt>
      <trkpt lat="50.49511" lon="3.902">
        <ele>59.26</ele>
        <time>2016-09-25T10:03:28Z</time>
      </trkpt>
      <trkpt lat="50.4951" lon="3.90199">
        <ele>58.78</ele>
        <time>2016-09-25T10:03:29Z</time>
      </trkpt>
      <trkpt lat="50.495" lon="3.90191">
        <ele>57.82</ele>
        <time>2016-09-25T10:03:37Z</time>
      </trkpt>
      <trkpt lat="50.49481" lon="3.90184">
        <ele>56.86</ele>
        <time>2016-09-25T10:03:54Z</time>
      </trkpt>
      <trkpt lat="50.49459" lon="3.90189">
        <ele>55.41</ele>
        <time>2016-09-25T10:04:09Z</time>
      </trkpt>
      <trkpt lat="50.49439" lon="3.90203">
        <ele>54.93</ele>
        <time>2016-09-25T10:04:25Z</time>
      </trkpt>
      <trkpt lat="50.49423" lon="3.90213">
        <ele>53.97</ele>
        <time>2016-09-25T10:04:41Z</time>
      </trkpt>
      <trkpt lat="50.49422" lon="3.90215">
        <ele>53.97</ele>
        <time>2016-09-25T10:04:42Z</time>
      </trkpt>
      <trkpt lat="50.4941" lon="3.90232">
        <ele>53.01</ele>
        <time>2016-09-25T10:04:57Z</time>
      </trkpt>
      <trkpt lat="50.49401" lon="3.90254">
        <ele>51.57</ele>
        <time>2016-09-25T10:05:11Z</time>
      </trkpt>
      <trkpt lat="50.494" lon="3.90256">
        <ele>51.57</ele>
        <time>2016-09-25T10:05:12Z</time>
      </trkpt>
      <trkpt lat="50.49388" lon="3.90288">
        <ele>51.09</ele>
        <time>2016-09-25T10:05:28Z</time>
      </trkpt>
      <trkpt lat="50.49384" lon="3.90298">
        <ele>50.61</ele>
        <time>2016-09-25T10:05:35Z</time>
      </trkpt>
      <trkpt lat="50.49377" lon="3.90326">
        <ele>50.13</ele>
        <time>2016-09-25T10:05:50Z</time>
      </trkpt>
      <trkpt lat="50.49374" lon="3.90334">
        <ele>50.13</ele>
        <time>2016-09-25T10:06:05Z</time>
      </trkpt>
      <trkpt lat="50.49361" lon="3.90352">
        <ele>50.13</ele>
        <time>2016-09-25T10:06:20Z</time>
      </trkpt>
      <trkpt lat="50.49348" lon="3.90365">
        <ele>49.65</ele>
        <time>2016-09-25T10:06:32Z</time>
      </trkpt>
      <trkpt lat="50.49333" lon="3.90381">
        <ele>49.16</ele>
        <time>2016-09-25T10:06:46Z</time>
      </trkpt>
      <trkpt lat="50.4932" lon="3.90395">
        <ele>48.68</ele>
        <time>2016-09-25T10:06:59Z</time>
      </trkpt>
      <trkpt lat="50.49303" lon="3.90416">
        <ele>48.2</ele>
        <time>2016-09-25T10:07:13Z</time>
      </trkpt>
      <trkpt lat="50.4929" lon="3.9043">
        <ele>47.24</ele>
        <time>2016-09-25T10:07:26Z</time>
      </trkpt>
      <trkpt lat="50.49277" lon="3.90449">
        <ele>47.24</ele>
        <time>2016-09-25T10:07:41Z</time>
      </trkpt>
      <trkpt lat="50.49266" lon="3.90462">
        <ele>46.76</ele>
        <time>2016-09-25T10:07:53Z</time>
      </trkpt>
      <trkpt lat="50.49253" lon="3.90479">
        <ele>46.28</ele>
        <time>2016-09-25T10:08:07Z</time>
      </trkpt>
      <trkpt lat="50.4924" lon="3.90499">
        <ele>45.8</ele>
        <time>2016-09-25T10:08:23Z</time>
      </trkpt>
      <trkpt lat="50.4923" lon="3.90519">
        <ele>45.32</ele>
        <time>2016-09-25T10:08:38Z</time>
      </trkpt>
      <trkpt lat="50.4922" lon="3.90536">
        <ele>44.84</ele>
        <time>2016-09-25T10:08:50Z</time>
      </trkpt>
      <trkpt lat="50.49207" lon="3.9056">
        <ele>44.36</ele>
        <time>2016-09-25T10:09:06Z</time>
      </trkpt>
      <trkpt lat="50.49196" lon="3.90582">
        <ele>43.88</ele>
        <time>2016-09-25T10:09:19Z</time>
      </trkpt>
      <trkpt lat="50.49185" lon="3.90604">
        <ele>43.4</ele>
        <time>2016-09-25T10:09:36Z</time>
      </trkpt>
      <trkpt lat="50.49178" lon="3.90622">
        <ele>42.92</ele>
        <time>2016-09-25T10:09:51Z</time>
      </trkpt>
      <trkpt lat="50.49165" lon="3.90654">
        <ele>42.44</ele>
        <time>2016-09-25T10:10:11Z</time>
      </trkpt>
      <trkpt lat="50.49149" lon="3.90668">
        <ele>42.44</ele>
        <time>2016-09-25T10:10:26Z</time>
      </trkpt>
      <trkpt lat="50.49129" lon="3.90677">
        <ele>41.95</ele>
        <time>2016-09-25T10:10:42Z</time>
      </trkpt>
      <trkpt lat="50.49121" lon="3.90683">
        <ele>41.47</ele>
        <time>2016-09-25T10:10:50Z</time>
      </trkpt>
      <trkpt lat="50.4912" lon="3.90684">
        <ele>41.47</ele>
        <time>2016-09-25T10:10:51Z</time>
      </trkpt>
      <trkpt lat="50.49119" lon="3.90685">
        <ele>41.47</ele>
        <time>2016-09-25T10:10:52Z</time>
      </trkpt>
      <trkpt lat="50.49107" lon="3.90697">
        <ele>41.47</ele>
        <time>2016-09-25T10:11:05Z</time>
      </trkpt>
      <trkpt lat="50.49092" lon="3.90707">
        <ele>40.99</ele>
        <time>2016-09-25T10:11:22Z</time>
      </trkpt>
      <trkpt lat="50.49085" lon="3.90708">
        <ele>40.99</ele>
        <time>2016-09-25T10:11:36Z</time>
      </trkpt>
      <trkpt lat="50.49084" lon="3.90707">
        <ele>40.99</ele>
        <time>2016-09-25T10:11:54Z</time>
      </trkpt>
      <trkpt lat="50.49082" lon="3.90713">
        <ele>40.51</ele>
        <time>2016-09-25T10:12:14Z</time>
      </trkpt>
      <trkpt lat="50.49083" lon="3.90735">
        <ele>40.51</ele>
        <time>2016-09-25T10:12:31Z</time>
      </trkpt>
      <trkpt lat="50.49085" lon="3.90739">
        <ele>40.51</ele>
        <time>2016-09-25T10:12:55Z</time>
      </trkpt>
      <trkpt lat="50.49086" lon="3.90731">
        <ele>40.51</ele>
        <time>2016-09-25T10:13:19Z</time>
      </trkpt>
      <trkpt lat="50.49086" lon="3.9073">
        <ele>40.51</ele>
        <time>2016-09-25T10:13:38Z</time>
      </trkpt>
      <trkpt lat="50.49091" lon="3.90738">
        <ele>40.51</ele>
        <time>2016-09-25T10:13:56Z</time>
      </trkpt>
      <trkpt lat="50.49092" lon="3.90741">
        <ele>40.51</ele>
        <time>2016-09-25T10:14:25Z</time>
      </trkpt>
      <trkpt lat="50.49094" lon="3.90741">
        <ele>40.51</ele>
        <time>2016-09-25T10:14:48Z</time>
      </trkpt>
      <trkpt lat="50.49092" lon="3.9074">
        <ele>40.51</ele>
        <time>2016-09-25T10:15:19Z</time>
      </trkpt>
      <trkpt lat="50.49094" lon="3.90741">
        <ele>40.51</ele>
        <time>2016-09-25T10:15:57Z</time>
      </trkpt>
      <trkpt lat="50.49093" lon="3.90738">
        <ele>40.51</ele>
        <time>2016-09-25T10:16:24Z</time>
      </trkpt>
      <trkpt lat="50.49095" lon="3.9074">
        <ele>40.99</ele>
        <time>2016-09-25T10:17:04Z</time>
      </trkpt>
      <trkpt lat="50.49092" lon="3.90738">
        <ele>40.99</ele>
        <time>2016-09-25T10:17:30Z</time>
      </trkpt>
      <trkpt lat="50.49093" lon="3.90739">
        <ele>40.99</ele>
        <time>2016-09-25T10:18:07Z</time>
      </trkpt>
      <trkpt lat="50.49094" lon="3.90737">
        <ele>41.47</ele>
        <time>2016-09-25T10:18:42Z</time>
      </trkpt>
      <trkpt lat="50.49092" lon="3.90739">
        <ele>41.47</ele>
        <time>2016-09-25T10:19:17Z</time>
      </trkpt>
      <trkpt lat="50.49091" lon="3.90738">
        <ele>41.47</ele>
        <time>2016-09-25T10:19:51Z</time>
      </trkpt>
      <trkpt lat="50.4909" lon="3.9074">
        <ele>41.47</ele>
        <time>2016-09-25T10:20:20Z</time>
      </trkpt>
      <trkpt lat="50.4909" lon="3.90739">
        <ele>41.47</ele>
        <time>2016-09-25T10:20:21Z</time>
      </trkpt>
      <trkpt lat="50.49091" lon="3.90737">
        <ele>41.47</ele>
        <time>2016-09-25T10:20:49Z</time>
      </trkpt>
      <trkpt lat="50.49092" lon="3.90739">
        <ele>42.44</ele>
        <time>2016-09-25T10:20:55Z</time>
      </trkpt>
      <trkpt lat="50.49092" lon="3.90739">
        <ele>40.99</ele>
        <time>2016-09-25T10:20:58Z</time>
      </trkpt>
      <trkpt lat="50.49091" lon="3.90739">
        <ele>42.44</ele>
        <time>2016-09-25T10:21:00Z</time>
      </trkpt>
      <trkpt lat="50.4909" lon="3.90738">
        <ele>40.99</ele>
        <time>2016-09-25T10:21:07Z</time>
      </trkpt>
      <trkpt lat="50.4909" lon="3.90736">
        <ele>41.95</ele>
        <time>2016-09-25T10:21:42Z</time>
      </trkpt>
      <trkpt lat="50.49094" lon="3.90741">
        <ele>41.95</ele>
        <time>2016-09-25T10:22:12Z</time>
      </trkpt>
      <trkpt lat="50.49092" lon="3.90737">
        <ele>43.88</ele>
        <time>2016-09-25T10:22:47Z</time>
      </trkpt>
      <trkpt lat="50.49092" lon="3.90736">
        <ele>43.88</ele>
        <time>2016-09-25T10:23:15Z</time>
      </trkpt>
      <trkpt lat="50.49093" lon="3.90736">
        <ele>43.88</ele>
        <time>2016-09-25T10:23:40Z</time>
      </trkpt>
      <trkpt lat="50.49086" lon="3.90735">
        <ele>44.36</ele>
        <time>2016-09-25T10:24:14Z</time>
      </trkpt>
      <trkpt lat="50.49089" lon="3.90739">
        <ele>44.36</ele>
        <time>2016-09-25T10:24:44Z</time>
      </trkpt>
      <trkpt lat="50.49088" lon="3.90739">
        <ele>44.84</ele>
        <time>2016-09-25T10:25:15Z</time>
      </trkpt>
      <trkpt lat="50.49092" lon="3.90741">
        <ele>44.84</ele>
        <time>2016-09-25T10:25:42Z</time>
      </trkpt>
      <trkpt lat="50.49091" lon="3.90737">
        <ele>44.84</ele>
        <time>2016-09-25T10:26:07Z</time>
      </trkpt>
      <trkpt lat="50.4909" lon="3.90734">
        <ele>44.36</ele>
        <time>2016-09-25T10:26:31Z</time>
      </trkpt>
      <trkpt lat="50.49089" lon="3.90735">
        <ele>44.36</ele>
        <time>2016-09-25T10:26:55Z</time>
      </trkpt>
      <trkpt lat="50.49091" lon="3.90735">
        <ele>44.36</ele>
        <time>2016-09-25T10:27:14Z</time>
      </trkpt>
      <trkpt lat="50.49094" lon="3.9074">
        <ele>44.36</ele>
        <time>2016-09-25T10:27:43Z</time>
      </trkpt>
      <trkpt lat="50.49093" lon="3.90739">
        <ele>44.36</ele>
        <time>2016-09-25T10:28:11Z</time>
      </trkpt>
      <trkpt lat="50.49089" lon="3.90738">
        <ele>44.84</ele>
        <time>2016-09-25T10:28:38Z</time>
      </trkpt>
      <trkpt lat="50.49092" lon="3.90739">
        <ele>44.84</ele>
        <time>2016-09-25T10:29:09Z</time>
      </trkpt>
      <trkpt lat="50.49092" lon="3.90737">
        <ele>44.84</ele>
        <time>2016-09-25T10:29:32Z</time>
      </trkpt>
      <trkpt lat="50.49091" lon="3.90739">
        <ele>44.36</ele>
        <time>2016-09-25T10:29:51Z</time>
      </trkpt>
      <trkpt lat="50.49088" lon="3.90741">
        <ele>43.88</ele>
        <time>2016-09-25T10:30:10Z</time>
      </trkpt>
      <trkpt lat="50.49089" lon="3.90742">
        <ele>44.36</ele>
        <time>2016-09-25T10:30:36Z</time>
      </trkpt>
      <trkpt lat="50.4909" lon="3.90742">
        <ele>44.36</ele>
        <time>2016-09-25T10:31:05Z</time>
      </trkpt>
      <trkpt lat="50.49092" lon="3.90743">
        <ele>44.36</ele>
        <time>2016-09-25T10:31:28Z</time>
      </trkpt>
      <trkpt lat="50.49092" lon="3.90742">
        <ele>44.84</ele>
        <time>2016-09-25T10:32:03Z</time>
      </trkpt>
      <trkpt lat="50.49091" lon="3.90741">
        <ele>44.84</ele>
        <time>2016-09-25T10:32:31Z</time>
      </trkpt>
      <trkpt lat="50.49089" lon="3.90739">
        <ele>45.32</ele>
        <time>2016-09-25T10:33:10Z</time>
      </trkpt>
      <trkpt lat="50.49089" lon="3.90741">
        <ele>45.32</ele>
        <time>2016-09-25T10:33:35Z</time>
      </trkpt>
      <trkpt lat="50.49091" lon="3.90739">
        <ele>45.8</ele>
        <time>2016-09-25T10:34:03Z</time>
      </trkpt>
      <trkpt lat="50.49089" lon="3.90739">
        <ele>45.8</ele>
        <time>2016-09-25T10:34:39Z</time>
      </trkpt>
      <trkpt lat="50.4909" lon="3.90739">
        <ele>45.8</ele>
        <time>2016-09-25T10:35:01Z</time>
      </trkpt>
      <trkpt lat="50.49087" lon="3.9074">
        <ele>46.28</ele>
        <time>2016-09-25T10:35:38Z</time>
      </trkpt>
      <trkpt lat="50.49091" lon="3.90741">
        <ele>46.76</ele>
        <time>2016-09-25T10:36:08Z</time>
      </trkpt>
      <trkpt lat="50.49093" lon="3.90738">
        <ele>46.76</ele>
        <time>2016-09-25T10:36:42Z</time>
      </trkpt>
      <trkpt lat="50.49095" lon="3.90739">
        <ele>46.76</ele>
        <time>2016-09-25T10:37:21Z</time>
      </trkpt>
      <trkpt lat="50.49095" lon="3.90739">
        <ele>47.24</ele>
        <time>2016-09-25T10:37:54Z</time>
      </trkpt>
      <trkpt lat="50.49091" lon="3.90737">
        <ele>47.24</ele>
        <time>2016-09-25T10:38:27Z</time>
      </trkpt>
      <trkpt lat="50.49089" lon="3.90738">
        <ele>47.24</ele>
        <time>2016-09-25T10:38:51Z</time>
      </trkpt>
      <trkpt lat="50.49091" lon="3.90739">
        <ele>47.72</ele>
        <time>2016-09-25T10:39:26Z</time>
      </trkpt>
      <trkpt lat="50.49091" lon="3.90741">
        <ele>47.72</ele>
        <time>2016-09-25T10:39:49Z</time>
      </trkpt>
      <trkpt lat="50.4909" lon="3.90741">
        <ele>47.72</ele>
        <time>2016-09-25T10:40:20Z</time>
      </trkpt>
      <trkpt lat="50.49091" lon="3.90741">
        <ele>47.72</ele>
        <time>2016-09-25T10:40:45Z</time>
      </trkpt>
      <trkpt lat="50.49091" lon="3.90739">
        <ele>47.72</ele>
        <time>2016-09-25T10:41:10Z</time>
      </trkpt>
      <trkpt lat="50.49091" lon="3.90735">
        <ele>47.72</ele>
        <time>2016-09-25T10:41:39Z</time>
      </trkpt>
      <trkpt lat="50.49091" lon="3.90736">
        <ele>48.2</ele>
        <time>2016-09-25T10:42:08Z</time>
      </trkpt>
      <trkpt lat="50.49091" lon="3.90733">
        <ele>48.2</ele>
        <time>2016-09-25T10:42:40Z</time>
      </trkpt>
      <trkpt lat="50.49083" lon="3.90733">
        <ele>50.13</ele>
        <time>2016-09-25T10:43:13Z</time>
      </trkpt>
      <trkpt lat="50.49082" lon="3.90735">
        <ele>49.65</ele>
        <time>2016-09-25T10:43:18Z</time>
      </trkpt>
      <trkpt lat="50.49091" lon="3.90741">
        <ele>49.65</ele>
        <time>2016-09-25T10:43:39Z</time>
      </trkpt>
      <trkpt lat="50.49091" lon="3.9074">
        <ele>48.68</ele>
        <time>2016-09-25T10:43:49Z</time>
      </trkpt>
      <trkpt lat="50.4909" lon="3.90741">
        <ele>48.68</ele>
        <time>2016-09-25T10:44:19Z</time>
      </trkpt>
      <trkpt lat="50.49089" lon="3.9074">
        <ele>48.68</ele>
        <time>2016-09-25T10:44:53Z</time>
      </trkpt>
      <trkpt lat="50.49091" lon="3.9074">
        <ele>48.68</ele>
        <time>2016-09-25T10:45:21Z</time>
      </trkpt>
      <trkpt lat="50.49093" lon="3.9074">
        <ele>48.68</ele>
        <time>2016-09-25T10:45:57Z</time>
      </trkpt>
      <trkpt lat="50.4909" lon="3.90744">
        <ele>48.68</ele>
        <time>2016-09-25T10:46:31Z</time>
      </trkpt>
      <trkpt lat="50.49091" lon="3.90743">
        <ele>48.68</ele>
        <time>2016-09-25T10:47:04Z</time>
      </trkpt>
      <trkpt lat="50.49092" lon="3.90744">
        <ele>48.68</ele>
        <time>2016-09-25T10:47:40Z</time>
      </trkpt>
      <trkpt lat="50.49092" lon="3.90739">
        <ele>48.68</ele>
        <time>2016-09-25T10:48:09Z</time>
      </trkpt>
      <trkpt lat="50.4909" lon="3.90737">
        <ele>48.68</ele>
        <time>2016-09-25T10:48:34Z</time>
      </trkpt>
      <trkpt lat="50.4909" lon="3.90739">
        <ele>48.68</ele>
        <time>2016-09-25T10:49:01Z</time>
      </trkpt>
      <trkpt lat="50.49088" lon="3.90737">
        <ele>49.65</ele>
        <time>2016-09-25T10:49:28Z</time>
      </trkpt>
      <trkpt lat="50.49088" lon="3.9073">
        <ele>48.2</ele>
        <time>2016-09-25T10:49:54Z</time>
      </trkpt>
      <trkpt lat="50.49088" lon="3.90731">
        <ele>48.2</ele>
        <time>2016-09-25T10:49:55Z</time>
      </trkpt>
      <trkpt lat="50.49087" lon="3.90737">
        <ele>49.65</ele>
        <time>2016-09-25T10:49:57Z</time>
      </trkpt>
      <trkpt lat="50.49086" lon="3.9074">
        <ele>49.65</ele>
        <time>2016-09-25T10:50:23Z</time>
      </trkpt>
      <trkpt lat="50.49092" lon="3.90736">
        <ele>49.65</ele>
        <time>2016-09-25T10:50:55Z</time>
      </trkpt>
      <trkpt lat="50.4909" lon="3.90736">
        <ele>49.65</ele>
        <time>2016-09-25T10:51:21Z</time>
      </trkpt>
      <trkpt lat="50.49092" lon="3.90736">
        <ele>49.65</ele>
        <time>2016-09-25T10:51:52Z</time>
      </trkpt>
      <trkpt lat="50.49092" lon="3.90734">
        <ele>49.65</ele>
        <time>2016-09-25T10:52:29Z</time>
      </trkpt>
      <trkpt lat="50.4909" lon="3.90739">
        <ele>49.65</ele>
        <time>2016-09-25T10:52:55Z</time>
      </trkpt>
      <trkpt lat="50.49092" lon="3.90738">
        <ele>49.65</ele>
        <time>2016-09-25T10:53:23Z</time>
      </trkpt>
      <trkpt lat="50.49089" lon="3.90739">
        <ele>50.13</ele>
        <time>2016-09-25T10:53:47Z</time>
      </trkpt>
      <trkpt lat="50.49089" lon="3.90737">
        <ele>50.13</ele>
        <time>2016-09-25T10:54:14Z</time>
      </trkpt>
      <trkpt lat="50.49089" lon="3.90733">
        <ele>50.61</ele>
        <time>2016-09-25T10:54:33Z</time>
      </trkpt>
      <trkpt lat="50.49089" lon="3.90737">
        <ele>50.61</ele>
        <time>2016-09-25T10:54:53Z</time>
      </trkpt>
      <trkpt lat="50.49094" lon="3.90741">
        <ele>50.61</ele>
        <time>2016-09-25T10:55:28Z</time>
      </trkpt>
      <trkpt lat="50.49089" lon="3.90739">
        <ele>50.61</ele>
        <time>2016-09-25T10:56:02Z</time>
      </trkpt>
      <trkpt lat="50.4909" lon="3.9074">
        <ele>49.16</ele>
        <time>2016-09-25T10:56:26Z</time>
      </trkpt>
      <trkpt lat="50.4909" lon="3.9074">
        <ele>50.61</ele>
        <time>2016-09-25T10:56:28Z</time>
      </trkpt>
      <trkpt lat="50.49093" lon="3.90738">
        <ele>50.61</ele>
        <time>2016-09-25T10:57:10Z</time>
      </trkpt>
      <trkpt lat="50.49091" lon="3.90738">
        <ele>51.09</ele>
        <time>2016-09-25T10:57:44Z</time>
      </trkpt>
      <trkpt lat="50.49092" lon="3.90741">
        <ele>50.13</ele>
        <time>2016-09-25T10:58:21Z</time>
      </trkpt>
      <trkpt lat="50.49093" lon="3.90739">
        <ele>50.13</ele>
        <time>2016-09-25T10:58:48Z</time>
      </trkpt>
      <trkpt lat="50.49095" lon="3.90739">
        <ele>50.13</ele>
        <time>2016-09-25T10:59:19Z</time>
      </trkpt>
      <trkpt lat="50.49092" lon="3.90741">
        <ele>50.61</ele>
        <time>2016-09-25T10:59:56Z</time>
      </trkpt>
      <trkpt lat="50.49091" lon="3.90739">
        <ele>50.61</ele>
        <time>2016-09-25T11:00:29Z</time>
      </trkpt>
      <trkpt lat="50.49096" lon="3.90741">
        <ele>50.61</ele>
        <time>2016-09-25T11:01:07Z</time>
      </trkpt>
      <trkpt lat="50.49093" lon="3.90739">
        <ele>50.61</ele>
        <time>2016-09-25T11:01:42Z</time>
      </trkpt>
      <trkpt lat="50.49094" lon="3.90741">
        <ele>50.13</ele>
        <time>2016-09-25T11:02:16Z</time>
      </trkpt>
      <trkpt lat="50.49095" lon="3.90739">
        <ele>51.09</ele>
        <time>2016-09-25T11:02:45Z</time>
      </trkpt>
      <trkpt lat="50.49094" lon="3.90737">
        <ele>51.57</ele>
        <time>2016-09-25T11:03:18Z</time>
      </trkpt>
      <trkpt lat="50.49093" lon="3.90738">
        <ele>51.57</ele>
        <time>2016-09-25T11:03:52Z</time>
      </trkpt>
      <trkpt lat="50.49093" lon="3.90737">
        <ele>51.57</ele>
        <time>2016-09-25T11:04:24Z</time>
      </trkpt>
      <trkpt lat="50.49092" lon="3.90739">
        <ele>50.61</ele>
        <time>2016-09-25T11:04:49Z</time>
      </trkpt>
      <trkpt lat="50.49092" lon="3.90739">
        <ele>50.61</ele>
        <time>2016-09-25T11:05:13Z</time>
      </trkpt>
      <trkpt lat="50.49092" lon="3.9074">
        <ele>52.53</ele>
        <time>2016-09-25T11:05:23Z</time>
      </trkpt>
      <trkpt lat="50.49092" lon="3.90741">
        <ele>51.09</ele>
        <time>2016-09-25T11:05:25Z</time>
      </trkpt>
      <trkpt lat="50.49093" lon="3.90744">
        <ele>51.09</ele>
        <time>2016-09-25T11:05:51Z</time>
      </trkpt>
      <trkpt lat="50.49078" lon="3.90734">
        <ele>51.09</ele>
        <time>2016-09-25T11:06:12Z</time>
      </trkpt>
      <trkpt lat="50.49083" lon="3.90734">
        <ele>50.61</ele>
        <time>2016-09-25T11:06:33Z</time>
      </trkpt>
      <trkpt lat="50.49068" lon="3.90718">
        <ele>50.61</ele>
        <time>2016-09-25T11:06:56Z</time>
      </trkpt>
      <trkpt lat="50.49057" lon="3.90716">
        <ele>50.61</ele>
        <time>2016-09-25T11:07:05Z</time>
      </trkpt>
      <trkpt lat="50.49033" lon="3.90723">
        <ele>49.65</ele>
        <time>2016-09-25T11:07:29Z</time>
      </trkpt>
      <trkpt lat="50.4901" lon="3.90735">
        <ele>49.65</ele>
        <time>2016-09-25T11:07:53Z</time>
      </trkpt>
      <trkpt lat="50.48993" lon="3.90747">
        <ele>51.09</ele>
        <time>2016-09-25T11:08:11Z</time>
      </trkpt>
      <trkpt lat="50.48989" lon="3.90741">
        <ele>51.09</ele>
        <time>2016-09-25T11:08:29Z</time>
      </trkpt>
      <trkpt lat="50.48981" lon="3.9075">
        <ele>51.09</ele>
        <time>2016-09-25T11:08:49Z</time>
      </trkpt>
      <trkpt lat="50.4897" lon="3.90764">
        <ele>51.57</ele>
        <time>2016-09-25T11:09:08Z</time>
      </trkpt>
      <trkpt lat="50.48963" lon="3.90765">
        <ele>51.57</ele>
        <time>2016-09-25T11:09:17Z</time>
      </trkpt>
      <trkpt lat="50.4894" lon="3.90771">
        <ele>51.57</ele>
        <time>2016-09-25T11:09:38Z</time>
      </trkpt>
      <trkpt lat="50.48914" lon="3.90776">
        <ele>52.53</ele>
        <time>2016-09-25T11:10:00Z</time>
      </trkpt>
      <trkpt lat="50.48884" lon="3.90781">
        <ele>52.05</ele>
        <time>2016-09-25T11:10:25Z</time>
      </trkpt>
      <trkpt lat="50.48856" lon="3.90787">
        <ele>52.53</ele>
        <time>2016-09-25T11:10:48Z</time>
      </trkpt>
      <trkpt lat="50.48853" lon="3.90788">
        <ele>51.09</ele>
        <time>2016-09-25T11:10:51Z</time>
      </trkpt>
      <trkpt lat="50.48831" lon="3.90801">
        <ele>50.13</ele>
        <time>2016-09-25T11:11:12Z</time>
      </trkpt>
      <trkpt lat="50.48809" lon="3.90829">
        <ele>49.16</ele>
        <time>2016-09-25T11:11:37Z</time>
      </trkpt>
      <trkpt lat="50.48789" lon="3.90847">
        <ele>47.72</ele>
        <time>2016-09-25T11:11:59Z</time>
      </trkpt>
      <trkpt lat="50.48753" lon="3.90871">
        <ele>47.24</ele>
        <time>2016-09-25T11:12:22Z</time>
      </trkpt>
      <trkpt lat="50.4872" lon="3.90859">
        <ele>46.28</ele>
        <time>2016-09-25T11:12:50Z</time>
      </trkpt>
      <trkpt lat="50.48711" lon="3.90832">
        <ele>45.8</ele>
        <time>2016-09-25T11:13:18Z</time>
      </trkpt>
      <trkpt lat="50.48706" lon="3.90815">
        <ele>46.76</ele>
        <time>2016-09-25T11:13:27Z</time>
      </trkpt>
      <trkpt lat="50.48706" lon="3.90789">
        <ele>46.28</ele>
        <time>2016-09-25T11:13:40Z</time>
      </trkpt>
      <trkpt lat="50.48707" lon="3.90782">
        <ele>47.72</ele>
        <time>2016-09-25T11:13:45Z</time>
      </trkpt>
      <trkpt lat="50.48711" lon="3.90754">
        <ele>48.2</ele>
        <time>2016-09-25T11:14:06Z</time>
      </trkpt>
      <trkpt lat="50.48719" lon="3.90722">
        <ele>50.13</ele>
        <time>2016-09-25T11:14:28Z</time>
      </trkpt>
      <trkpt lat="50.48722" lon="3.90682">
        <ele>51.57</ele>
        <time>2016-09-25T11:14:51Z</time>
      </trkpt>
      <trkpt lat="50.48729" lon="3.90652">
        <ele>51.57</ele>
        <time>2016-09-25T11:15:13Z</time>
      </trkpt>
      <trkpt lat="50.48738" lon="3.90612">
        <ele>53.01</ele>
        <time>2016-09-25T11:15:41Z</time>
      </trkpt>
      <trkpt lat="50.48742" lon="3.90572">
        <ele>53.01</ele>
        <time>2016-09-25T11:16:03Z</time>
      </trkpt>
      <trkpt lat="50.48751" lon="3.90534">
        <ele>53.01</ele>
        <time>2016-09-25T11:16:26Z</time>
      </trkpt>
      <trkpt lat="50.48758" lon="3.90501">
        <ele>53.49</ele>
        <time>2016-09-25T11:16:45Z</time>
      </trkpt>
      <trkpt lat="50.48769" lon="3.90461">
        <ele>53.49</ele>
        <time>2016-09-25T11:17:10Z</time>
      </trkpt>
      <trkpt lat="50.48776" lon="3.90416">
        <ele>53.97</ele>
        <time>2016-09-25T11:17:34Z</time>
      </trkpt>
      <trkpt lat="50.4878" lon="3.90393">
        <ele>53.97</ele>
        <time>2016-09-25T11:17:48Z</time>
      </trkpt>
      <trkpt lat="50.48785" lon="3.90364">
        <ele>53.97</ele>
        <time>2016-09-25T11:18:03Z</time>
      </trkpt>
      <trkpt lat="50.48793" lon="3.90322">
        <ele>54.45</ele>
        <time>2016-09-25T11:18:27Z</time>
      </trkpt>
      <trkpt lat="50.48798" lon="3.90271">
        <ele>54.45</ele>
        <time>2016-09-25T11:18:52Z</time>
      </trkpt>
      <trkpt lat="50.48808" lon="3.90237">
        <ele>53.01</ele>
        <time>2016-09-25T11:19:15Z</time>
      </trkpt>
      <trkpt lat="50.48816" lon="3.90219">
        <ele>53.01</ele>
        <time>2016-09-25T11:19:34Z</time>
      </trkpt>
      <trkpt lat="50.48826" lon="3.90182">
        <ele>54.45</ele>
        <time>2016-09-25T11:19:58Z</time>
      </trkpt>
      <trkpt lat="50.48823" lon="3.90137">
        <ele>55.41</ele>
        <time>2016-09-25T11:20:21Z</time>
      </trkpt>
      <trkpt lat="50.48823" lon="3.90091">
        <ele>55.41</ele>
        <time>2016-09-25T11:20:47Z</time>
      </trkpt>
      <trkpt lat="50.48833" lon="3.9004">
        <ele>55.89</ele>
        <time>2016-09-25T11:21:13Z</time>
      </trkpt>
      <trkpt lat="50.48846" lon="3.8999">
        <ele>56.37</ele>
        <time>2016-09-25T11:21:43Z</time>
      </trkpt>
      <trkpt lat="50.48859" lon="3.89939">
        <ele>56.86</ele>
        <time>2016-09-25T11:22:10Z</time>
      </trkpt>
      <trkpt lat="50.48874" lon="3.89887">
        <ele>57.34</ele>
        <time>2016-09-25T11:22:39Z</time>
      </trkpt>
      <trkpt lat="50.48888" lon="3.89834">
        <ele>57.82</ele>
        <time>2016-09-25T11:23:08Z</time>
      </trkpt>
      <trkpt lat="50.48904" lon="3.89785">
        <ele>58.3</ele>
        <time>2016-09-25T11:23:35Z</time>
      </trkpt>
      <trkpt lat="50.48891" lon="3.89745">
        <ele>55.89</ele>
        <time>2016-09-25T11:23:59Z</time>
      </trkpt>
      <trkpt lat="50.48878" lon="3.89707">
        <ele>54.45</ele>
        <time>2016-09-25T11:24:21Z</time>
      </trkpt>
      <trkpt lat="50.48859" lon="3.89659">
        <ele>52.53</ele>
        <time>2016-09-25T11:24:47Z</time>
      </trkpt>
      <trkpt lat="50.48852" lon="3.89628">
        <ele>52.05</ele>
        <time>2016-09-25T11:25:10Z</time>
      </trkpt>
      <trkpt lat="50.48852" lon="3.89628">
        <ele>52.53</ele>
        <time>2016-09-25T11:25:34Z</time>
      </trkpt>
      <trkpt lat="50.4885" lon="3.89627">
        <ele>52.53</ele>
        <time>2016-09-25T11:25:57Z</time>
      </trkpt>
      <trkpt lat="50.48843" lon="3.8961">
        <ele>51.57</ele>
        <time>2016-09-25T11:26:16Z</time>
      </trkpt>
      <trkpt lat="50.48834" lon="3.89587">
        <ele>51.09</ele>
        <time>2016-09-25T11:26:37Z</time>
      </trkpt>
      <trkpt lat="50.48821" lon="3.89554">
        <ele>50.61</ele>
        <time>2016-09-25T11:27:00Z</time>
      </trkpt>
      <trkpt lat="50.48815" lon="3.89544">
        <ele>49.16</ele>
        <time>2016-09-25T11:27:09Z</time>
      </trkpt>
      <trkpt lat="50.48798" lon="3.8952">
        <ele>49.16</ele>
        <time>2016-09-25T11:27:30Z</time>
      </trkpt>
      <trkpt lat="50.48776" lon="3.89476">
        <ele>49.65</ele>
        <time>2016-09-25T11:27:56Z</time>
      </trkpt>
      <trkpt lat="50.48771" lon="3.89469">
        <ele>49.65</ele>
        <time>2016-09-25T11:28:01Z</time>
      </trkpt>
      <trkpt lat="50.48749" lon="3.89419">
        <ele>49.65</ele>
        <time>2016-09-25T11:28:30Z</time>
      </trkpt>
      <trkpt lat="50.48729" lon="3.89372">
        <ele>50.61</ele>
        <time>2016-09-25T11:28:57Z</time>
      </trkpt>
      <trkpt lat="50.48716" lon="3.89346">
        <ele>51.57</ele>
        <time>2016-09-25T11:29:17Z</time>
      </trkpt>
      <trkpt lat="50.48703" lon="3.89361">
        <ele>51.57</ele>
        <time>2016-09-25T11:29:38Z</time>
      </trkpt>
      <trkpt lat="50.48698" lon="3.89365">
        <ele>51.57</ele>
        <time>2016-09-25T11:29:42Z</time>
      </trkpt>
      <trkpt lat="50.48679" lon="3.89384">
        <ele>49.65</ele>
        <time>2016-09-25T11:30:07Z</time>
      </trkpt>
      <trkpt lat="50.48658" lon="3.89405">
        <ele>49.16</ele>
        <time>2016-09-25T11:30:32Z</time>
      </trkpt>
      <trkpt lat="50.48637" lon="3.89428">
        <ele>48.2</ele>
        <time>2016-09-25T11:30:54Z</time>
      </trkpt>
      <trkpt lat="50.48622" lon="3.89443">
        <ele>48.68</ele>
        <time>2016-09-25T11:31:15Z</time>
      </trkpt>
      <trkpt lat="50.48622" lon="3.89443">
        <ele>47.72</ele>
        <time>2016-09-25T11:31:17Z</time>
      </trkpt>
      <trkpt lat="50.48615" lon="3.89452">
        <ele>47.24</ele>
        <time>2016-09-25T11:31:42Z</time>
      </trkpt>
      <trkpt lat="50.48614" lon="3.89453">
        <ele>47.24</ele>
        <time>2016-09-25T11:31:43Z</time>
      </trkpt>
      <trkpt lat="50.48602" lon="3.89462">
        <ele>48.68</ele>
        <time>2016-09-25T11:32:03Z</time>
      </trkpt>
      <trkpt lat="50.48601" lon="3.89463">
        <ele>48.68</ele>
        <time>2016-09-25T11:32:28Z</time>
      </trkpt>
      <trkpt lat="50.48602" lon="3.89464">
        <ele>44.36</ele>
        <time>2016-09-25T11:32:33Z</time>
      </trkpt>
      <trkpt lat="50.48603" lon="3.89463">
        <ele>52.53</ele>
        <time>2016-09-25T11:32:34Z</time>
      </trkpt>
      <trkpt lat="50.48603" lon="3.89463">
        <ele>48.2</ele>
        <time>2016-09-25T11:32:35Z</time>
      </trkpt>
      <trkpt lat="50.486" lon="3.89462">
        <ele>48.68</ele>
        <time>2016-09-25T11:32:48Z</time>
      </trkpt>
      <trkpt lat="50.4859" lon="3.89447">
        <ele>47.72</ele>
        <time>2016-09-25T11:33:09Z</time>
      </trkpt>
      <trkpt lat="50.48587" lon="3.89428">
        <ele>47.72</ele>
        <time>2016-09-25T11:33:20Z</time>
      </trkpt>
      <trkpt lat="50.48587" lon="3.89426">
        <ele>46.76</ele>
        <time>2016-09-25T11:33:22Z</time>
      </trkpt>
      <trkpt lat="50.48587" lon="3.89413">
        <ele>46.28</ele>
        <time>2016-09-25T11:33:30Z</time>
      </trkpt>
      <trkpt lat="50.48579" lon="3.89387">
        <ele>47.24</ele>
        <time>2016-09-25T11:33:42Z</time>
      </trkpt>
      <trkpt lat="50.48567" lon="3.89332">
        <ele>48.2</ele>
        <time>2016-09-25T11:34:11Z</time>
      </trkpt>
      <trkpt lat="50.48562" lon="3.89294">
        <ele>46.28</ele>
        <time>2016-09-25T11:34:32Z</time>
      </trkpt>
      <trkpt lat="50.48558" lon="3.89268">
        <ele>46.28</ele>
        <time>2016-09-25T11:34:53Z</time>
      </trkpt>
      <trkpt lat="50.4855" lon="3.89239">
        <ele>47.24</ele>
        <time>2016-09-25T11:35:08Z</time>
      </trkpt>
      <trkpt lat="50.48543" lon="3.89185">
        <ele>46.28</ele>
        <time>2016-09-25T11:35:36Z</time>
      </trkpt>
      <trkpt lat="50.48546" lon="3.89162">
        <ele>47.24</ele>
        <time>2016-09-25T11:35:48Z</time>
      </trkpt>
      <trkpt lat="50.48554" lon="3.89159">
        <ele>47.72</ele>
        <time>2016-09-25T11:36:10Z</time>
      </trkpt>
      <trkpt lat="50.48552" lon="3.89155">
        <ele>47.24</ele>
        <time>2016-09-25T11:36:37Z</time>
      </trkpt>
      <trkpt lat="50.48571" lon="3.89138">
        <ele>48.2</ele>
        <time>2016-09-25T11:37:01Z</time>
      </trkpt>
      <trkpt lat="50.48595" lon="3.8911">
        <ele>50.13</ele>
        <time>2016-09-25T11:37:25Z</time>
      </trkpt>
      <trkpt lat="50.48615" lon="3.89092">
        <ele>50.61</ele>
        <time>2016-09-25T11:37:47Z</time>
      </trkpt>
      <trkpt lat="50.48617" lon="3.89091">
        <ele>49.16</ele>
        <time>2016-09-25T11:37:49Z</time>
      </trkpt>
      <trkpt lat="50.4863" lon="3.89079">
        <ele>52.05</ele>
        <time>2016-09-25T11:38:10Z</time>
      </trkpt>
      <trkpt lat="50.48623" lon="3.89078">
        <ele>52.05</ele>
        <time>2016-09-25T11:38:29Z</time>
      </trkpt>
      <trkpt lat="50.48623" lon="3.8908">
        <ele>52.05</ele>
        <time>2016-09-25T11:39:06Z</time>
      </trkpt>
      <trkpt lat="50.48623" lon="3.89085">
        <ele>51.57</ele>
        <time>2016-09-25T11:39:40Z</time>
      </trkpt>
      <trkpt lat="50.48636" lon="3.89064">
        <ele>53.49</ele>
        <time>2016-09-25T11:39:52Z</time>
      </trkpt>
      <trkpt lat="50.48657" lon="3.89041">
        <ele>54.45</ele>
        <time>2016-09-25T11:40:08Z</time>
      </trkpt>
      <trkpt lat="50.48692" lon="3.89005">
        <ele>56.37</ele>
        <time>2016-09-25T11:40:37Z</time>
      </trkpt>
      <trkpt lat="50.48722" lon="3.88976">
        <ele>58.3</ele>
        <time>2016-09-25T11:41:02Z</time>
      </trkpt>
      <trkpt lat="50.48751" lon="3.88945">
        <ele>59.26</ele>
        <time>2016-09-25T11:41:28Z</time>
      </trkpt>
      <trkpt lat="50.48784" lon="3.88924">
        <ele>60.22</ele>
        <time>2016-09-25T11:41:55Z</time>
      </trkpt>
      <trkpt lat="50.48791" lon="3.88926">
        <ele>60.22</ele>
        <time>2016-09-25T11:41:59Z</time>
      </trkpt>
      <trkpt lat="50.48802" lon="3.88936">
        <ele>58.78</ele>
        <time>2016-09-25T11:42:06Z</time>
      </trkpt>
      <trkpt lat="50.48833" lon="3.88968">
        <ele>57.34</ele>
        <time>2016-09-25T11:42:33Z</time>
      </trkpt>
      <trkpt lat="50.48854" lon="3.89011">
        <ele>55.89</ele>
        <time>2016-09-25T11:42:59Z</time>
      </trkpt>
      <trkpt lat="50.4887" lon="3.89044">
        <ele>54.45</ele>
        <time>2016-09-25T11:43:20Z</time>
      </trkpt>
      <trkpt lat="50.48885" lon="3.89099">
        <ele>53.97</ele>
        <time>2016-09-25T11:43:46Z</time>
      </trkpt>
      <trkpt lat="50.48899" lon="3.89148">
        <ele>53.49</ele>
        <time>2016-09-25T11:44:12Z</time>
      </trkpt>
      <trkpt lat="50.48901" lon="3.89182">
        <ele>53.01</ele>
        <time>2016-09-25T11:44:32Z</time>
      </trkpt>
      <trkpt lat="50.48907" lon="3.89226">
        <ele>52.05</ele>
        <time>2016-09-25T11:44:57Z</time>
      </trkpt>
      <trkpt lat="50.48914" lon="3.89273">
        <ele>51.09</ele>
        <time>2016-09-25T11:45:22Z</time>
      </trkpt>
      <trkpt lat="50.48917" lon="3.89322">
        <ele>52.05</ele>
        <time>2016-09-25T11:45:49Z</time>
      </trkpt>
      <trkpt lat="50.48923" lon="3.89368">
        <ele>52.05</ele>
        <time>2016-09-25T11:46:15Z</time>
      </trkpt>
      <trkpt lat="50.48925" lon="3.89388">
        <ele>52.53</ele>
        <time>2016-09-25T11:46:40Z</time>
      </trkpt>
      <trkpt lat="50.48923" lon="3.89392">
        <ele>48.68</ele>
        <time>2016-09-25T11:46:48Z</time>
      </trkpt>
      <trkpt lat="50.48922" lon="3.89393">
        <ele>52.53</ele>
        <time>2016-09-25T11:46:49Z</time>
      </trkpt>
      <trkpt lat="50.4892" lon="3.89397">
        <ele>51.57</ele>
        <time>2016-09-25T11:47:11Z</time>
      </trkpt>
      <trkpt lat="50.48946" lon="3.89393">
        <ele>51.57</ele>
        <time>2016-09-25T11:47:31Z</time>
      </trkpt>
      <trkpt lat="50.48972" lon="3.89395">
        <ele>51.57</ele>
        <time>2016-09-25T11:47:56Z</time>
      </trkpt>
      <trkpt lat="50.48995" lon="3.89404">
        <ele>51.57</ele>
        <time>2016-09-25T11:48:18Z</time>
      </trkpt>
      <trkpt lat="50.4901" lon="3.89404">
        <ele>53.01</ele>
        <time>2016-09-25T11:48:33Z</time>
      </trkpt>
      <trkpt lat="50.49019" lon="3.89406">
        <ele>53.01</ele>
        <time>2016-09-25T11:48:41Z</time>
      </trkpt>
      <trkpt lat="50.4905" lon="3.89401">
        <ele>53.49</ele>
        <time>2016-09-25T11:49:02Z</time>
      </trkpt>
      <trkpt lat="50.49073" lon="3.89388">
        <ele>53.97</ele>
        <time>2016-09-25T11:49:24Z</time>
      </trkpt>
      <trkpt lat="50.49092" lon="3.89348">
        <ele>55.41</ele>
        <time>2016-09-25T11:49:51Z</time>
      </trkpt>
      <trkpt lat="50.49107" lon="3.89315">
        <ele>56.37</ele>
        <time>2016-09-25T11:50:15Z</time>
      </trkpt>
      <trkpt lat="50.49126" lon="3.89299">
        <ele>56.37</ele>
        <time>2016-09-25T11:50:36Z</time>
      </trkpt>
      <trkpt lat="50.49152" lon="3.89273">
        <ele>56.86</ele>
        <time>2016-09-25T11:51:04Z</time>
      </trkpt>
      <trkpt lat="50.49168" lon="3.89243">
        <ele>56.86</ele>
        <time>2016-09-25T11:51:27Z</time>
      </trkpt>
      <trkpt lat="50.49183" lon="3.89212">
        <ele>57.34</ele>
        <time>2016-09-25T11:51:50Z</time>
      </trkpt>
      <trkpt lat="50.49206" lon="3.89181">
        <ele>59.26</ele>
        <time>2016-09-25T11:52:17Z</time>
      </trkpt>
      <trkpt lat="50.49223" lon="3.89152">
        <ele>60.7</ele>
        <time>2016-09-25T11:52:41Z</time>
      </trkpt>
      <trkpt lat="50.49243" lon="3.89128">
        <ele>61.66</ele>
        <time>2016-09-25T11:53:06Z</time>
      </trkpt>
      <trkpt lat="50.49257" lon="3.891">
        <ele>62.14</ele>
        <time>2016-09-25T11:53:29Z</time>
      </trkpt>
      <trkpt lat="50.49279" lon="3.89077">
        <ele>62.14</ele>
        <time>2016-09-25T11:53:55Z</time>
      </trkpt>
      <trkpt lat="50.49303" lon="3.89054">
        <ele>62.62</ele>
        <time>2016-09-25T11:54:19Z</time>
      </trkpt>
      <trkpt lat="50.49327" lon="3.89023">
        <ele>63.1</ele>
        <time>2016-09-25T11:54:51Z</time>
      </trkpt>
      <trkpt lat="50.4935" lon="3.88994">
        <ele>63.1</ele>
        <time>2016-09-25T11:55:20Z</time>
      </trkpt>
      <trkpt lat="50.49374" lon="3.88964">
        <ele>63.58</ele>
        <time>2016-09-25T11:55:45Z</time>
      </trkpt>
      <trkpt lat="50.494" lon="3.88944">
        <ele>63.58</ele>
        <time>2016-09-25T11:56:11Z</time>
      </trkpt>
      <trkpt lat="50.49423" lon="3.88913">
        <ele>63.1</ele>
        <time>2016-09-25T11:56:38Z</time>
      </trkpt>
      <trkpt lat="50.49449" lon="3.88901">
        <ele>63.58</ele>
        <time>2016-09-25T11:57:01Z</time>
      </trkpt>
      <trkpt lat="50.49452" lon="3.88897">
        <ele>62.14</ele>
        <time>2016-09-25T11:57:04Z</time>
      </trkpt>
      <trkpt lat="50.49474" lon="3.88876">
        <ele>63.1</ele>
        <time>2016-09-25T11:57:29Z</time>
      </trkpt>
      <trkpt lat="50.495" lon="3.88858">
        <ele>62.14</ele>
        <time>2016-09-25T11:57:53Z</time>
      </trkpt>
      <trkpt lat="50.49522" lon="3.88842">
        <ele>60.22</ele>
        <time>2016-09-25T11:58:17Z</time>
      </trkpt>
      <trkpt lat="50.49547" lon="3.88826">
        <ele>59.26</ele>
        <time>2016-09-25T11:58:44Z</time>
      </trkpt>
      <trkpt lat="50.49547" lon="3.88826">
        <ele>59.26</ele>
        <time>2016-09-25T11:59:09Z</time>
      </trkpt>
      <trkpt lat="50.49541" lon="3.88812">
        <ele>59.26</ele>
        <time>2016-09-25T11:59:34Z</time>
      </trkpt>
      <trkpt lat="50.49535" lon="3.888">
        <ele>60.7</ele>
        <time>2016-09-25T11:59:44Z</time>
      </trkpt>
      <trkpt lat="50.49514" lon="3.8877">
        <ele>62.62</ele>
        <time>2016-09-25T12:00:05Z</time>
      </trkpt>
      <trkpt lat="50.4949" lon="3.88745">
        <ele>64.55</ele>
        <time>2016-09-25T12:00:29Z</time>
      </trkpt>
      <trkpt lat="50.49475" lon="3.88712">
        <ele>65.51</ele>
        <time>2016-09-25T12:00:55Z</time>
      </trkpt>
      <trkpt lat="50.49466" lon="3.88682">
        <ele>66.47</ele>
        <time>2016-09-25T12:01:17Z</time>
      </trkpt>
      <trkpt lat="50.49458" lon="3.88652">
        <ele>67.91</ele>
        <time>2016-09-25T12:01:39Z</time>
      </trkpt>
      <trkpt lat="50.49445" lon="3.88608">
        <ele>68.39</ele>
        <time>2016-09-25T12:02:07Z</time>
      </trkpt>
      <trkpt lat="50.49425" lon="3.8858">
        <ele>68.87</ele>
        <time>2016-09-25T12:02:33Z</time>
      </trkpt>
      <trkpt lat="50.4941" lon="3.88542">
        <ele>68.87</ele>
        <time>2016-09-25T12:02:59Z</time>
      </trkpt>
      <trkpt lat="50.49392" lon="3.88503">
        <ele>68.87</ele>
        <time>2016-09-25T12:03:27Z</time>
      </trkpt>
      <trkpt lat="50.49383" lon="3.8848">
        <ele>69.35</ele>
        <time>2016-09-25T12:03:46Z</time>
      </trkpt>
      <trkpt lat="50.4937" lon="3.8844">
        <ele>69.35</ele>
        <time>2016-09-25T12:04:13Z</time>
      </trkpt>
      <trkpt lat="50.49359" lon="3.88401">
        <ele>69.83</ele>
        <time>2016-09-25T12:04:36Z</time>
      </trkpt>
      <trkpt lat="50.49343" lon="3.88378">
        <ele>71.27</ele>
        <time>2016-09-25T12:04:59Z</time>
      </trkpt>
      <trkpt lat="50.49338" lon="3.88354">
        <ele>71.76</ele>
        <time>2016-09-25T12:05:23Z</time>
      </trkpt>
      <trkpt lat="50.49342" lon="3.88329">
        <ele>71.27</ele>
        <time>2016-09-25T12:05:45Z</time>
      </trkpt>
      <trkpt lat="50.49363" lon="3.88308">
        <ele>70.79</ele>
        <time>2016-09-25T12:06:09Z</time>
      </trkpt>
      <trkpt lat="50.49378" lon="3.88291">
        <ele>70.79</ele>
        <time>2016-09-25T12:06:29Z</time>
      </trkpt>
      <trkpt lat="50.49392" lon="3.8827">
        <ele>72.24</ele>
        <time>2016-09-25T12:06:45Z</time>
      </trkpt>
      <trkpt lat="50.49412" lon="3.88251">
        <ele>72.24</ele>
        <time>2016-09-25T12:07:10Z</time>
      </trkpt>
      <trkpt lat="50.49434" lon="3.88229">
        <ele>72.72</ele>
        <time>2016-09-25T12:07:35Z</time>
      </trkpt>
      <trkpt lat="50.49455" lon="3.88206">
        <ele>72.72</ele>
        <time>2016-09-25T12:07:59Z</time>
      </trkpt>
      <trkpt lat="50.49482" lon="3.8818">
        <ele>71.27</ele>
        <time>2016-09-25T12:08:24Z</time>
      </trkpt>
      <trkpt lat="50.49503" lon="3.88149">
        <ele>70.31</ele>
        <time>2016-09-25T12:08:50Z</time>
      </trkpt>
      <trkpt lat="50.49526" lon="3.88121">
        <ele>71.27</ele>
        <time>2016-09-25T12:09:16Z</time>
      </trkpt>
      <trkpt lat="50.4955" lon="3.881">
        <ele>70.31</ele>
        <time>2016-09-25T12:09:40Z</time>
      </trkpt>
      <trkpt lat="50.4957" lon="3.8808">
        <ele>69.35</ele>
        <time>2016-09-25T12:10:04Z</time>
      </trkpt>
      <trkpt lat="50.4959" lon="3.88057">
        <ele>68.87</ele>
        <time>2016-09-25T12:10:29Z</time>
      </trkpt>
      <trkpt lat="50.49613" lon="3.88039">
        <ele>67.43</ele>
        <time>2016-09-25T12:10:51Z</time>
      </trkpt>
      <trkpt lat="50.4963" lon="3.88019">
        <ele>66.95</ele>
        <time>2016-09-25T12:11:14Z</time>
      </trkpt>
      <trkpt lat="50.49653" lon="3.87999">
        <ele>65.99</ele>
        <time>2016-09-25T12:11:40Z</time>
      </trkpt>
      <trkpt lat="50.49677" lon="3.8798">
        <ele>64.07</ele>
        <time>2016-09-25T12:12:04Z</time>
      </trkpt>
      <trkpt lat="50.49701" lon="3.87951">
        <ele>62.14</ele>
        <time>2016-09-25T12:12:32Z</time>
      </trkpt>
      <trkpt lat="50.49725" lon="3.87921">
        <ele>59.74</ele>
        <time>2016-09-25T12:12:58Z</time>
      </trkpt>
      <trkpt lat="50.49746" lon="3.87899">
        <ele>58.3</ele>
        <time>2016-09-25T12:13:25Z</time>
      </trkpt>
      <trkpt lat="50.49774" lon="3.87874">
        <ele>57.34</ele>
        <time>2016-09-25T12:13:52Z</time>
      </trkpt>
      <trkpt lat="50.49787" lon="3.87855">
        <ele>57.34</ele>
        <time>2016-09-25T12:14:14Z</time>
      </trkpt>
      <trkpt lat="50.49792" lon="3.87843">
        <ele>57.34</ele>
        <time>2016-09-25T12:14:34Z</time>
      </trkpt>
      <trkpt lat="50.49801" lon="3.87833">
        <ele>57.34</ele>
        <time>2016-09-25T12:14:57Z</time>
      </trkpt>
      <trkpt lat="50.49807" lon="3.87803">
        <ele>57.34</ele>
        <time>2016-09-25T12:15:18Z</time>
      </trkpt>
      <trkpt lat="50.49812" lon="3.87777">
        <ele>58.78</ele>
        <time>2016-09-25T12:15:34Z</time>
      </trkpt>
      <trkpt lat="50.49821" lon="3.87739">
        <ele>59.74</ele>
        <time>2016-09-25T12:15:57Z</time>
      </trkpt>
      <trkpt lat="50.4983" lon="3.877">
        <ele>60.7</ele>
        <time>2016-09-25T12:16:21Z</time>
      </trkpt>
      <trkpt lat="50.49841" lon="3.87659">
        <ele>62.62</ele>
        <time>2016-09-25T12:16:45Z</time>
      </trkpt>
      <trkpt lat="50.49853" lon="3.87629">
        <ele>64.07</ele>
        <time>2016-09-25T12:17:10Z</time>
      </trkpt>
      <trkpt lat="50.49868" lon="3.87613">
        <ele>65.51</ele>
        <time>2016-09-25T12:17:30Z</time>
      </trkpt>
      <trkpt lat="50.4989" lon="3.87588">
        <ele>66.47</ele>
        <time>2016-09-25T12:17:53Z</time>
      </trkpt>
      <trkpt lat="50.49908" lon="3.87569">
        <ele>66.95</ele>
        <time>2016-09-25T12:18:15Z</time>
      </trkpt>
      <trkpt lat="50.49932" lon="3.87559">
        <ele>67.43</ele>
        <time>2016-09-25T12:18:39Z</time>
      </trkpt>
      <trkpt lat="50.49958" lon="3.87549">
        <ele>67.43</ele>
        <time>2016-09-25T12:19:02Z</time>
      </trkpt>
      <trkpt lat="50.49989" lon="3.87516">
        <ele>67.91</ele>
        <time>2016-09-25T12:19:26Z</time>
      </trkpt>
      <trkpt lat="50.50006" lon="3.875">
        <ele>67.91</ele>
        <time>2016-09-25T12:19:46Z</time>
      </trkpt>
      <trkpt lat="50.50036" lon="3.87486">
        <ele>67.91</ele>
        <time>2016-09-25T12:20:08Z</time>
      </trkpt>
      <trkpt lat="50.50069" lon="3.8746">
        <ele>67.43</ele>
        <time>2016-09-25T12:20:33Z</time>
      </trkpt>
      <trkpt lat="50.50108" lon="3.87444">
        <ele>67.91</ele>
        <time>2016-09-25T12:20:59Z</time>
      </trkpt>
      <trkpt lat="50.5013" lon="3.87436">
        <ele>67.91</ele>
        <time>2016-09-25T12:21:19Z</time>
      </trkpt>
      <trkpt lat="50.50156" lon="3.87414">
        <ele>67.91</ele>
        <time>2016-09-25T12:21:42Z</time>
      </trkpt>
      <trkpt lat="50.50178" lon="3.87387">
        <ele>67.91</ele>
        <time>2016-09-25T12:22:05Z</time>
      </trkpt>
      <trkpt lat="50.50202" lon="3.87347">
        <ele>67.43</ele>
        <time>2016-09-25T12:22:32Z</time>
      </trkpt>
      <trkpt lat="50.5023" lon="3.87316">
        <ele>67.91</ele>
        <time>2016-09-25T12:22:58Z</time>
      </trkpt>
      <trkpt lat="50.50248" lon="3.87291">
        <ele>68.39</ele>
        <time>2016-09-25T12:23:19Z</time>
      </trkpt>
      <trkpt lat="50.50273" lon="3.87264">
        <ele>67.91</ele>
        <time>2016-09-25T12:23:43Z</time>
      </trkpt>
      <trkpt lat="50.50277" lon="3.87239">
        <ele>67.91</ele>
        <time>2016-09-25T12:24:04Z</time>
      </trkpt>
      <trkpt lat="50.50256" lon="3.8719">
        <ele>67.91</ele>
        <time>2016-09-25T12:24:29Z</time>
      </trkpt>
      <trkpt lat="50.50246" lon="3.87158">
        <ele>67.91</ele>
        <time>2016-09-25T12:24:51Z</time>
      </trkpt>
      <trkpt lat="50.50232" lon="3.87116">
        <ele>67.91</ele>
        <time>2016-09-25T12:25:18Z</time>
      </trkpt>
      <trkpt lat="50.50217" lon="3.87081">
        <ele>67.43</ele>
        <time>2016-09-25T12:25:41Z</time>
      </trkpt>
      <trkpt lat="50.502" lon="3.87038">
        <ele>67.43</ele>
        <time>2016-09-25T12:26:06Z</time>
      </trkpt>
      <trkpt lat="50.50184" lon="3.86999">
        <ele>66.95</ele>
        <time>2016-09-25T12:26:30Z</time>
      </trkpt>
      <trkpt lat="50.5018" lon="3.86974">
        <ele>65.51</ele>
        <time>2016-09-25T12:26:45Z</time>
      </trkpt>
      <trkpt lat="50.5017" lon="3.86943">
        <ele>65.03</ele>
        <time>2016-09-25T12:27:12Z</time>
      </trkpt>
      <trkpt lat="50.50153" lon="3.86886">
        <ele>64.55</ele>
        <time>2016-09-25T12:27:34Z</time>
      </trkpt>
      <trkpt lat="50.50143" lon="3.86849">
        <ele>64.07</ele>
        <time>2016-09-25T12:27:57Z</time>
      </trkpt>
      <trkpt lat="50.50133" lon="3.86839">
        <ele>64.07</ele>
        <time>2016-09-25T12:28:21Z</time>
      </trkpt>
      <trkpt lat="50.5013" lon="3.86793">
        <ele>64.07</ele>
        <time>2016-09-25T12:28:44Z</time>
      </trkpt>
      <trkpt lat="50.50116" lon="3.86737">
        <ele>65.03</ele>
        <time>2016-09-25T12:29:11Z</time>
      </trkpt>
      <trkpt lat="50.50107" lon="3.86697">
        <ele>65.03</ele>
        <time>2016-09-25T12:29:35Z</time>
      </trkpt>
      <trkpt lat="50.50099" lon="3.86656">
        <ele>65.03</ele>
        <time>2016-09-25T12:30:00Z</time>
      </trkpt>
      <trkpt lat="50.50078" lon="3.86599">
        <ele>65.51</ele>
        <time>2016-09-25T12:30:24Z</time>
      </trkpt>
      <trkpt lat="50.50062" lon="3.86551">
        <ele>65.51</ele>
        <time>2016-09-25T12:30:50Z</time>
      </trkpt>
      <trkpt lat="50.50058" lon="3.86507">
        <ele>65.51</ele>
        <time>2016-09-25T12:31:15Z</time>
      </trkpt>
      <trkpt lat="50.50048" lon="3.86469">
        <ele>66.47</ele>
        <time>2016-09-25T12:31:40Z</time>
      </trkpt>
      <trkpt lat="50.50039" lon="3.86443">
        <ele>66.47</ele>
        <time>2016-09-25T12:31:56Z</time>
      </trkpt>
      <trkpt lat="50.50037" lon="3.86438">
        <ele>66.47</ele>
        <time>2016-09-25T12:31:59Z</time>
      </trkpt>
      <trkpt lat="50.50029" lon="3.86403">
        <ele>65.03</ele>
        <time>2016-09-25T12:32:18Z</time>
      </trkpt>
      <trkpt lat="50.50022" lon="3.86378">
        <ele>66.47</ele>
        <time>2016-09-25T12:32:34Z</time>
      </trkpt>
      <trkpt lat="50.5001" lon="3.86322">
        <ele>66.47</ele>
        <time>2016-09-25T12:32:59Z</time>
      </trkpt>
      <trkpt lat="50.50001" lon="3.8628">
        <ele>66.47</ele>
        <time>2016-09-25T12:33:24Z</time>
      </trkpt>
      <trkpt lat="50.5" lon="3.86269">
        <ele>65.51</ele>
        <time>2016-09-25T12:33:30Z</time>
      </trkpt>
      <trkpt lat="50.49989" lon="3.86226">
        <ele>65.03</ele>
        <time>2016-09-25T12:33:54Z</time>
      </trkpt>
      <trkpt lat="50.49982" lon="3.86212">
        <ele>65.03</ele>
        <time>2016-09-25T12:34:15Z</time>
      </trkpt>
      <trkpt lat="50.4999" lon="3.86213">
        <ele>65.03</ele>
        <time>2016-09-25T12:34:41Z</time>
      </trkpt>
      <trkpt lat="50.49995" lon="3.86216">
        <ele>64.55</ele>
        <time>2016-09-25T12:35:11Z</time>
      </trkpt>
      <trkpt lat="50.4999" lon="3.86216">
        <ele>63.1</ele>
        <time>2016-09-25T12:35:21Z</time>
      </trkpt>
      <trkpt lat="50.49992" lon="3.86214">
        <ele>64.07</ele>
        <time>2016-09-25T12:35:32Z</time>
      </trkpt>
      <trkpt lat="50.5" lon="3.86214">
        <ele>63.58</ele>
        <time>2016-09-25T12:35:49Z</time>
      </trkpt>
      <trkpt lat="50.49998" lon="3.86209">
        <ele>64.55</ele>
        <time>2016-09-25T12:35:54Z</time>
      </trkpt>
      <trkpt lat="50.49992" lon="3.86216">
        <ele>64.55</ele>
        <time>2016-09-25T12:36:18Z</time>
      </trkpt>
      <trkpt lat="50.4999" lon="3.86213">
        <ele>65.03</ele>
        <time>2016-09-25T12:36:44Z</time>
      </trkpt>
      <trkpt lat="50.49989" lon="3.86215">
        <ele>63.1</ele>
        <time>2016-09-25T12:36:48Z</time>
      </trkpt>
      <trkpt lat="50.49985" lon="3.86208">
        <ele>64.55</ele>
        <time>2016-09-25T12:37:02Z</time>
      </trkpt>
      <trkpt lat="50.49976" lon="3.86179">
        <ele>64.55</ele>
        <time>2016-09-25T12:37:24Z</time>
      </trkpt>
      <trkpt lat="50.49965" lon="3.86135">
        <ele>65.03</ele>
        <time>2016-09-25T12:37:52Z</time>
      </trkpt>
      <trkpt lat="50.49958" lon="3.86097">
        <ele>65.51</ele>
        <time>2016-09-25T12:38:17Z</time>
      </trkpt>
      <trkpt lat="50.4995" lon="3.86051">
        <ele>64.07</ele>
        <time>2016-09-25T12:38:43Z</time>
      </trkpt>
      <trkpt lat="50.49936" lon="3.86006">
        <ele>65.03</ele>
        <time>2016-09-25T12:39:04Z</time>
      </trkpt>
      <trkpt lat="50.49925" lon="3.85965">
        <ele>65.51</ele>
        <time>2016-09-25T12:39:30Z</time>
      </trkpt>
      <trkpt lat="50.4992" lon="3.85945">
        <ele>65.51</ele>
        <time>2016-09-25T12:39:52Z</time>
      </trkpt>
      <trkpt lat="50.49915" lon="3.85914">
        <ele>65.51</ele>
        <time>2016-09-25T12:40:17Z</time>
      </trkpt>
      <trkpt lat="50.49912" lon="3.85907">
        <ele>64.07</ele>
        <time>2016-09-25T12:40:19Z</time>
      </trkpt>
      <trkpt lat="50.49895" lon="3.85849">
        <ele>64.07</ele>
        <time>2016-09-25T12:40:44Z</time>
      </trkpt>
      <trkpt lat="50.49884" lon="3.85804">
        <ele>64.07</ele>
        <time>2016-09-25T12:41:06Z</time>
      </trkpt>
      <trkpt lat="50.49879" lon="3.85784">
        <ele>65.51</ele>
        <time>2016-09-25T12:41:16Z</time>
      </trkpt>
      <trkpt lat="50.49875" lon="3.85743">
        <ele>65.99</ele>
        <time>2016-09-25T12:41:42Z</time>
      </trkpt>
      <trkpt lat="50.49868" lon="3.85712">
        <ele>65.99</ele>
        <time>2016-09-25T12:42:06Z</time>
      </trkpt>
      <trkpt lat="50.4986" lon="3.85676">
        <ele>64.55</ele>
        <time>2016-09-25T12:42:29Z</time>
      </trkpt>
      <trkpt lat="50.4984" lon="3.85619">
        <ele>64.55</ele>
        <time>2016-09-25T12:42:53Z</time>
      </trkpt>
      <trkpt lat="50.49837" lon="3.85597">
        <ele>65.51</ele>
        <time>2016-09-25T12:43:14Z</time>
      </trkpt>
      <trkpt lat="50.49841" lon="3.85598">
        <ele>63.58</ele>
        <time>2016-09-25T12:43:38Z</time>
      </trkpt>
      <trkpt lat="50.4984" lon="3.85598">
        <ele>64.07</ele>
        <time>2016-09-25T12:43:53Z</time>
      </trkpt>
      <trkpt lat="50.49838" lon="3.85594">
        <ele>65.03</ele>
        <time>2016-09-25T12:44:18Z</time>
      </trkpt>
      <trkpt lat="50.4984" lon="3.85597">
        <ele>63.58</ele>
        <time>2016-09-25T12:44:36Z</time>
      </trkpt>
      <trkpt lat="50.49839" lon="3.85599">
        <ele>63.58</ele>
        <time>2016-09-25T12:44:58Z</time>
      </trkpt>
      <trkpt lat="50.49834" lon="3.85594">
        <ele>63.58</ele>
        <time>2016-09-25T12:45:17Z</time>
      </trkpt>
      <trkpt lat="50.49832" lon="3.85579">
        <ele>64.07</ele>
        <time>2016-09-25T12:45:40Z</time>
      </trkpt>
      <trkpt lat="50.49822" lon="3.85554">
        <ele>64.07</ele>
        <time>2016-09-25T12:46:01Z</time>
      </trkpt>
      <trkpt lat="50.49809" lon="3.85501">
        <ele>64.07</ele>
        <time>2016-09-25T12:46:25Z</time>
      </trkpt>
      <trkpt lat="50.49798" lon="3.85457">
        <ele>64.55</ele>
        <time>2016-09-25T12:46:45Z</time>
      </trkpt>
      <trkpt lat="50.49797" lon="3.85451">
        <ele>65.51</ele>
        <time>2016-09-25T12:46:50Z</time>
      </trkpt>
      <trkpt lat="50.49793" lon="3.85409">
        <ele>64.55</ele>
        <time>2016-09-25T12:47:13Z</time>
      </trkpt>
      <trkpt lat="50.49787" lon="3.85389">
        <ele>64.55</ele>
        <time>2016-09-25T12:47:26Z</time>
      </trkpt>
      <trkpt lat="50.49787" lon="3.85387">
        <ele>65.51</ele>
        <time>2016-09-25T12:47:28Z</time>
      </trkpt>
      <trkpt lat="50.49776" lon="3.85342">
        <ele>65.99</ele>
        <time>2016-09-25T12:47:51Z</time>
      </trkpt>
      <trkpt lat="50.49762" lon="3.85295">
        <ele>66.47</ele>
        <time>2016-09-25T12:48:13Z</time>
      </trkpt>
      <trkpt lat="50.49755" lon="3.85256">
        <ele>66.95</ele>
        <time>2016-09-25T12:48:37Z</time>
      </trkpt>
      <trkpt lat="50.49747" lon="3.85237">
        <ele>66.95</ele>
        <time>2016-09-25T12:48:46Z</time>
      </trkpt>
      <trkpt lat="50.49727" lon="3.85176">
        <ele>66.95</ele>
        <time>2016-09-25T12:49:11Z</time>
      </trkpt>
      <trkpt lat="50.49722" lon="3.85137">
        <ele>67.43</ele>
        <time>2016-09-25T12:49:34Z</time>
      </trkpt>
      <trkpt lat="50.49721" lon="3.85133">
        <ele>65.99</ele>
        <time>2016-09-25T12:49:40Z</time>
      </trkpt>
      <trkpt lat="50.49709" lon="3.85071">
        <ele>65.99</ele>
        <time>2016-09-25T12:50:04Z</time>
      </trkpt>
      <trkpt lat="50.49696" lon="3.85024">
        <ele>65.51</ele>
        <time>2016-09-25T12:50:31Z</time>
      </trkpt>
      <trkpt lat="50.49691" lon="3.84987">
        <ele>65.03</ele>
        <time>2016-09-25T12:50:53Z</time>
      </trkpt>
      <trkpt lat="50.49676" lon="3.84933">
        <ele>64.55</ele>
        <time>2016-09-25T12:51:18Z</time>
      </trkpt>
      <trkpt lat="50.49666" lon="3.84887">
        <ele>64.07</ele>
        <time>2016-09-25T12:51:42Z</time>
      </trkpt>
      <trkpt lat="50.49659" lon="3.84848">
        <ele>63.58</ele>
        <time>2016-09-25T12:52:06Z</time>
      </trkpt>
      <trkpt lat="50.49637" lon="3.84777">
        <ele>63.1</ele>
        <time>2016-09-25T12:52:33Z</time>
      </trkpt>
      <trkpt lat="50.49625" lon="3.84733">
        <ele>63.1</ele>
        <time>2016-09-25T12:52:57Z</time>
      </trkpt>
      <trkpt lat="50.49607" lon="3.84673">
        <ele>63.1</ele>
        <time>2016-09-25T12:53:20Z</time>
      </trkpt>
      <trkpt lat="50.496" lon="3.84621">
        <ele>62.62</ele>
        <time>2016-09-25T12:53:43Z</time>
      </trkpt>
      <trkpt lat="50.49584" lon="3.8457">
        <ele>62.62</ele>
        <time>2016-09-25T12:54:06Z</time>
      </trkpt>
      <trkpt lat="50.49574" lon="3.84519">
        <ele>62.62</ele>
        <time>2016-09-25T12:54:33Z</time>
      </trkpt>
      <trkpt lat="50.4956" lon="3.84465">
        <ele>61.66</ele>
        <time>2016-09-25T12:54:57Z</time>
      </trkpt>
      <trkpt lat="50.49543" lon="3.84414">
        <ele>60.7</ele>
        <time>2016-09-25T12:55:21Z</time>
      </trkpt>
      <trkpt lat="50.4954" lon="3.84369">
        <ele>60.22</ele>
        <time>2016-09-25T12:55:44Z</time>
      </trkpt>
      <trkpt lat="50.49535" lon="3.84325">
        <ele>59.26</ele>
        <time>2016-09-25T12:56:07Z</time>
      </trkpt>
      <trkpt lat="50.49523" lon="3.84276">
        <ele>57.34</ele>
        <time>2016-09-25T12:56:30Z</time>
      </trkpt>
      <trkpt lat="50.4951" lon="3.84217">
        <ele>56.86</ele>
        <time>2016-09-25T12:56:54Z</time>
      </trkpt>
      <trkpt lat="50.49485" lon="3.84145">
        <ele>56.37</ele>
        <time>2016-09-25T12:57:19Z</time>
      </trkpt>
      <trkpt lat="50.49472" lon="3.84083">
        <ele>55.41</ele>
        <time>2016-09-25T12:57:44Z</time>
      </trkpt>
      <trkpt lat="50.49472" lon="3.8406">
        <ele>54.93</ele>
        <time>2016-09-25T12:58:08Z</time>
      </trkpt>
      <trkpt lat="50.49479" lon="3.84031">
        <ele>53.97</ele>
        <time>2016-09-25T12:58:32Z</time>
      </trkpt>
      <trkpt lat="50.49477" lon="3.83986">
        <ele>52.05</ele>
        <time>2016-09-25T12:58:54Z</time>
      </trkpt>
      <trkpt lat="50.49473" lon="3.83959">
        <ele>51.57</ele>
        <time>2016-09-25T12:59:05Z</time>
      </trkpt>
      <trkpt lat="50.49472" lon="3.83955">
        <ele>51.09</ele>
        <time>2016-09-25T12:59:34Z</time>
      </trkpt>
      <trkpt lat="50.49475" lon="3.83917">
        <ele>49.65</ele>
        <time>2016-09-25T12:59:59Z</time>
      </trkpt>
      <trkpt lat="50.49476" lon="3.83867">
        <ele>47.72</ele>
        <time>2016-09-25T13:00:23Z</time>
      </trkpt>
      <trkpt lat="50.4947" lon="3.83797">
        <ele>46.76</ele>
        <time>2016-09-25T13:00:44Z</time>
      </trkpt>
      <trkpt lat="50.49473" lon="3.83757">
        <ele>47.72</ele>
        <time>2016-09-25T13:01:08Z</time>
      </trkpt>
      <trkpt lat="50.49475" lon="3.83708">
        <ele>47.72</ele>
        <time>2016-09-25T13:01:31Z</time>
      </trkpt>
      <trkpt lat="50.49469" lon="3.83684">
        <ele>46.28</ele>
        <time>2016-09-25T13:01:51Z</time>
      </trkpt>
      <trkpt lat="50.49448" lon="3.83672">
        <ele>45.8</ele>
        <time>2016-09-25T13:02:16Z</time>
      </trkpt>
      <trkpt lat="50.4941" lon="3.83646">
        <ele>44.84</ele>
        <time>2016-09-25T13:02:42Z</time>
      </trkpt>
      <trkpt lat="50.49379" lon="3.83635">
        <ele>43.88</ele>
        <time>2016-09-25T13:03:04Z</time>
      </trkpt>
      <trkpt lat="50.4935" lon="3.83637">
        <ele>42.44</ele>
        <time>2016-09-25T13:03:28Z</time>
      </trkpt>
      <trkpt lat="50.49322" lon="3.83626">
        <ele>40.99</ele>
        <time>2016-09-25T13:03:50Z</time>
      </trkpt>
      <trkpt lat="50.49301" lon="3.83615">
        <ele>40.99</ele>
        <time>2016-09-25T13:04:08Z</time>
      </trkpt>
      <trkpt lat="50.49288" lon="3.8362">
        <ele>40.51</ele>
        <time>2016-09-25T13:04:18Z</time>
      </trkpt>
      <trkpt lat="50.49245" lon="3.83616">
        <ele>40.03</ele>
        <time>2016-09-25T13:04:42Z</time>
      </trkpt>
      <trkpt lat="50.49214" lon="3.83602">
        <ele>40.03</ele>
        <time>2016-09-25T13:05:07Z</time>
      </trkpt>
      <trkpt lat="50.49199" lon="3.83593">
        <ele>40.03</ele>
        <time>2016-09-25T13:05:27Z</time>
      </trkpt>
      <trkpt lat="50.49191" lon="3.83595">
        <ele>41.47</ele>
        <time>2016-09-25T13:05:51Z</time>
      </trkpt>
      <trkpt lat="50.49183" lon="3.83593">
        <ele>41.47</ele>
        <time>2016-09-25T13:06:14Z</time>
      </trkpt>
      <trkpt lat="50.49182" lon="3.83593">
        <ele>40.51</ele>
        <time>2016-09-25T13:06:36Z</time>
      </trkpt>
      <trkpt lat="50.49158" lon="3.83598">
        <ele>40.51</ele>
        <time>2016-09-25T13:06:58Z</time>
      </trkpt>
      <trkpt lat="50.49131" lon="3.83601">
        <ele>40.03</ele>
        <time>2016-09-25T13:07:22Z</time>
      </trkpt>
      <trkpt lat="50.49101" lon="3.83609">
        <ele>39.55</ele>
        <time>2016-09-25T13:07:45Z</time>
      </trkpt>
      <trkpt lat="50.49067" lon="3.83614">
        <ele>38.59</ele>
        <time>2016-09-25T13:08:10Z</time>
      </trkpt>
      <trkpt lat="50.4905" lon="3.83613">
        <ele>37.63</ele>
        <time>2016-09-25T13:08:26Z</time>
      </trkpt>
      <trkpt lat="50.49021" lon="3.83617">
        <ele>37.15</ele>
        <time>2016-09-25T13:08:48Z</time>
      </trkpt>
      <trkpt lat="50.48984" lon="3.83621">
        <ele>36.67</ele>
        <time>2016-09-25T13:09:17Z</time>
      </trkpt>
      <trkpt lat="50.48955" lon="3.83621">
        <ele>36.19</ele>
        <time>2016-09-25T13:09:40Z</time>
      </trkpt>
      <trkpt lat="50.48932" lon="3.83628">
        <ele>36.19</ele>
        <time>2016-09-25T13:09:58Z</time>
      </trkpt>
      <trkpt lat="50.48903" lon="3.83631">
        <ele>36.67</ele>
        <time>2016-09-25T13:10:20Z</time>
      </trkpt>
      <trkpt lat="50.48869" lon="3.83636">
        <ele>35.71</ele>
        <time>2016-09-25T13:10:47Z</time>
      </trkpt>
      <trkpt lat="50.48835" lon="3.83637">
        <ele>34.74</ele>
        <time>2016-09-25T13:11:12Z</time>
      </trkpt>
      <trkpt lat="50.48799" lon="3.83639">
        <ele>32.82</ele>
        <time>2016-09-25T13:11:37Z</time>
      </trkpt>
      <trkpt lat="50.48774" lon="3.83641">
        <ele>31.86</ele>
        <time>2016-09-25T13:11:59Z</time>
      </trkpt>
      <trkpt lat="50.48742" lon="3.83633">
        <ele>30.9</ele>
        <time>2016-09-25T13:12:24Z</time>
      </trkpt>
      <trkpt lat="50.48715" lon="3.83623">
        <ele>30.9</ele>
        <time>2016-09-25T13:12:47Z</time>
      </trkpt>
      <trkpt lat="50.4868" lon="3.8362">
        <ele>30.42</ele>
        <time>2016-09-25T13:13:15Z</time>
      </trkpt>
      <trkpt lat="50.48654" lon="3.83615">
        <ele>30.9</ele>
        <time>2016-09-25T13:13:36Z</time>
      </trkpt>
      <trkpt lat="50.48622" lon="3.8361">
        <ele>30.42</ele>
        <time>2016-09-25T13:14:01Z</time>
      </trkpt>
      <trkpt lat="50.48601" lon="3.83608">
        <ele>29.94</ele>
        <time>2016-09-25T13:14:19Z</time>
      </trkpt>
      <trkpt lat="50.48563" lon="3.83605">
        <ele>28.98</ele>
        <time>2016-09-25T13:14:47Z</time>
      </trkpt>
      <trkpt lat="50.48539" lon="3.83603">
        <ele>29.94</ele>
        <time>2016-09-25T13:15:04Z</time>
      </trkpt>
      <trkpt lat="50.48516" lon="3.83599">
        <ele>28.5</ele>
        <time>2016-09-25T13:15:23Z</time>
      </trkpt>
      <trkpt lat="50.48486" lon="3.83594">
        <ele>28.02</ele>
        <time>2016-09-25T13:15:47Z</time>
      </trkpt>
      <trkpt lat="50.48467" lon="3.83584">
        <ele>29.46</ele>
        <time>2016-09-25T13:16:03Z</time>
      </trkpt>
      <trkpt lat="50.48441" lon="3.8355">
        <ele>29.94</ele>
        <time>2016-09-25T13:16:27Z</time>
      </trkpt>
      <trkpt lat="50.48436" lon="3.83507">
        <ele>31.86</ele>
        <time>2016-09-25T13:16:48Z</time>
      </trkpt>
      <trkpt lat="50.48436" lon="3.83481">
        <ele>32.82</ele>
        <time>2016-09-25T13:17:09Z</time>
      </trkpt>
      <trkpt lat="50.48435" lon="3.83444">
        <ele>33.3</ele>
        <time>2016-09-25T13:17:32Z</time>
      </trkpt>
      <trkpt lat="50.48435" lon="3.83431">
        <ele>34.26</ele>
        <time>2016-09-25T13:17:50Z</time>
      </trkpt>
      <trkpt lat="50.48433" lon="3.83433">
        <ele>34.26</ele>
        <time>2016-09-25T13:18:06Z</time>
      </trkpt>
      <trkpt lat="50.48435" lon="3.83434">
        <ele>33.3</ele>
        <time>2016-09-25T13:18:24Z</time>
      </trkpt>
      <trkpt lat="50.48435" lon="3.83437">
        <ele>33.78</ele>
        <time>2016-09-25T13:18:48Z</time>
      </trkpt>
      <trkpt lat="50.48435" lon="3.83436">
        <ele>33.78</ele>
        <time>2016-09-25T13:19:05Z</time>
      </trkpt>
      <trkpt lat="50.48435" lon="3.83434">
        <ele>33.78</ele>
        <time>2016-09-25T13:19:35Z</time>
      </trkpt>
      <trkpt lat="50.48437" lon="3.83435">
        <ele>35.23</ele>
        <time>2016-09-25T13:19:57Z</time>
      </trkpt>
      <trkpt lat="50.48436" lon="3.83436">
        <ele>33.78</ele>
        <time>2016-09-25T13:20:06Z</time>
      </trkpt>
      <trkpt lat="50.48436" lon="3.83436">
        <ele>35.23</ele>
        <time>2016-09-25T13:20:15Z</time>
      </trkpt>
      <trkpt lat="50.48431" lon="3.83441">
        <ele>35.71</ele>
        <time>2016-09-25T13:20:33Z</time>
      </trkpt>
      <trkpt lat="50.48431" lon="3.83441">
        <ele>34.74</ele>
        <time>2016-09-25T13:21:03Z</time>
      </trkpt>
    </trkseg>
  </trk>
</gpx>